Aviation Digital Data Service (ADDS)

Output produced by METARs form (0421 UTC 17 April 2014)
found at http://aviationweather.gov/adds/metars/
 
K01M 170415Z AUTO 00000KT 10SM CLR 07/04 A3019 RMK AO2 T00700039
K04V 170415Z AUTO 14010KT 10SM RA BKN006 OVC026 02/01 A3005 RMK AO2
K04W 170426Z AUTO 02016G21KT 1 1/2SM -SN BKN008 OVC013 M02/M02 A3006 RMK AO2
K05U 170420Z AUTO 00000KT 10SM CLR 06/M04 A3005 RMK AO1
K06D 170415Z AUTO 03008KT 10SM CLR M06/M11 A3033 RMK AO2
K08D 170415Z AUTO 07005KT 10SM FEW036 OVC065 M03/M05 A3026 RMK AO2
K0A9 170415Z AUTO 00000KT 10SM CLR 06/M07 A3034 RMK
K0CO 170415Z AUTO 28004KT 10SM SCT030 BKN039 OVC047 M10/M15 A3011 RMK AO2
K0E0 170415Z AUTO 33013KT 10SM SCT095 SCT120 12/M06 A3000 RMK AO2 T01221057
K0F2 170415Z AUTO 11006KT 10SM CLR 13/07 A2999 RMK AO2 T01320067
K0J4 170358Z AUTO 07003KT 10SM CLR 11/04 A3022 RMK AO2 SLP232 T01060044 $
K0R0 170415Z AUTO 10SM CLR 09/07 A3016 RMK AO2
K11R 170415Z AUTO 12004KT 10SM CLR 13/10 A3004 RMK AO2 T01330101
K12N 170354Z AUTO 00000KT 00/M06 A3056 RMK AO1 SLP361 T00001061
K14Y 170425Z AUTO 00014G20KT 10SM OVC019 M03/M06 A3011 RMK AO2
K19A 170415Z AUTO 10004KT 10SM CLR 08/M05 A3035 RMK AO2
K1A5 170355Z AUTO 25003KT 10SM CLR 03/M03 A3036 RMK AO2 T00301026
K1A6 170415Z AUTO 00000KT 10SM CLR 03/00 A3028 RMK AO2 T00340000
K1F0 170355Z AUTO 13004KT 10SM 12/03 A3003 RMK AO2
K1H2 170355Z AUTO 14009KT 10SM CLR 08/M04 A3015 RMK AO2 T00791037
K1II 170415Z AUTO 13005KT 10SM CLR 05/M03 A3024 RMK AO2
K1J0 170358Z AUTO 06006KT 10SM CLR 12/06 A3022 RMK AO2 SLP217 T01220061
K1M4 170356Z AUTO 00000KT 10SM CLR 05/03 A3023 RMK AO2 T00500027 SLP246 $
K1P1 170415Z AUTO 00000KT 10SM M04/M07 A3062 RMK AO2 T10411066
K1R7 170415Z AUTO 00000KT 10SM CLR 06/05 A3016 RMK AO2
K1V4 170354Z AUTO M06/M09 A3062 RMK AO1 SLP385 T10561089
K1V6 170415Z AUTO 16004KT 1 1/2SM -SN BKN006 OVC011 01/01 A3013 RMK AO2 P0002
K1YT 170356Z AUTO 10006KT 12SM SCT095 BKN110 12/04 A2995 RMK AO2 SLPNO T01180043
K20V 170416Z AUTO 34003KT 10SM SCT110 01/M08 A3006 RMK AO2
K21D 170411Z AUTO 02009KT 3SM UP OVC005 01/01 A2994 RMK AO2 P0001
K28J 170355Z AUTO 05006KT 7SM BKN016 15/13 A3022 RMK AO2
K2C8 170415Z AUTO 35007KT 10SM CLR M03/M09 A3034 RMK AO2
K2D5 170415Z AUTO 36009KT 10SM CLR M04/M07 A3022 RMK AO2
K2DP 170356Z AUTO 01009G16KT 12SM CLR 04/01 A3046 RMK AO2 SLPNO T00420008
K2G4 170415Z AUTO 12015G23KT 10SM CLR M01/M14 A3036 RMK AO1
K2I0 170415Z AUTO 00000KT 10SM CLR 09/01 A3021 RMK AO2 T00850005
K2V5 170415Z AUTO 07004KT 10SM CLR 04/01 A3012 RMK AO2 T00390007
K2W6 170415Z AUTO 00000KT 10SM CLR 01/M02 A3055 RMK AO1
K2WX 170356Z AUTO 10011KT M01/M05 A3011 RMK AO1 SLP226 T10111050
K33V 170415Z AUTO 16004KT 10SM OVC095 M01/M08 A3003 RMK AO2
K36U 170355Z AUTO 08006KT 10SM CLR 04/M10 A3003 RMK AO2
K3I2 170415Z AUTO 06003KT 10SM CLR 05/M05 A3033 RMK AO2
K3J7 170415Z AUTO 05003KT 10SM CLR 07/01 A3031 RMK AO2
K3LF 170415Z AUTO 00000KT 10SM CLR 05/01 A3015 RMK AO2 T00500005
K3R7 170415Z AUTO 00000KT 10SM CLR 11/09 A3012 RMK AO2 T01120091
K3T5 170415Z AUTO 14003KT 10SM CLR 15/11 A3000 RMK AO2 T01450112
K40B 170416Z AUTO 00000KT M12/M13 A3057 RMK AO1 SLP384 T11171126 51026 P0000
K40J 170415Z AUTO 07006KT 10SM CLR 12/08 A3024 RMK AO2
K42J 170415Z AUTO 02005KT 10SM BKN017 13/10 A3023 RMK AO1
K46D 170415Z AUTO 04009KT 10SM CLR M03/M07 A3028 RMK AO2
K4A6 170415Z AUTO 11003KT 10SM CLR 12/M01 A3027 RMK AO2
K4A9 170415Z AUTO 00000KT 10SM CLR 10/M04 A3028 RMK AO2
K4BM 170414Z AUTO 07007KT 1SM -SN OVC001 M06/M07 A3014 RMK AO2
K4I3 170415Z AUTO 09007KT 10SM CLR 03/M07 A3033 RMK AO2
K4M9 170415Z AUTO 15006KT 10SM CLR 08/03 A3015 RMK AO2
K4MR 170356Z AUTO 01024G33KT 7SM FEW140 14/M04 A2987 RMK AO2 PK WND 01035/41 SLP073 T01381037
K4O4 170421Z AUTO 12007KT 10SM CLR 09/01 A3009 RMK AO2
K54J 170415Z AUTO 07007KT 10SM CLR 12/06 A3020 RMK AO2 T01150056
K5C1 170355Z AUTO 15008G14KT 10SM CLR 15/07 A2999 RMK AO1
K5H4 170415Z AUTO 05011KT 10SM CLR M04/M08 A3029 RMK AO2
K5M9 170415Z AUTO 13008KT 10SM CLR 08/M01 A3018 RMK AO2 T00761009
K5R8 170415Z AUTO 12003KT 10SM CLR 11/09 A3010 RMK AO2 T01100087
K5SM 170418Z AUTO 00000KT 10SM CLR M01/M12 A3011 RMK AO2
K5W8 170415Z AUTO 00000KT 10SM CLR 02/00 A3045 RMK AO2 T00161002
K65S 170415Z AUTO 00000KT 10SM SCT050 OVC110 07/03 A2996 RMK AO2
K6A2 170415Z AUTO 00000KT 10SM CLR 08/ A3032 RMK AO2
K6B0 170415Z AUTO 00000KT 10SM CLR M05/M05 A3063 RMK AO2 T10531055 TSNO
K6R3 170415Z AUTO 00000KT 7SM CLR 11/10 A3007 RMK AO2 T01110102
K6R6 170353Z AUTO 12015G23KT 18/04 A2983 RMK AO1 SLP079 T01830044
K79J 170356Z AUTO 12003KT 10SM CLR 11/05 A3021 RMK AO2 SLP228 T01060050
K7BM 170415Z AUTO 15007KT 1/4SM +SN OVC001 M01/M02 A3010 RMK AO2
K7L2 170415Z AUTO 09007KT 10SM CLR M05/M08 A3024 RMK AO2 PWINO PNO
K82V 170415Z AUTO 13008KT 10SM SCT055 BKN065 OVC080 02/M01 A3010 RMK AO2
K8A0 170415Z AUTO 12006KT 10SM CLR 10/02 A3025 RMK AO2
K8D3 170356Z AUTO 34006KT M06/M07 A3019 RMK AO1 SLP248 T10611072
K8S0 170345Z 00000KT
K96D 170415Z AUTO 32006KT 10SM CLR M04/M09 A3036 RMK AO2
K9D7 170415Z AUTO 03008KT 10SM CLR M05/M11 A3032 RMK AO2
K9L2 170355Z AUTO 22006KT 10SM CLR 21/M01 A2980 RMK AO2 SLP079 T02111011 $
K9MN 170412Z AUTO 10012KT 10SM OVC049 08/M01 A2982 RMK AO1 T00831014
K9V9 170352Z AUTO 36005KT M02/M06 A3021 RMK AO1 SLPNO T10171056
KAAA 170355Z AUTO 15007KT 10SM CLR 05/00 A3014 RMK AO2 T00500000
KAAF 170401Z AUTO 06008KT 10SM BKN027 BKN035 16/09 A3018 RMK AO2 T01560089
KAAO 170354Z AUTO 01013G21KT 10SM CLR 11/02 A3005 RMK AO2 SLP174 T01110022
KAAT 170355Z AUTO 33003KT 10SM CLR 12/M02 A2999 RMK AO2 SLP139 T01171017
KABE 170351Z AUTO 00000KT 10SM CLR 02/M09 A3057 RMK AO2 SLP354 T00171089 TSNO
KABI 170352Z 15016G24KT 10SM CLR 17/02 A2989 RMK AO2 SLP106 T01720017
KABQ 170352Z 01011KT 10SM FEW040 SCT120 BKN200 16/M05 A2994 RMK AO2 SLP085 MTN TOPS OBSC NE T01561050
KABR 170353Z AUTO 36007KT 10SM CLR M05/M07 A3021 RMK AO2 SLP248 T10501072
KABY 170353Z 08011KT 10SM CLR 12/07 A3030 RMK AO2 SLP259 T01170067
KACB 170414Z AUTO 15008G18KT 10SM SCT070 OVC080 03/M05 A3030 RMK AO2 T00311052
KACJ 170350Z AUTO 10004KT 10SM CLR 09/05 A3031 RMK AO2
KACK 170353Z AUTO 03010KT 10SM CLR 02/M06 A3056 RMK AO2 SLP349 T00221056 TSNO
KACP 170415Z AUTO 00000KT 10SM CLR 07/07 A3012 RMK AO2 T00730065
KACQ 170417Z AUTO 34015G22KT 4SM -RA OVC004 03/02 A2987 RMK AO2 P0001
KACT 170351Z 14011KT 10SM CLR 14/08 A2999 RMK AO2 SLP154 T01440078
KACV 170353Z AUTO 01008KT 10SM CLR 10/07 A3005 RMK AO2 SLP181 T01000072
KACY 170354Z 00000KT 10SM CLR 00/M03 A3055 RMK AO2 SLP346 T00001033
KADC 170415Z AUTO 02009KT 10SM CLR M04/M08 A3016 RMK AO2
KADF 170356Z AUTO 00000KT 10SM CLR 09/08 A3014 RMK AO2 T00880077 SLP220
KADG 170353Z AUTO 11009KT 10SM CLR 01/M02 A3035 RMK AO2 SLP286 T00061022 TSNO
KADH 170415Z AUTO 13006KT 10SM CLR 09/03 A3006 RMK AO2
KADM 170415Z AUTO 12005KT 10SM CLR 11/05 A3004 RMK AO2 T01100046
KADS 170415Z AUTO 14010G15KT 10SM CLR 15/04 A3003 RMK AO2 T01450040
KADU 170415Z AUTO 30010G19KT 270V330 10SM BKN013 02/M02 A3002 RMK AO2
KADW 170358Z AUTO 03005KT 10SM CLR 02/M05 A3053 RMK AO2 SLP348 T00211051 $
KAEG 170415Z AUTO 32005KT 10SM CLR 11/M05 A2996 RMK AO2 T01101051
KAEJ 170415Z AUTO 18005KT 2 1/2SM -SN SCT011 BKN017 OVC041 00/M01 A3010 RMK AO2 T00001006
KAEL 170408Z AUTO 33009KT 4SM RA OVC004 04/04 A2980 RMK AO2 P0002
KAEX 170353Z 00000KT 10SM CLR 11/07 A3011 RMK AO2 SLP201 T01060072
KAFF 170418Z AUTO 00000KT 3SM -SN BR FEW001 OVC016 00/00 A3012 RMK AO2
KAFJ 170415Z AUTO 08006KT 10SM CLR 02/M08 A3039 RMK AO1
KAFK 170415Z AUTO 34015G21KT 10SM OVC022 04/M01 A3008 RMK AO2 T00351008
KAFN 170352Z AUTO 00000KT 10SM CLR M03/M08 A3057 RMK AO2 SLP372 T10281083
KAFO 170415Z AUTO 00000KT 10SM CLR 00/M07 A3004 RMK AO2
KAFP 170415Z AUTO 00000KT 10SM CLR 02/00 A3044 RMK AO2 T00220003
KAFW 170353Z 13010KT 10SM CLR 13/06 A2999 RMK AO2 SLP153 T01330056
KAGC 170353Z AUTO 10009KT 10SM CLR 04/M09 A3039 RMK AO2 SLP305 T00391089 TSNO $
KAGS 170353Z 00000KT 10SM CLR 06/02 A3036 RMK AO2 SLP279 T00560017
KAHN 170351Z AUTO 08005KT 10SM CLR 06/01 A3035 RMK AO2 SLP279 T00610006 $
KAHQ 170415Z AUTO 35021G27KT 10SM OVC021 02/M03 A3011 RMK AO2 T00181032
KAIA 170353Z AUTO 08011KT 10SM OVC013 01/M02 A3012 RMK AO2 SLP213 T00111017
KAIB 170415Z AUTO 10007KT 10SM 05/M04 A3004 RMK AO2
KAIG 170355Z AUTO 11015G21KT 10SM OVC031 00/M04 A3011 RMK AO2 T10051037 400031108
KAIK 170415Z AUTO 06004KT 10SM CLR 07/01 A3039 RMK AO2 PNO
KAIO 170415Z AUTO 31013G21KT 10SM OVC013 02/M00 A3004 RMK AO2
KAIT 170413Z AUTO 01009G15KT 10SM -SN BKN046 OVC050 M02/M06 A3012 RMK AO2
KAIZ 170415Z AUTO 17010G14KT 10SM CLR 10/M03 A3007 RMK AO1
KAJG 170415Z AUTO 12010KT 10SM CLR 07/00 A3017 RMK AO2
KAJO 170356Z AUTO 26009KT 10SM CLR 16/11 A2984 RMK AO2 T01610111 SLP100 $
KAJZ 170415Z AUTO 00000KT 10SM CLR 07/M07 A2998 RMK AO2 T00711067
KAKH 170354Z AUTO 00000KT 10SM CLR 04/01 A3041 RMK AO2 SLP303 T00440006
KAKO 170353Z AUTO 11006KT 10SM CLR 02/M01 A3010 RMK AO2 SLP195 T00221011
KAKQ 170354Z AUTO 00000KT 10SM CLR 01/M02 A3051 RMK AO2 SLP335 T00061017 TSNO
KAKR 170354Z AUTO 08004KT 10SM CLR 03/M08 A3037 RMK AO2 SLP293 T00331083
KALB 170351Z 33004KT 10SM CLR M01/M10 A3061 RMK AO2 SLP367 T10111100
KALI 170353Z AUTO 13010KT 10SM CLR 17/13 A2996 RMK AO2 SLP143 T01720128 $
KALM 170415Z AUTO 16009KT 10SM CLR 19/M18 A2979 RMK AO2
KALN 170355Z AUTO 17008KT 10SM CLR 07/M03 A3015 RMK AO2 T00741026 TSNO
KALO 170354Z 16018G28KT 10SM CLR 09/M01 A2983 RMK AO2 PK WND 14029/0309 SLP103 T00941011
KALS 170413Z AUTO 11003KT 1/2SM SN FG VV006 00/M01 A3004 RMK AO2 P0007 T00001006
KALW 170353Z AUTO 11004KT 10SM SCT110 11/04 A2997 RMK AO2 SLP151 T01110039
KALX 170415Z AUTO 11005KT 10SM CLR 13/01 A3027 RMK AO2 T01300011
KAMA 170353Z 05016KT 10SM CLR 14/M08 A2992 RMK AO2 SLP100 T01391078
KAMG 170353Z AUTO 00000KT 10SM CLR 08/05 A3030 RMK AO2 SLP258 T00830050
KAMN 170415Z AUTO 10010KT 10SM CLR 02/M07 A3033 RMK AO2 T00151068
KAMW 170418Z AUTO 30020G25KT 9SM BKN014 OVC055 06/04 A2991 RMK AO2 T00610039
KANB 170353Z AUTO 05003KT 10SM CLR 10/02 A3027 RMK AO2 SLP253 T01000017
KAND 170356Z AUTO 07007KT 10SM CLR 07/M01 A3037 RMK AO2 SLP284 T00721006
KANE 170415Z AUTO 02011G23KT 3/4SM SN OVC005 M01/M01 A2997 RMK AO2
KANJ 170355Z AUTO 08006KT 3/4SM -SN BR VV006 M02/M03 A3040 RMK AO2 SLP302 P0005 T10171033
KANK 170415Z AUTO 11007KT 5SM OVC039 01/00 A3017 RMK AO1 T00060001
KANQ 170415Z AUTO 12012KT 10SM CLR 01/M03 A3028 RMK
KANW 170415Z AUTO 36010KT 10SM OVC015 M01/M04 A3019 RMK AO2 T10081041
KAOH 170353Z AUTO 10007KT 10SM CLR 02/M03 A3030 RMK AO2 SLP270 T00221028
KAOO 170353Z AUTO 13004KT 10SM CLR 01/M08 A3047 RMK AO2 SLP336 T00111083
KAPA 170353Z 18009KT 10SM FEW045 OVC060 04/M01 A3010 RMK AO2 SLP185 T00391011
KAPC 170354Z AUTO 00000KT 10SM CLR 15/10 A2983 RMK AO2 SLP092 T01500100
KAPF 170353Z AUTO 07013KT 10SM FEW039 OVC050 23/21 A3008 RMK AO2 SLP184 T02280206
KAPG 162345Z 35004KT 7SM SKC 06/M07 A3048 RMK LAST
KAPN 170354Z AUTO 14012KT 10SM SCT075 OVC090 01/M05 A3039 RMK AO2 SLP302 T00061050
KAPY 170355Z AUTO 14008G16KT 10SM CLR 19/10 A2992 RMK AO2 T01960105
KAQO 170415Z AUTO 15007KT 10SM CLR 16/08 A3000 RMK AO2
KAQP 170415Z AUTO 02017KT 10SM OVC022 M01/M04 A3014 RMK AO2
KAQR 170415Z AUTO 12003KT 10SM CLR 10/03 A3007 RMK AO2
KAQV 170356Z AUTO 00000KT 10SM CLR 09/07 A3009 RMK AO2 SLP190 T00890072
KAQW 170352Z AUTO 00000KT 10SM CLR M03/M05 A3058 RMK AO2 SLP364 T10331050
KARA 170353Z AUTO 14006KT 10SM CLR 11/09 A3014 RMK AO2 SLP207 T01110089
KARB 170353Z AUTO 10007KT 10SM CLR 00/M06 A3036 RMK AO2 SLP288 T00001056
KARG 170415Z AUTO 15006KT 10SM CLR 08/02 A3015 RMK AO1
KARM 170415Z AUTO 10004KT 10SM CLR 14/12 A3003 RMK AO2 T01430121
KARR 170352Z AUTO 14008KT 10SM CLR 06/M03 A3015 RMK AO2 SLP215 T00561028 TSNO
KART 170356Z AUTO 00000KT 10SM CLR M04/M09 A3061 RMK AO2 SLP371 T10441089
KARV 170355Z AUTO 13011G18KT 1 1/2SM -SN BKN010 OVC015 00/M01 A3009 RMK AO2 T10011015
KARW 170415Z AUTO 05017G22KT 10SM CLR 12/06 A3033 RMK AO2
KASD 170353Z AUTO 00000KT 10SM CLR 08/06 A3016 RMK AO2 SLP213 T00780061
KASE 170353Z AUTO 21007KT 170V230 10SM CLR 01/M04 A3002 RMK AO2 SLP122 T00111039
KASG 170148Z 15008KT 10SM BKN031 12/M01 A3006 RMK LAST
KASH 170351Z AUTO 35003KT 10SM CLR M01/M10 A3062 RMK AO2 T10051100 SLP631
KASJ 170415Z AUTO 00000KT 10SM CLR 03/00 A3051 RMK AO2 T00301001
KASL 170355Z AUTO 00000KT 10SM CLR 08/05 A3010 RMK AO1 T00760051
KAST 170355Z AUTO 18008KT 6SM -RA BR BKN012 OVC017 11/09 A2999 RMK AO2 SLP155 P0003 T01060089
KASW 170415Z AUTO 13009G16KT 10SM CLR 04/M03 A3024 RMK AO2
KASX 170414Z AUTO 05017KT 1SM -SN BR OVC006 M02/M03 A3014 RMK AO2 P0001 T10221028
KATL 170352Z 10009KT 10SM FEW250 09/M01 A3030 RMK AO2 SLP264 T00941011
KATP 170415Z AUTO 10017G22KT 8SM SCT025 BKN031 OVC044 A3015 RMK A01
KATS 170415Z AUTO 24013KT 10SM CLR 18/M16 A2975 RMK AO2
KATT 170351Z AUTO 17004KT 10SM CLR 16/08 A3000 RMK AO2 SLP154 T01560083
KATW 170345Z 12011G17KT 10SM OVC100 04/M04 A3014 RMK LAST
KATY 170412Z AUTO 02013KT 10SM SCT021 M04/M07 A3013 RMK AO2 T10441072
KAUG 170353Z AUTO 34005KT 10SM CLR M04/M11 A3064 RMK AO2 SLP380 T10441106
KAUH 170415Z AUTO 36015G21KT 10SM OVC020 02/M02 A3013 RMK AO2 T00211022
KAUM 170415Z AUTO 14011G15KT 10SM -DZ OVC046 07/02 A2978 RMK AO2
KAUN 170415Z AUTO 00000KT 10SM CLR 16/08 A2985 RMK AO1
KAUO 170415Z AUTO 10008KT 10SM CLR 09/00 A3028 RMK AO1
KAUS 170353Z 16011KT 10SM BKN250 16/09 A2999 RMK AO2 SLP152 T01560094
KAUW 170354Z AUTO 11017G23KT 10SM OVC048 03/M04 A3006 RMK AO2 SLP196 T00281044
KAVC 170415Z AUTO 00000KT 10SM CLR 03/M01 A3054 RMK AO2
KAVK 170415Z AUTO 01011KT 10SM FEW050 12/00 A3003 RMK AO2
KAVL 170354Z AUTO 00000KT 10SM CLR 04/M02 A3038 RMK AO2 SLP290 T00391022
KAVP 170354Z AUTO 00000KT 10SM CLR M01/M08 A3054 RMK AO2 SLP352 T10061083 TSNO
KAVX 170400Z AUTO 16006KT 3/4SM BR VV002 11/10 A2986 RMK AO2 T01110100 TSNO
KAWG 170415Z AUTO 16013G20KT 10SM BKN110 09/M01 A2995 RMK AO2
KAWM 170353Z AUTO 00000KT 10SM CLR 08/04 A3016 RMK AO2 SLP212 T00780044
KAWO 170415Z AUTO 14013KT 10SM SCT022 OVC028 10/08 A2998 RMK AO1
KAXA 170415Z AUTO 33020G27KT 10SM OVC008 00/M01 A2993 RMK AO2
KAXH 170415Z AUTO 09003KT 10SM CLR 14/11 A3004 RMK AO2 T01380112
KAXN 170412Z AUTO 03014KT 10SM SCT019 M03/M07 A3013 RMK AO2
KAXS 170415Z AUTO 11015KT 10SM CLR 15/02 A2995 RMK AO2 T01470022
KAXV 170412Z AUTO 11006KT 10SM CLR 02/M05 A3030 RMK AO2
KAXX 170415Z AUTO 00000KT 1 1/4SM SN OVC006 01/00 A3009 RMK AO2 P0002 T00050000
KAZC 170415Z AUTO 00000KT 10SM CLR 10/M04 A2997 RMK AO2 T00981036
KAZE 170415Z AUTO 00000KT 10SM CLR 09/07 A3031 RMK AO2 T00900065
KAZO 170353Z AUTO 12012G18KT 10SM CLR 03/M03 A3027 RMK AO2 SLP257 T00331028
KBAB 170358Z AUTO 08003KT 10SM CLR 19/12 A2978 RMK AO2 SLP160 T01870117 $
KBAD 170358Z AUTO 13003KT 10SM CLR 10/04 A3010 RMK AO2 SLP196 T00950039 CHINO RWY33 $
KBAF 170353Z 00000KT 10SM CLR M01/M07 A3059 RMK AO2 SLP364 T10061072
KBAK 170145Z 12004KT 10SM SKC 07/M04 A3024
KBAN 170352Z AUTO 00000KT 10SM CLR 10/M02 A3002 RMK AO2 SLP125 T01001022 $
KBAX 170416Z AUTO 13005KT 10SM CLR 00/M06 A3041 RMK AO2 T00011063
KBAZ 170351Z AUTO 15011KT 10SM CLR 15/09 A2998 RMK AO2 SLP149 T01500094
KBBB 170412Z AUTO 05013G22KT 10SM BKN027 M02/M06 A3013 RMK AO2
KBBD 170415Z AUTO 12005KT 10SM CLR 14/03 A2993 RMK
KBBF 170415Z AUTO 15017KT 5SM HZ FEW044 20/12 A2999 RMK A01
KBBG 170415Z AUTO 14007KT 10SM OVC032 08/M01 A3012 RMK AO2
KBBP 170415Z AUTO 04005KT 10SM CLR 06/ A3042 RMK AO2
KBBW 170353Z AUTO 01016G22KT 10SM OVC016 M01/M04 A3015 RMK AO2 SLP224 T10061039
KBCB 170415Z AUTO 09004KT 10SM CLR 02/M03 A3044 RMK AO2
KBCE 170353Z AUTO 01006KT 10SM CLR 00/M07 A3007 RMK AO2 SLP129 T00001067
KBCK 170415Z AUTO 13009G14KT 10SM OVC065 09/M02 A2994 RMK AO2 T00901020
KBCT 162345Z 05013KT 7SM FEW005 BKN016 M/M A3003
KBDE 170353Z AUTO 04009KT 10SM FEW120 M02/M13 A3027 RMK AO2 SLP267 T10221133 TSNO
KBDH 170415Z AUTO 01018G22KT 7SM OVC029 M01/M05 A3008 RMK AO2
KBDL 170351Z 02004KT 10SM CLR 00/M07 A3059 RMK AO2 SLP359 T00001072
KBDN 170415Z AUTO 30003KT 10SM OVC065 10/02 A3001 RMK AO2
KBDR 170352Z 36008KT 10SM CLR 03/M08 A3058 RMK AO2 SLP356 T00331078
KBDU 170416Z AUTO 25005KT 10SM OVC060 06/M01 A3008 RMK AO2
KBEA 170415Z AUTO 12008KT 10SM CLR 17/12 A2996 RMK AO2 T01700120
KBED 170356Z 01003KT 10SM CLR M02/M10 A3061 RMK AO2 SLP381 T10171100
KBEH 170353Z AUTO 13014G23KT 10SM CLR 05/M03 A3021 RMK AO2 SLP233 T00501033
KBFD 170353Z AUTO 13005KT 10SM CLR M02/M10 A3043 RMK AO2 SLP329 T10221100
KBFF 170353Z AUTO 14007KT 10SM CLR 02/M02 A3013 RMK AO2 SLP208 T00171017
KBFI 170353Z 14007KT 10SM OVC032 12/09 A2998 RMK AO2 RAE0258 SLP151 P0000 T01220094
KBFL 170354Z 05003KT 10SM CLR 24/05 A2979 RMK AO2 SLP081 T02390050
KBFM 170353Z AUTO 36003KT 10SM CLR 10/08 A3019 RMK AO2 SLP221 T01000083
KBFW 170414Z AUTO 04012G17KT 1 1/4SM -SN VV007 M04/M04 A3017 RMK AO2
KBGD 170351Z AUTO 05013G18KT 10SM CLR 14/M02 A2995 RMK AO2 SLP120 T01441017
KBGE 170415Z AUTO 08009KT 10SM OVC037 15/10 A3025 RMK AO2
KBGF 170415Z AUTO 00000KT 10SM CLR 10/M02 A3025 RMK
KBGM 170353Z 08005KT 10SM CLR M03/M11 A3051 RMK AO2 SLP356 T10281106
KBGR 170353Z 31003KT 10SM CLR M04/M12 A3065 RMK AO2 SLP383 T10441117
KBHB 170415Z AUTO 36005KT 10SM CLR M03/M09 A3065 RMK AO1
KBHC 170415Z AUTO 04003KT 10SM CLR 08/06 A3030 RMK AO2
KBHK 170351Z AUTO 12014G18KT 10SM FEW015 OVC021 M01/M05 A3016 RMK AO2 SLP239 T10111050
KBHM 170353Z VRB03KT 10SM CLR 12/01 A3025 RMK AO2 SLP243 T01220011
KBID 170415Z 04010G16KT 10SM CLR 03/M06 A3058 RMK AO1
KBIE 170415Z AUTO 34011G16KT 10SM SCT026 03/M02 A3012 RMK AO2 T00321020
KBIF 170356Z 28012G18KT 7SM CLR 25/M17 A2983 RMK AO2A SLP023 T02451167
KBIH 170356Z AUTO 01011KT 10SM CLR 21/M06 A2985 RMK AO2 SLP066 T02061061
KBIJ 170415Z AUTO 08006KT 10SM CLR 10/07 A3026 RMK AO2
KBIL 170357Z 04005KT 10SM SCT028 BKN050 BKN070 03/00 A3006 RMK AO2 T00330000 $
KBIS 170352Z AUTO 06007KT 10SM OVC075 M01/M09 A3026 RMK AO2 SLP269 T10111094
KBIV 170353Z AUTO 12016G21KT 10SM CLR 06/M03 A3023 RMK AO2 SLP243 T00561033
KBIX 170358Z AUTO 07004KT 10SM CLR 12/10 A3016 RMK AO2 SLP216 T01230096
KBJC 170345Z VRB04KT 30SM OVC050 07/M04 A3008 RMK LAST
KBJI 170412Z AUTO 06004KT 10SM CLR M04/M10 A3020 RMK AO2 T10381097
KBJJ 170356Z AUTO 11005KT 10SM CLR 02/M06 A3036 RMK AO2 SLP293 T00171061 TSNO
KBJN 170356Z AUTO 31013KT 10SM CLR 14/M08 A2996 RMK AO2 SLP230 T01441083
KBKB 170354Z AUTO 00000KT 10SM CLR 09/07 A3009 RMK AO2 SLP218 T00940067
KBKD 170415Z AUTO 14011KT 10SM CLR 17/04 A2991 RMK AO2 T01680042
KBKE 170353Z AUTO 26003KT 10SM CLR 04/M01 A3000 RMK AO2 SLP167 T00441006 TSNO
KBKF 170355Z 19009KT 10SM VCSH OVC040 05/M01 A3010 RMK SLP173
KBKL 170353Z 06007KT 10SM CLR 02/M04 A3039 RMK AO2 SLP295 T00221044
KBKS 170415Z AUTO 11005KT 10SM CLR 19/15 A2996 RMK AO1 T01890152
KBKV 170353Z AUTO 04006KT 10SM CLR 14/12 A3018 RMK AO2 SLP218 T01440122
KBKW 170351Z AUTO 14011G21KT 10SM CLR 04/M07 A3033 RMK AO2 SLP289 T00441072 TSNO
KBLF 170352Z AUTO 14010G17KT 090V160 10SM CLR 05/M08 A3034 RMK AO2 SLP280 T00501078
KBLH 170352Z AUTO 20010KT 10SM CLR 29/M04 A2968 RMK AO2 SLP044 T02891044
KBLI 170411Z 14007KT 10SM -RA SCT013 BKN019 OVC060 11/09 A2994 RMK AO2 P0000
KBLM 170415Z AUTO 03005KT 10SM CLR 04/M08 A3056 RMK AO1
KBLU 170352Z AUTO 05003KT 10SM CLR 13/04 A3001 RMK AO2 SLP101 T01330039 TSNO
KBLV 170358Z AUTO 00000KT 10SM CLR 06/M01 A3016 RMK AO2 SLP218 T00641006
KBMG 170353Z AUTO 14007KT 10SM CLR 07/M05 A3022 RMK AO2 SLP235 T00671050
KBMI 170356Z 17010KT 10SM CLR 03/M02 A3015 RMK AO2 T00331022 SLP219
KBML 170352Z AUTO 00000KT 10SM CLR M08/M10 A3059 RMK AO2 SLP382 I1000 T10831100
KBMQ 170353Z AUTO 14010G16KT 10SM CLR 15/08 A2999 RMK AO2 SLP147 T01500083
KBMT 170415Z AUTO 09003KT 10SM CLR 12/10 A3008 RMK AO2 T01220101
KBNA 170353Z 17003KT 10SM FEW250 08/02 A3022 RMK AO2 SLP233 T00830017
KBNL 170415Z AUTO 08004KT 10SM CLR 07/03 A3038 RMK AO2
KBNO 170353Z AUTO 33005KT 10SM BKN085 07/M02 A2999 RMK AO2 SLP154 T00721022
KBNW 170415Z AUTO 30017G26KT 8SM OVC009 06/04 A2991 RMK AO2
KBOI 170353Z 02004KT 10SM CLR 12/M08 A2998 RMK AO2 SLP149 T01171078
KBOK 170356Z AUTO 19005KT 6SM HZ CLR 11/08 A3003 RMK AO2 T01110077 SLP171
KBOS 170354Z 01008KT 10SM CLR 01/M10 A3062 RMK AO2 SLP367 T00111100
KBOW 170415Z AUTO 03006KT 10SM CLR 17/14 A3016 RMK AO2
KBPC 170415Z AUTO 07010G16KT 10SM CLR 13/M01 A2998 RMK AO2
KBPG 170355Z AUTO 15020G24KT 10SM CLR 18/00 A2985 RMK AO2 T01761002
KBPI 170353Z AUTO 02010KT 10SM CLR M01/M10 A3005 RMK AO2 SLP167 T10061100
KBPK 170353Z AUTO 14003KT 7SM CLR 08/M02 A3012 RMK AO2 SLP199 T00831022
KBPT 170353Z AUTO 15005KT 10SM CLR 12/10 A3007 RMK AO2 SLP183 T01220100
KBQK 170355Z AUTO 06013G21KT 10SM OVC021 14/11 A3028 RMK AO1
KBQP 170415Z AUTO 00000KT 10SM CLR 06/04 A3015 RMK AO2 T00570042
KBQX 170415Z AUTO 13018KT 10SM BKN041 BKN047 19/13 A3001 RMK A01
KBRD 170353Z AUTO 03013KT 10SM FEW019 OVC050 M01/M06 A3014 RMK AO2 SLP222 T10061061
KBRL 170353Z AUTO 16014G22KT 10SM CLR 09/M02 A3000 RMK AO2 SLP160 T00941022
KBRO 170353Z 13004KT 10SM CLR 18/14 A2999 RMK AO2 SLP153 T01780144
KBTA 170415Z AUTO 32016G23KT 10SM OVC016 02/M02 A3008 RMK AO2 T00151025
KBTL 170353Z 12009KT 10SM CLR 02/M04 A3028 RMK AO2 SLP263 T00221039
KBTM 170353Z AUTO 31004KT 10SM BKN070 03/M07 A3000 RMK AO2 SLP168 T00331067
KBTP 170415Z AUTO 08013G16KT 10SM CLR 02/M09 A3042 RMK AO1
KBTR 170353Z AUTO 10006KT 10SM CLR 10/06 A3015 RMK AO2 SLP207 T01000056 TSNO
KBTV 170354Z 07005KT 10SM CLR M04/M08 A3065 RMK AO2 SLP383 T10391078
KBUF 170354Z 08012KT 10SM SCT240 M01/M08 A3052 RMK AO2 SLP345 T10061078
KBUR 170353Z 18003KT 9SM CLR 16/11 A2983 RMK AO2 SLP093 T01610111
KBUU 170355Z AUTO 21008KT 10SM CLR 05/M02 A3013 RMK AO2 T00471018
KBUY 170354Z AUTO 05004KT 10SM CLR 04/M04 A3045 RMK AO2 SLP312 T00441044
KBVE 170351Z AUTO 09005KT 10SM OVC032 14/09 A3016 RMK AO2 SLP212 T01440094
KBVI 170047Z 10003KT 10SM CLR 04/M09 A3040 RMK LAST
KBVN 170415Z AUTO 35010G18KT 10SM OVC018 00/M04 A3015 RMK AO2 T00001045
KBVO 170353Z AUTO 18006KT 10SM CLR 12/01 A3003 RMK AO2 SLP163 T01170011
KBVS 170415Z AUTO 12004KT 5SM FEW002 OVC010 11/10 A2996 RMK A01 P001
KBVU 170415Z AUTO 05003KT 10SM CLR 21/M00 A2978 RMK AO2
KBVX 170415Z AUTO 16004KT 10SM CLR 09/01 A3015 RMK AO1
KBVY 170353Z AUTO 01006KT 10SM CLR 00/M10 A3061 RMK AO2 SLP363 T00001100
KBWD 170415Z AUTO 14010KT 10SM SCT028 BKN035 OVC043 15/06 A2993 RMK AO2
KBWG 170353Z AUTO 00000KT 10SM CLR 07/00 A3023 RMK AO2 SLP237 T00670000
KBWI 170354Z 00000KT 10SM CLR 02/M04 A3054 RMK AO2 SLP341 T00221044
KBWP 170355Z AUTO 02004KT 10SM CLR M02/M06 A3021 RMK AO1
KBXA 170415Z AUTO 00000KT 10SM 09/07 A3018 RMK AO2 T00890069
KBXK 170415Z AUTO 25007KT 10SM CLR 23/M04 A2973 RMK AO1
KBYG 170353Z AUTO 15007KT 10SM BKN044 BKN075 OVC090 00/M03 A3004 RMK AO2 SLP190 T00001028
KBYI 170353Z AUTO 25005KT 10SM CLR 07/M07 A2999 RMK AO2 SLP150 T00671072
KBYS 170355Z AUTO 11006KT 10SM CLR 26/M06 A2977 RMK AO2 SLP043 T02581057 $
KBYY 170415Z AUTO 11006KT 10SM CLR 15/13 A3001 RMK AO2 T01520136
KBZN 170356Z 00000KT 10SM BKN075 OVC100 04/M02 A2999 RMK AO2 SLP165 T00391022
KC09 170355Z AUTO 16008KT 10SM CLR 07/M04 A3016 RMK AO2 T00651045
KC29 170355Z AUTO 15011KT 10SM SCT085 OVC110 09/M03 A3005 RMK AO1 T00871032
KC35 170355Z AUTO 13010G19KT 110V170 10SM OVC060 08/M02 A3000 RMK AO2 T00811018
KC75 170355Z AUTO 16014G17KT 10SM CLR 08/M01 A3010 RMK AO2 T00751011
KCAD 170415Z AUTO 13007G19KT 10SM SCT075 OVC090 01/M05 A3026 RMK AO2 T00101047
KCAE 170356Z 07007KT 10SM CLR 10/M02 A3038 RMK AO2 SLP289 T01001017
KCAG 170353Z AUTO 00000KT 10SM SCT110 00/M07 A3000 RMK AO2 SLP161 T00001072
KCAK 170351Z 08005KT 10SM CLR 03/M08 A3037 RMK AO2 SLP294 T00281083 PNO
KCAO 170355Z AUTO 05019KT 10SM OVC100 09/M06 A3003 RMK AO2 PK WND 04028/0331 SLP138 T00941056
KCAR 170354Z AUTO 33005KT 10SM CLR M07/M12 A3058 RMK AO2 SLP370 T10671122
KCAV 170415Z AUTO 30022G30KT 9SM OVC006 03/02 A2989 RMK AO2
KCBE 170416Z AUTO 00000KT 10SM CLR 04/M09 A3054 RMK AO1
KCBF 170415Z AUTO 32013G21KT 10SM OVC017 02/M01 A3007 RMK AO2
KCBG 170415Z AUTO 01010G15KT 2SM -SN SCT003 OVC008 M01/M05 A3001 RMK AO2
KCBK 170350Z AUTO 04011KT 10SM CLR 07/03 A3012 RMK AO2
KCBM 170358Z AUTO 13005KT 10SM CLR 09/05 A3019 RMK AO2 SLP227 T00860048 $
KCCA 170415Z AUTO 00000KT 10SM CLR 04/02 A3016 RMK AO2
KCCO 170415Z AUTO 11006KT 10SM CLR 08/03 A3030 RMK AO2 T00820027
KCCR 170353Z AUTO 34007KT 10SM CLR 17/09 A2982 RMK AO2 SLP084 T01720094 TSNO
KCCU 170416Z AUTO 18006KT 10SM SCT036 BKN043 M03/M12 A3010 RMK AO2
KCCY 170415Z AUTO 18019G27KT 10SM SCT043 BKN050 OVC055 09/01 A2982 RMK AO2
KCDA 170415Z AUTO 00000KT 10SM CLR M08/M11 A3062 RMK AO2 T10821107
KCDC 170353Z AUTO 03008KT 10SM CLR 10/M06 A2998 RMK AO2 SLP120 T01001061
KCDD 170412Z AUTO 00000KT 10SM SCT065 OVC110 M06/M12 A3026 RMK AO2
KCDH 170415Z AUTO 10SM CLR 08/02 A3014 RMK AO2
KCDJ 170352Z AUTO 19007KT 13/01 A2998 RMK AO1 SLP150 T01280006
KCDN 170415Z AUTO 00000KT 10SM CLR 05/00 A3042 RMK AO2 TSNO
KCDR 170353Z AUTO 08005KT 9SM FEW060 OVC095 02/M01 A3013 RMK AO2 SLP231 T00171006
KCDS 170353Z AUTO 13015G23KT 10SM CLR 18/M01 A2987 RMK AO2 SLP098 T01781006
KCDW 170353Z 05006KT 10SM CLR 03/M09 A3059 RMK AO2 SLP363 T00331094
KCEC 170356Z AUTO 33007KT 7SM CLR 10/09 A3004 RMK AO2 SLP173 T01000089
KCEF 170358Z AUTO 03003KT 10SM CLR M01/M06 A3059 RMK AO2 SLP368 T10081060
KCEU 170354Z AUTO 00000KT 10SM CLR 09/M01 A3038 RMK AO2 SLP288 T00891011
KCEW 170353Z AUTO 05003KT 10SM CLR 09/06 A3021 RMK AO2 SLP227 T00940061
KCEY 170355Z AUTO 13005KT 10SM CLR 07/00 A3018 RMK AO1
KCEZ 170353Z AUTO 00000KT 10SM CLR 04/M05 A2999 RMK AO2 SLP124 T00441050
KCFD 170355Z AUTO 13005KT 10SM CLR 13/09 A3003 RMK AO2 T01250093
KCFE 170415Z AUTO 36013G21KT 7SM UP BKN014 OVC024 M02/M04 A3001 RMK AO2 T10181037
KCFS 170415Z AUTO 11008KT 10SM CLR 01/M08 A3038 RMK AO2 T00121085
KCFV 170352Z AUTO 17009KT 10SM CLR 11/01 A3002 RMK AO2 SLP164 T01110011
KCGC 170415Z AUTO 05006KT 10SM OVC031 14/11 A3019 RMK AO2
KCGE 170413Z AUTO 00000KT 10SM CLR 03/00 A3054 RMK AO1
KCGF 170245Z 08008KT 10SM SCT250 00/M03 A3041
KCGI 170353Z AUTO 16003KT 10SM CLR 07/03 A3015 RMK AO2 SLP210 T00670028
KCGS 170415Z AUTO 00000KT 10SM CLR 02/M02 A3054 RMK AO1
KCGZ 170415Z AUTO 00000KT 10SM CLR 24/M07 A2976 RMK AO1
KCHA 170353Z 16006KT 10SM CLR 12/M03 A3029 RMK AO2 SLP255 LAST T01221033 $
KCHD 170347Z 18006KT 15SM SKC 25/M06 A2972 RMK LAST
KCHK 170415Z AUTO 13011KT 10SM CLR 12/03 A3000 RMK AO2
KCHO 170353Z AUTO 36004KT 10SM CLR 02/M07 A3051 RMK AO2 SLP333 T00221067
KCHS 170356Z 04006KT 10SM FEW040 09/04 A3036 RMK AO2 SLP281 T00940044
KCIC 170415Z AUTO 08003KT 10SM CLR 20/08 A2979 RMK AO1
KCID 170352Z 16016G25KT 10SM CLR 09/M02 A2990 RMK AO2 PK WND 15027/0302 SLP129 T00891022
KCIN 170415Z AUTO 31017G25KT 8SM -UP BKN011 OVC018 01/M01 A2999 RMK AO2
KCIR 170415Z AUTO 00000KT 10SM CLR 07/03 A3017 RMK AO2 T00690027
KCIU 170415Z AUTO 10007KT 3SM OVC006 M01/M01 A3038 RMK AO1
KCJR 170415Z AUTO 00000KT 10SM CLR 01/M03 A3054 RMK AO2
KCKB 170353Z 10006KT 10SM CLR 05/M08 A3036 RMK AO2 SLP283 T00501083
KCKC 170413Z AUTO 04011G16KT 1 1/2SM -SN BKN017 OVC023 M06/M09 A3021 RMK AO2
KCKF 170415Z AUTO 11004KT 10SM CLR 12/08 A3032 RMK AO2 T01190080
KCKI 170415Z AUTO 00000KT 10SM CLR 07/04 A3040 RMK AO2
KCKM 170355Z AUTO 00000KT 10SM 09/07 A3017 RMK AO1
KCKN 170415Z AUTO 04007KT 10SM CLR M02/M09 A3028 RMK AO2
KCKP 170415Z AUTO 34014G21KT 10SM OVC009 00/M01 A3004 RMK AO2 T10011013
KCKV 170352Z AUTO 05003KT 10SM CLR 07/01 A3020 RMK AO2 SLP230 T00670006
KCLE 170351Z 08007KT 10SM BKN250 04/M07 A3040 RMK AO2 SLP302 T00441072 $
KCLI 170415Z AUTO 07007KT 10SM OVC070 02/M02 A3014 RMK AO2
KCLK 170415Z AUTO 13014G18KT 10SM CLR 13/M01 A2997 RMK AO2
KCLL 170353Z 14007KT 10SM CLR 14/09 A3003 RMK AO2 SLP166 T01390094
KCLM 170406Z AUTO 00000KT 3SM -RA BR FEW048 OVC075 09/08 A2993 RMK AO2 P0001 T00890078
KCLS 170355Z AUTO 18007KT 7SM -RA BKN010 OVC029 10/10 A3001 RMK AO2 P0004
KCLT 170352Z 07004KT 10SM CLR 08/M02 A3042 RMK AO2 SLP302 T00781022
KCMA 170355Z AUTO 00000KT 7SM CLR 14/12 A2983 RMK AO2 SLP109 T01440117
KCMD 170415Z AUTO 14003KT 10SM CLR 11/01 A3024 RMK AO2 T01080008
KCMH 170351Z 09010KT 10SM FEW140 BKN200 05/M06 A3032 RMK AO2 SLP271 T00501061
KCMI 170353Z 14008KT 10SM CLR 06/M02 A3016 RMK AO2 SLP217 T00561017
KCMR 170415Z AUTO 00000KT 10SM CLR 10/M11 A3010 RMK AO1
KCMX 170353Z AUTO 11017G22KT 1SM -SN BR OVC004 M02/M04 A3024 RMK AO2 SLP258 P0000 T10221039
KCMY 170415Z AUTO 13010G17KT 10SM OVC075 09/M03 A2995 RMK AO2 T00911027
KCNB 170414Z AUTO 35013KT 10SM OVC021 M01/M04 A3014 RMK AO2 T10151039
KCNC 170415Z AUTO 28016G24KT 10SM OVC065 07/02 A2996 RMK AO2
KCNI 170355Z AUTO 08005KT 10SM CLR 08/M05 A3031 RMK AO2
KCNK 170355Z AUTO 35012G20KT 10SM CLR 04/M01 A3012 RMK AO2 SLP200 T00391011
KCNM 170353Z AUTO 12006KT 10SM CLR 15/M17 A2974 RMK AO2 SLP036 T01501167 TSNO
KCNO 170353Z AUTO 28007KT 8SM CLR 16/12 A2984 RMK AO2 SLP102 T01610117
KCNU 170352Z AUTO 18011KT 10SM CLR 12/01 A3000 RMK AO2 SLP157 T01170011
KCNY 170353Z AUTO 25004KT 10SM CLR 09/M07 A2992 RMK AO2 SLP109 T00891067
KCOD 170415Z 04004KT 10SM CLR 01/M02 A3002 RMK AO1
KCOE 170415Z AUTO 17007KT 10SM SCT046 SCT055 OVC070 07/04 A2999 RMK AO1
KCOF 170358Z AUTO 06016KT 10SM CLR 21/16 A3014 RMK AO2 SLP211 T02120164
KCOM 170355Z AUTO 17008KT 10SM CLR 16/03 A2992 RMK AO2 T01570028
KCON 170351Z AUTO 12003KT 10SM CLR M03/M11 A3061 RMK AO2 SLP371 T10281106
KCOQ 170417Z AUTO 05016KT 2SM -SN OVC017 M03/M04 A3012 RMK AO2 VIS 1 3/4V2 1/2
KCOS 170404Z 00000KT 2SM -RASN BR FEW006 BKN029 OVC041 02/01 A3013 RMK AO2 SFC VIS 3 P0000 T00170006
KCOT 170353Z AUTO 14015G20KT 10SM CLR 18/11 A2996 RMK AO2 SLP140 T01830111
KCOU 170354Z AUTO 16015KT 10SM CLR 10/M02 A3004 RMK AO2 SLP171 T01001022
KCPC 170415Z AUTO 05007KT 10SM CLR 06/01 A3042 RMK AO2 T00600013
KCPK 170415Z AUTO 00000KT 7SM CLR 02/02 A3051 RMK AO2
KCPR 170353Z AUTO 08009KT 10SM SCT100 01/M01 A3006 RMK AO2 SLP189 T00111011
KCPS 170353Z AUTO 16004KT 10SM CLR 07/M01 A3015 RMK AO2 SLP212 T00721011
KCPT 170415Z AUTO 13012G15KT 10SM CLR 13/08 A3002 RMK AO2
KCPW 170418Z AUTO 00000KT 2SM -SN OVC009 M05/M05 A3010 RMK AO2
KCQB 170415Z AUTO 17008KT 10SM CLR 12/05 A3003 RMK AO2
KCQC 170353Z AUTO 09016KT 10SM OVC090 09/M04 A3001 RMK AO2 PK WND 06027/0336 SLP101 T00891044
KCQF 170415Z AUTO 00000KT 10SM CLR 08/07 A3017 RMK AO2
KCQM 170415Z AUTO 00000KT 10SM OVC085 M04/M08 A3022 RMK AO2
KCQT 170347Z AUTO 28003KT 7SM CLR 16/12 A2983 RMK AO2 SLP101 T01560117 $
KCQW 170415Z AUTO CLR 03/00 A3043 RMK AO2
KCQX 170352Z AUTO 02009KT 10SM CLR 03/M06 A3058 RMK AO2 SLP356 T00331061
KCRE 170353Z 02006KT 10SM CLR 07/03 A3040 RMK AO2 SLP295 T00720028
KCRG 170353Z AUTO 05010KT 10SM OVC016 17/12 A3024 RMK AO2 SLP240 T01670122
KCRP 170351Z 13008KT 10SM FEW020 OVC210 19/13 A2999 RMK AO2 SLP153 T01890133
KCRQ 170353Z AUTO 18004KT 8SM OVC015 15/11 A2984 RMK AO2 SLP103 T01500111 TSNO $
KCRS 170353Z AUTO 12007KT 10SM CLR 12/06 A3004 RMK AO2 SLP171 T01220056
KCRW 170354Z 07005KT 10SM FEW250 06/M05 A3029 RMK AO2 SLP263 T00561050
KCRX 170410Z AUTO 00000KT 10SM CLR 07/03 A3019 RMK AO2
KCSG 170351Z 08006KT 10SM CLR 10/02 A3028 RMK AO2 SLP254 T01000022
KCSM 170353Z 12014KT 10SM CLR 13/02 A2997 RMK AO2 SLP141 T01330017
KCSQ 170415Z AUTO 30018G25KT 10SM OVC013 03/01 A3000 RMK AO2
KCSV 170353Z AUTO 16005KT 10SM CLR 08/M02 A3025 RMK AO2 SLP246 T00781022
KCTB 170356Z AUTO 13010KT 10SM SCT041 BKN060 02/M01 A2994 RMK AO2 SLP164 T00221006 TSNO
KCTJ 170353Z AUTO 12005KT 10SM CLR 09/00 A3029 RMK AO2
KCTY 170353Z AUTO 05008KT 13/08 A3022 RMK AO1 SLP234 T01280083 $
KCTZ 170355Z AUTO 08005KT 10SM CLR 06/01 A3045 RMK AO2 T00610010
KCUB 170353Z AUTO 07005KT 10SM CLR 09/M02 A3040 RMK AO2 SLP295 T00941017
KCUH 170415Z AUTO 16006KT 10SM CLR 12/04 A3002 RMK AO2
KCUL 170415Z AUTO 13009KT 10SM CLR 08/02 A3017 RMK AO2 T00830022
KCUT 170405Z AUTO 08007KT 1 3/4SM BR OVC003 M04/M04 A3007 RMK AO2 T10391044
KCVB 170355Z AUTO 14009KT 10SM CLR 17/09 A2999 RMK AO2 T01650090
KCVC 170415Z AUTO 09005KT 10SM CLR 09/M05 A3033 RMK AO2
KCVG 170352Z 10006KT 10SM SCT250 05/M05 A3027 RMK AO2 SLP252 T00501050
KCVH 170410Z AUTO 00000KT 10SM CLR 16/09 A2984 RMK AO1
KCVN 170415Z AUTO 02032G38KT 7SM CLR 14/M03 A2988 RMK AO1
KCVO 170415Z 31006KT 10SM OVC070 12/07 A3005 RMK AO1
KCVS 170358Z AUTO 03027G38KT 10SM CLR 14/M03 A2984 RMK AO2 PK WND 03039/11 SLP064 T01371031 $
KCVX 170414Z AUTO 13009KT 10SM SCT060 SCT070 OVC080 03/M04 A3032 RMK AO2 T00271045
KCWA 170415Z AUTO 11014G19KT 10SM OVC042 02/M03 A3007 RMK AO2
KCWC 170415Z AUTO 10008KT 10SM CLR 14/05 A2996 RMK AO2 T01400045
KCWF 170415Z AUTO 13005KT 10SM CLR 11/08 A3012 RMK AO2 T01150091
KCWI 170415Z 15019KT 10SM FEW095 08/M03 A3004 RMK AO1
KCWV 170415Z AUTO 06005KT 10SM CLR 09/08 A3033 RMK AO2
KCXO 170353Z AUTO 12007KT 10SM CLR 12/09 A3006 RMK AO2 SLP177 T01220094
KCXP 170415Z AUTO 04004KT 10SM CLR 17/M06 A2998 RMK AO2
KCXY 170356Z AUTO 11004KT 10SM CLR 03/M07 A3055 RMK AO2 SLP348 T00281072
KCYS 170353Z 23008KT 10SM SCT048 BKN060 OVC090 01/M02 A3008 RMK AO2 SLP186 T00111017
KCZT 170415Z AUTO 12013G20KT 10SM 18/11 A2992 RMK AO2
KCZZ 170352Z AUTO 36004KT 11/07 A2985 RMK AO1 SLP087 T01110072
KD07 170356Z AUTO 07009KT M01/M05 A3019 RMK AO1 SLP255 T10061050
KD25 170355Z AUTO 11007KT 1 1/2SM -SN OVC007 M01/M02 A3009 RMK AO2 P0002 T10151020
KD39 170412Z AUTO 02016G21KT 10SM BKN019 OVC035 M02/M06 A3010 RMK AO2 T10251060
KD50 170415Z AUTO 11005KT 10SM SCT036 BKN047 OVC070 M04/M05 A3029 RMK AO2
KD55 170415Z AUTO 03009KT 10SM CLR M05/M10 A3030 RMK AO2
KD57 170415Z AUTO 00000KT 10SM BKN046 OVC055 M02/M07 A3023 RMK AO2
KD60 170415Z AUTO 08005KT 9SM OVC060 M04/M04 A3028 RMK AO2
KD95 170413Z AUTO 12006KT 10SM CLR 00/M08 A3039 RMK AO2 T10041077
KDAA 170358Z AUTO 00000KT 10SM CLR 01/M04 A3055 RMK AO2 SLP349 T00091043
KDAB 170353Z 06007KT 10SM FEW055 18/12 A3020 RMK AO2 SLP225 T01830122 $
KDAG 170350Z AUTO 27013KT 10SM CLR 26/M03 A2977 RMK AO2 SLP057 T02611028
KDAL 170353Z 13013KT 10SM CLR 14/04 A3002 RMK AO2 SLP160 T01440044
KDAN 170353Z AUTO 06003KT 10SM CLR 03/M03 A3047 RMK AO2 SLP316 T00331028
KDAW 170351Z AUTO 34005KT 10SM CLR M02/M11 A3061 RMK AO2 SLP365 T10221106
KDAY 170356Z 11006KT 10SM SCT250 05/M04 A3030 RMK AO2 SLP269 T00501039
KDBN 170415Z AUTO 12004KT 10SM CLR 08/05 A3036 RMK AO2
KDBQ 170353Z AUTO 15022G27KT 10SM OVC095 08/M02 A2996 RMK AO2 PK WND 15029/0311 SLP151 T00781017
KDCA 170352Z 04006KT 10SM CLR 06/M04 A3055 RMK AO2 SLP344 T00611044 $
KDCM 170355Z AUTO 04004KT 10SM CLR 06/02 A3042 RMK AO2
KDCU 170353Z AUTO 12004KT 10SM CLR 11/02 A3022 RMK AO2 SLP233 T01110017
KDCY 170415Z AUTO 15005KT 10SM CLR 06/M01 A3020 RMK AO2 T00561010
KDDC 170352Z AUTO 03015KT 10SM CLR 09/01 A3006 RMK AO2 SLP169 T00940006
KDDH 170354Z AUTO 02005KT 10SM CLR M02/M08 A3057 RMK AO2 SLP362 T10171083
KDEC 170354Z AUTO 19005KT 10SM CLR 06/M02 A3016 RMK AO2 SLP217 T00611017 TSNO
KDED 170355Z AUTO 00000KT 10SM CLR 16/13 A3019 RMK AO1
KDEH 170415Z AUTO 16020G31KT 10SM OVC070 09/M01 A2983 RMK AO2
KDEN 170353Z 10005KT 10SM OVC060 06/M03 A3008 RMK AO2 SLP166 T00561033
KDEQ 170353Z AUTO 08003KT 10SM CLR 06/04 A3009 RMK AO2 SLP187 T00610044
KDET 170353Z 11011KT 10SM CLR 02/M06 A3040 RMK AO2 SLP301 T00221061
KDEW 170353Z AUTO 00000KT 10SM SCT050 BKN060 06/05 A2997 RMK AO2 SLP158 T00560050
KDFI 170353Z AUTO 09008KT 10SM CLR 01/M03 A3033 RMK AO2 SLP276 T00111028
KDFW 170353Z 13012KT 10SM CLR 14/05 A3000 RMK AO2 SLP156 T01390050
KDGW 170413Z AUTO 06003KT 10SM FEW007 00/M01 A3009 RMK AO2 T00001011
KDHN 170353Z AUTO 09012KT 10SM CLR 13/05 A3026 RMK AO2 SLP244 T01280050
KDHT 170353Z AUTO 05016KT 10SM CLR 13/M03 A3000 RMK AO2 SLP123 T01281028
KDIJ 170356Z AUTO 12005KT 10SM OVC075 02/M04 A3003 RMK AO2 T00161044 SLP154 $
KDIK 170356Z AUTO 08007KT 10SM OVC027 M03/M07 A3019 RMK AO2 SLP257 T10281067
KDKB 170415Z AUTO 15013KT 10SM CLR 05/M02 A3013 RMK AO2 T00451020
KDKK 170353Z AUTO 05004KT 10SM CLR M02/M07 A3050 RMK AO2 SLP337 T10221072
KDKR 170415Z AUTO 13004KT 10SM CLR 14/09 A3008 RMK AO2
KDLF 170358Z AUTO 15010KT 10SM CLR 19/06 A2988 RMK AO2 SLP111 T01900058 $
KDLH 170355Z 06016G28KT 3/4SM R09/P6000FT -SN BLSN OVC012 M03/M06 A3012 RMK AO2 PK WND 06028/0352 SFC VIS 1 SLP224 P0002 T10331056
KDLL 170355Z AUTO 15015G19KT 10SM BKN055 OVC065 08/M03 A3002 RMK AO2 T00781027
KDLN 170353Z AUTO 00000KT 10SM OVC100 04/M08 A2998 RMK AO2 SLP150 T00441083 TSNO
KDLP 170415Z AUTO 10010KT 10SM OVC032 18/11 A3014 RMK A01
KDLS 170353Z AUTO 28007KT 10SM BKN100 14/06 A2999 RMK AO2 SLP154 T01390061
KDLZ 170417Z AUTO 10007KT 10SM CLR 01/M04 A3032 RMK AO2
KDMA 170358Z AUTO 27007KT 10SM CLR 23/M11 A2981 RMK AO2 SLP057 T02291114 $
KDMH 170354Z AUTO 07/M06 A3054 RMK AO1 SLP342 T00671061
KDMN 170353Z AUTO 30009KT 10SM CLR 19/M15 A2984 RMK AO2 SLP047 T01891150
KDMO 170353Z AUTO 18013KT 10SM CLR 12/M01 A3001 RMK AO2 SLP160 T01171011
KDMW 170415Z AUTO 10SM CLR 01/M07 A3053 RMK AO2
KDNL 170353Z AUTO 06008KT 10SM CLR 10/00 A3036 RMK AO2 SLP279 T01000000
KDNN 170355Z AUTO 00000KT 10SM CLR 10/00 A3030 RMK AO2
KDNS 170415Z AUTO 32020G25KT 10SM OVC012 01/M02 A3002 RMK AO2
KDNV 170415Z AUTO 14010KT 10SM CLR 06/M03 A3014 RMK AO2 T00551031
KDOV 170358Z AUTO 26002KT 10SM CLR 04/01 A3055 RMK AO2 SLP349 T00370006
KDPA 170352Z 16011KT 10SM CLR 07/M04 A3015 RMK AO2 SLP214 T00671039
KDPL 170355Z AUTO 07003KT 10SM CLR 05/00 A3046 RMK AO2 T00461001
KDQH 170355Z AUTO 08003KT CLR 09/06 A3031 RMK AO2 PWINO
KDRA 170352Z AUTO 00000KT 10SM CLR 21/M08 A2981 RMK AO2 SLP055 T02061083
KDRI 170415Z AUTO 00000KT 10SM SCT020 SCT030 11/07 A3012 RMK AO2 T01110071
KDRM 170414Z AUTO 14007KT 3SM -SN OVC007 M01/M02 A3039 RMK AO2 T10071018
KDRO 170353Z AUTO 31005KT 10SM CLR 07/M06 A2997 RMK AO2 SLP125 T00671056
KDRT 170353Z AUTO 14009KT 10SM CLR 20/06 A2987 RMK AO2 SLP104 T02000061
KDSM 170354Z 28016G24KT 10SM BKN017 OVC060 07/03 A2993 RMK AO2 RAB00E24 SLP136 P0000 T00720028
KDSV 170354Z AUTO 16006KT 10SM CLR 00/M07 A3055 RMK AO2 SLP361 T00001072
KDTL 170415Z AUTO 06004KT 10SM CLR M02/M06 A3020 RMK AO2
KDTN 170353Z AUTO 00000KT 10SM CLR 11/04 A3010 RMK AO2 SLP191 T01060039
KDTO 170353Z AUTO 13012KT 10SM CLR 14/06 A3000 RMK AO2 SLP155 T01390056
KDTS 170353Z AUTO A3018 RMK AO2 SLP221 PWINO TSNO $
KDTW 170353Z 08009G16KT 10SM FEW220 01/M06 A3039 RMK AO2 SLP298 T00061061
KDUA 170415Z AUTO 10004KT 10SM CLR 10/03 A3005 RMK AO2
KDUB 170415Z AUTO 30005KT 10SM CLR M02/M08 A3002 RMK AO2
KDUC 170415Z AUTO 12010KT 10SM CLR 13/05 A3000 RMK AO2 TSNO
KDUG 170356Z AUTO 25012KT 10SM CLR 21/M14 A2991 RMK AO2 SLP068 T02061144
KDUH 170415Z AUTO 09007KT 10SM CLR 03/00 A3035 RMK AO2
KDUJ 170356Z AUTO 12008KT 10SM CLR 01/M09 A3043 RMK AO2 SLP322 T00061094 TSNO
KDUX 170415Z AUTO 05016G21KT 10SM CLR 12/M01 A2998 RMK AO2 T01201015
KDVK 170415Z AUTO 00000KT 10SM CLR 03/00 A3026 RMK AO2
KDVL 170415Z AUTO 03010KT 10SM CLR M04/M11 A3030 RMK AO1
KDVN 170352Z AUTO 16022G29KT 10SM CLR 09/M03 A3001 RMK AO2 PK WND 16033/0333 SLP164 T00891028
KDVO 170415Z AUTO 10003KT 10SM CLR 14/09 A2984 RMK AO2
KDVP 170413Z AUTO 35020G27KT OVC009 M02/M03 A3005 RMK AO2 T10251033 PWINO
KDVT 170353Z 00000KT 10SM CLR 26/M07 A2973 RMK AO2 SLP045 T02611067
KDWH 170353Z 11006KT 10SM FEW026 14/11 A3005 RMK AO2 SLP173 T01440111
KDWX 170415Z AUTO 00000KT 10SM SCT090 00/M07 A3003 RMK AO2 T00021070
KDXR 170353Z AUTO 00000KT 10SM CLR M01/M06 A3059 RMK AO2 SLP362 T10061061
KDXX 170413Z AUTO 01016KT 10SM OVC023 01/M03 A3014 RMK AO2
KDYA 170355Z AUTO 00000KT 10SM CLR 08/08 A3018 RMK AO2 T00800080
KDYB 170415Z AUTO 00000KT 10SM CLR 06/05 A3037 RMK AO1
KDYL 170354Z AUTO 03003KT 10SM CLR 01/M07 A3055 RMK AO2 SLP352 T00111072
KDYR 170415Z 10005KT 10SM CLR 08/M02 A3018 RMK AO1
KDYS 170358Z AUTO 15015G21KT 10SM CLR 17/01 A2987 RMK AO2 SLP093 T01730013 $
KDYT 170413Z AUTO 05023G29KT 1 1/4SM -SN OVC008 M02/M03 A3016 RMK AO2
KDZB 170415Z AUTO 15007KT 10SM CLR 15/08 A2997 RMK AO2 T01500083
KE11 170415Z AUTO 17011G16KT 10SM CLR 16/00 A2982 RMK AO2 T01550003
KE16 170415Z AUTO 34010KT 10SM CLR 19/07 A2984 RMK AO2
KE38 170415Z AUTO 18003KT 10SM CLR 16/M06 A2992 RMK AO2 T01621061
KE80 170415Z AUTO 04012KT 10SM CLR 15/M05 A2993 RMK AO2 T01541052
KEAR 170415Z AUTO 35018G22KT 10SM OVC018 01/M03 A3015 RMK AO1
KEAT 170355Z AUTO 33006KT 10SM SCT110 13/02 A2993 RMK AO2 SLP137 T01330017
KEAU 170356Z AUTO 08011KT 8SM -RA BKN030 OVC037 04/01 A2995 RMK AO2 SLP151 P0002 T00390011
KEBG 170415Z AUTO 13005KT 10SM CLR 20/13 A2997 RMK AO2 T01950130
KEBS 170415Z AUTO 30026G33KT 10SM OVC007 03/02 A2991 RMK AO2
KECG 170354Z 05013KT 10SM CLR 06/M01 A3050 RMK AO2 SLP327 T00611011
KECP 170353Z AUTO 06004KT 10SM CLR 13/08 A3018 RMK AO2 SLP231 T01280078
KECS 170415Z AUTO 15009KT 10SM SCT004 OVC017 00/00 A3010 RMK AO2
KECU 170415Z AUTO 13013G17KT 10SM CLR 16/05 A2993 RMK AO2
KEDC 170415Z AUTO 17008KT 10SM BKN046 15/09 A3000 RMK AO2
KEDE 170415Z AUTO 01003KT 10SM CLR 03/00 A3049 RMK AO2 T00310003
KEDJ 170410Z AUTO 12006KT 10SM CLR 03/M05 A3028 RMK A01 P000
KEDU 170415Z AUTO 18005KT 10SM CLR 19/12 A2980 RMK AO1
KEDW 170358Z 23013KT 40SM FEW250 21/M03 A2980 RMK AO2A SLP073 T02071033
KEED 170356Z AUTO 19003KT 10SM CLR 30/M11 A2968 RMK AO2 SLP021 T03001111
KEEN 170415Z AUTO 00000KT 10SM CLR M03/M08 A3061 RMK AO1
KEEO 170353Z AUTO 09004KT 10SM CLR 02/M05 A3000 RMK AO2 SLP140 T00171050
KEET 170353Z AUTO 00000KT 10SM CLR 11/03 A3024 RMK AO2 SLP239 T01110028
KEFD 170350Z 12006KT 10SM FEW030 SCT250 16/12 A3006
KEFK 170415Z AUTO 00000KT 10SM CLR M06/M10 A3063 RMK AO2 T10601104
KEFT 170415Z AUTO 16015G23KT 10SM BKN100 BKN120 07/M02 A3004 RMK AO2 T00701016
KEGE 170415Z AUTO 00000KT 10SM OVC100 06/M11 A3003 RMK AO1
KEGI 170355Z 05004KT 10SM FEW300 10/05 A3019 RMK AO2A SLP226 T01020049 $
KEGV 170355Z AUTO 12008KT 3/4SM SN OVC006 M01/M02 A3012 RMK AO2 T10151017
KEHA 170408Z AUTO 04014KT 10/M02 RMK AO1 PK WND 22 000 T01001016
KEHC 170415Z AUTO 10018KT 10SM FEW030 BKN041 18/12 A3008 RMK A01
KEHO 170415Z AUTO 05005KT 10SM CLR 04/00 A3041 RMK AO2 T00401005
KEHR 170415Z AUTO 12007KT 10SM CLR 08/M02 A3019 RMK AO1
KEIK 170416Z AUTO 00000KT 10SM OVC060 07/M04 A3008 RMK AO2 T00731041
KEIR 170415Z AUTO VRB03G14KT 10SM OVC036 17/10 A3013 RMK A01
KEKM 170050Z 13011G16KT 10SM CLR 07/M07 A3024 RMK A02 LAST
KEKN 170351Z AUTO 14007KT 10SM CLR 04/M08 A3036 RMK AO2 SLP300 T00391083 TSNO
KEKO 170356Z AUTO 00000KT 10SM CLR 09/M02 A3000 RMK AO2 SLP147 T00891022
KEKQ 170356Z AUTO 19005KT 10SM CLR 06/M03 A3025 RMK AO2 T00611027 SLP255
KELD 170353Z AUTO 10005KT 10SM CLR 08/04 A3012 RMK AO2 SLP199 T00830039
KELM 170353Z AUTO 00000KT 10SM CLR M03/M08 A3055 RMK AO2 SLP357 T10331078
KELN 170353Z AUTO 29009KT 10SM OVC085 09/04 A2995 RMK AO2 SLP145 T00940039 TSNO
KELO 170413Z AUTO 06005KT 10SM SCT039 SCT048 BKN070 M05/M08 A3021 RMK AO2
KELP 170351Z 29019G25KT 10SM FEW250 25/M18 A2980 RMK AO2 SLP028 T02501183
KELY 170353Z AUTO 32004KT 10SM CLR 07/M04 A3002 RMK AO2 SLP134 T00671044
KELZ 170356Z AUTO 13008KT 10SM CLR M02/M11 A3046 RMK AO2 SLP344 T10221106
KEMM 170355Z AUTO 30005KT 10SM CLR 01/M08 A3006 RMK AO2
KEMP 170353Z AUTO 35015G21KT 10SM CLR 09/02 A3006 RMK AO2 SLP179 T00940017
KEMT 170254Z 23005KT 10SM CLR 18/12 A2983
KEMV 170415Z AUTO 00000KT 10SM CLR 01/00 A3052 RMK AO2
KEND 170408Z AUTO 15008KT 10SM CLR 11/03 A2998 RMK AO2
KENL 170355Z AUTO 15005KT 10SM 07/M01 A3015 RMK AO2 T00681011 TSNO
KENV 170415Z 27004KT 10SM CLR 11/M08 A3000 RMK AO1
KENW 170353Z AUTO 15012KT 10SM CLR 06/M02 A3016 RMK AO2 SLP221 T00561022
KEOE 170415Z AUTO 05004KT 10SM CLR 05/02 A3042 RMK AO2
KEOK 170415Z AUTO 16013KT 10SM CLR 10/M02 A2999 RMK AO2
KEPH 170353Z AUTO 21006KT 10SM FEW060 OVC120 13/03 A2992 RMK AO2 SLP135 T01280028
KEQY 170353Z AUTO 07003KT 10SM CLR 06/M01 A3041 RMK AO2 SLP315 T00561011
KERI 170351Z AUTO 08004KT 10SM CLR M01/M08 A3046 RMK AO2 SLP323 T10111078 $
KERV 170415Z AUTO 15015KT 10SM CLR 15/08 A2997 RMK AO2 T01480080
KERY 170414Z AUTO 06008KT 10SM OVC004 M02/M03 A3035 RMK AO2 T10251030
KESC 170415Z AUTO 07008KT 9SM SCT009 BKN030 OVC060 M01/M03 A3026 RMK AO1
KESF 170353Z AUTO 00000KT 10SM CLR 07/06 A3013 RMK AO2 SLP201 T00720056
KESN 170425Z AUTO 00000KT 10SM CLR 04/00 A3059 RMK AO2 T00361004
KEST 170352Z AUTO 34024G31KT 8SM OVC007 M01/M02 A2996 RMK AO2 PK WND 33033/0318 UPB01E04SNE01 SLP154 P0000 T10111017
KETB 170350Z AUTO 13010G15KT 10SM CLR 04/M04 A3015 RMK AO2
KETC 170415Z AUTO 08004KT 10SM CLR 04/00 A3050 RMK AO2 T00430000
KETH 170415Z AUTO 35004KT 10SM CLR M02/M05 A3021 RMK AO2
KEUF 170358Z AUTO 06004KT 10SM CLR 10/05 A3025 RMK AO2 SLP243 T01000050 PWINO $
KEUG 170354Z 28004KT 10SM BKN041 13/07 A3004 RMK AO2 SLP173 T01330067
KEUL 170415Z AUTO 11003KT 10SM CLR 11/M06 A3000 RMK AO1
KEVB 162347Z AUTO 06011G18KT 10SM SCT030 20/15 A3014
KEVM 170414Z AUTO 05008G14KT 7SM -SN BKN031 BKN042 OVC100 M03/M06 A3018 RMK AO2
KEVV 170354Z AUTO 00000KT 10SM CLR 08/M02 A3021 RMK AO2 SLP230 T00831022
KEVW 170353Z AUTO 29009KT 10SM CLR 03/M11 A3005 RMK AO2 SLP158 T00281111
KEWB 170353Z AUTO 02005KT 10SM CLR 02/M09 A3058 RMK AO2 SLP357 T00171089
KEWK 170415Z AUTO 01017G22KT 10SM CLR 08/M01 A3010 RMK AO1
KEWN 170354Z AUTO 02010KT 10SM CLR 06/00 A3045 RMK AO2 SLP311 T00610000
KEWR 170351Z 03009KT 10SM FEW250 04/M08 A3057 RMK AO2 SLP351 T00441083
KEXX 170415Z AUTO 00000KT 10SM CLR 04/M02 A3044 RMK AO2 T00401017
KEYE 170353Z AUTO 13007KT 10SM CLR 06/M06 A3022 RMK AO2 SLP238 T00611056
KEYF 170415Z AUTO 09003KT 10SM CLR 06/01 A3044 RMK AO2 T00570005
KEYW 170353Z AUTO 06009G18KT 6SM +RA BR FEW010 SCT024 OVC030 23/21 A3006 RMK AO2 SLP180 P0003 T02330211
KEZF 170415Z AUTO 00000KT 10SM CLR 02/M02 A3054 RMK AO2
KEZM 170415Z AUTO 00000KT 10SM CLR 10/08 A3035 RMK AO2 T00980076
KEZS 170415Z AUTO 09006KT 10SM BKN065 OVC075 02/M02 A3016 RMK AO2 T00211020
KF05 170415Z AUTO 12011KT 10SM CLR 16/02 A2992 RMK AO1 T01640016
KF44 170415Z AUTO 00000KT 10SM CLR 08/04 A3005 RMK AO2
KF46 170415Z AUTO 09006KT 10SM CLR 11/04 A3002 RMK AO2 T01110043
KF70 170415Z AUTO 13003KT 10SM CLR 14/09 A2986 RMK AO1
KFAF 170358Z AUTO 00000KT 10SM CLR 04/02 A3050 RMK AO2 SLP332 T00370015 $
KFAM 170415Z AUTO 28003KT 10SM CLR 06/M02 A3017 RMK AO1
KFAR 170353Z 01012KT 10SM CLR M01/M07 A3022 RMK AO2 SLP247 T10061072
KFAT 170353Z 31009KT 10SM FEW130 SCT150 25/06 A2978 RMK AO2 SLP082 T02500061
KFAY 170353Z AUTO 07007KT 10SM CLR 06/M01 A3043 RMK AO2 SLP301 T00611006
KFBG 170358Z AUTO 07005KT 10SM CLR 06/00 A3044 RMK AO2 SLPNO T00580004 $
KFBL 170414Z AUTO 33010KT 5SM RA BKN004 OVC027 04/01 A2987 RMK AO2 P0005
KFBR 170415Z AUTO 26005KT 10SM CLR 01/M11 A3008 RMK AO2 T00101115
KFCI 170355Z AUTO 00000KT 10SM CLR 02/M08 A3052 RMK AO1
KFCM 170404Z AUTO 36012G18KT 3/4SM -SN BR BKN009 OVC014 M01/M02 A2992 RMK AO2 P0001
KFCS 170358Z 34006KT 7SM -RA SCT007 OVC023 01/01 A3012 RMK AO2A SLP214 P0002 T00140012 $
KFDK 170410Z AUTO 00000KT 10SM CLR 00/M01 A3057 RMK AO2
KFDR 170353Z AUTO 10014KT 10SM CLR 13/03 A2991 RMK AO2 SLP120 T01330028
KFDW 170435Z AUTO 07007KT 10SM CLR 06/00 A3039 RMK AO1
KFDY 170353Z AUTO 07006KT 10SM CLR 02/M02 A3032 RMK AO2 SLP270 T00171017
KFEP 170415Z AUTO 15020G26KT 10SM CLR 07/M01 A3007 RMK AO2 T00731006
KFET 170415Z AUTO 33017G24KT 10SM OVC019 02/M02 A3012 RMK AO2 T00181021
KFEW 170356Z 22010KT 12SM -SHRASN BKN024 00/M01 A3011 RMK AO2A SLP207 ALSTG/SLP ESTMD T00041007
KFFA 170415Z AUTO 02010G19KT 10SM CLR 06/01 A3045 RMK AO2 T00600006
KFFC 170353Z AUTO 12004KT 10SM CLR 07/02 A3031 RMK AO2 SLP267 T00720017
KFFL 170415Z AUTO 17015KT 10SM FEW110 10/M03 A2995 RMK AO2
KFFM 170413Z AUTO 04006KT 10SM CLR M02/M07 A3017 RMK AO2
KFFO 170358Z AUTO 09006KT 10SM CLR 04/M04 A3030 RMK AO2 SLP270 T00411044
KFFT 170353Z AUTO 08006KT 10SM CLR 05/M04 A3024 RMK AO2 SLP245 T00501039
KFFX 170411Z AUTO 12011G18KT 10SM SCT110 04/M04 A3024 RMK AO2 T00381045
KFFZ 170247Z 22005KT 20SM FEW200 28/M08 A2971
KFGN 170413Z AUTO 03006KT 10SM CLR M03/M15 A3029 RMK AO2
KFHB 170415Z AUTO 06017G22KT 10SM SCT016 16/12 A3023 RMK AO1
KFHR 170402Z AUTO 10003KT 8SM -RA BKN007 OVC055 09/09 A2995 RMK AO2 P0000 T00940089
KFHU 170355Z 24017KT 10SM CLR 20/M16 A2993 RMK SLP081
KFIG 170354Z AUTO 05005KT 10SM CLR M01/M08 A3047 RMK AO2 SLP336 T10111083
KFIT 170352Z AUTO 35005KT 10SM CLR M01/M09 A3060 RMK AO2 SLP367 T10061089
KFKA 170412Z AUTO 15016G24KT 10SM OVC065 09/00 A2982 RMK AO2 T00901005
KFKL 170415Z AUTO 10005KT 10SM CLR 00/M11 A3043 RMK AO1
KFKN 170355Z AUTO 00000KT 10SM CLR 03/01 A3051 RMK AO1
KFKS 170414Z AUTO 13011G18KT 10SM OVC095 05/M05 A3023 RMK AO2 T00451055
KFLD 170353Z AUTO 14016KT 10SM CLR 05/M03 A3012 RMK AO2 SLP205 T00501033
KFLG 170357Z AUTO 00000KT 10SM CLR 07/M11 A3004 RMK AO2 SLP101 T00721106 TSNO
KFLL 170412Z 06012KT 1 1/2SM +TSRA BR FEW007 BKN023 OVC029 23/23 A3007 RMK AO2 TSB11 OCNL LTGICCG NE-E TS NE-E P0023 T02330233 $
KFLO 170353Z AUTO 07005KT 10SM CLR 05/01 A3041 RMK AO2 SLP296 T00500006
KFLP 170415Z 00000KT 10SM CLR 08/M04 A3013 RMK AO1
KFLY 170409Z AUTO 35003KT 7SM UP SCT021 SCT027 OVC045 00/00 A3013 RMK AO2 T00010000
KFME 170415Z AUTO 00000KT 10SM CLR 00/M02 A3056 RMK AO1
KFMH 170415Z AUTO 02007G14KT 10SM OVC035 02/M05 A3058 RMK AO2
KFMM 170415Z AUTO 11008KT 10SM OVC049 06/M01 A3011 RMK AO2 T00581009
KFMN 170353Z 30007KT 10SM CLR 09/M05 A2994 RMK AO2 SLP123 T00891050
KFMY 170353Z AUTO 07011KT 10SM FEW050 22/17 A3009 RMK AO2 SLP190 T02170172
KFNB 170353Z AUTO 32015G24KT 10SM CLR 04/M01 A3006 RMK AO2 PK WND 33028/0256 SLP182 T00391011
KFNL 170415Z AUTO 07005KT 10SM OVC050 06/M02 A3010 RMK AO1
KFNT 170353Z 11010KT 10SM CLR 01/M07 A3036 RMK AO2 SLP289 T00111067
KFOD 170415Z AUTO 32011G21KT 10SM OVC010 02/M02 A2995 RMK AO1
KFOE 170353Z AUTO 34013KT 10SM FEW070 SCT095 08/01 A3007 RMK AO2 SLP182 T00830006
KFOK 170353Z AUTO 02008KT 10SM CLR 03/M07 A3058 RMK AO2 SLP357 T00331072 TSNO
KFOT 170415Z AUTO 32009KT 10SM SCT013 09/08 A3005 RMK AO1
KFOZ 170414Z AUTO 04003KT 10SM SCT110 M03/M08 A3022 RMK AO2
KFPK 170415Z AUTO 12006KT 10SM CLR 01/M05 A3029 RMK AO2 T00101051
KFPR 170353Z AUTO 05006G19KT 10SM FEW026 BKN038 OVC046 23/18 A3011 RMK AO2 SLP194 T02330178
KFQD 170355Z AUTO 06003KT 10SM CLR 07/M03 A3041 RMK AO2 T00671031
KFRG 170353Z AUTO 03007KT 10SM CLR 02/M07 A3057 RMK AO2 SLP351 T00221072
KFRI 170358Z AUTO 34011G20KT 10SM CLR 07/00 A3010 RMK AO2 SLPNO T00701002
KFRM 170415Z 33022G28KT 10SM OVC008 M01/M03 A2996 RMK AO1
KFSD 170356Z 01013G24KT 10SM OVC015 M02/M04 A3011 RMK AO2 PK WND 36027/0300 SLP211 T10171039 $
KFSE 170415Z AUTO 02008KT 10SM CLR M03/M11 A3023 RMK AO2
KFSI 170358Z AUTO 13013KT 10SM CLR 14/04 A2997 RMK AO2 SLPNO T01370038
KFSM 170353Z AUTO 00000KT 10SM CLR 12/01 A3011 RMK AO2 SLP194 T01170006
KFSO 170415Z AUTO 11003KT 10SM CLR M04/M08 A3065 RMK AO2 T10401078
KFST 170353Z AUTO 14021G27KT 10SM CLR 17/01 A2980 RMK AO2 PK WND 15029/0256 SLP053 T01670011 TSNO
KFSW 170415Z AUTO 15012G20KT 10SM CLR 09/M02 A3001 RMK AO2
KFTK 170358Z AUTO 04003KT 10SM CLR 07/M03 A3022 RMK AO2 SLP239 T00671031
KFTN 170410Z AUTO 11007KT 10SM CLR 17/13 A2992 RMK AO1
KFTW 170353Z 13011KT 10SM CLR 14/07 A2999 RMK AO2 SLP152 T01440072
KFTY 170353Z 09006KT 10SM CLR 11/M02 A3030 RMK AO2 SLP262 T01111017
KFUL 170353Z 22003KT 9SM CLR 16/12 A2983 RMK AO2 SLP101 T01560122
KFVE 170353Z AUTO 22003KT 10SM CLR M09/M14 A3054 RMK AO2 SLP360 T10891139
KFVX 170355Z AUTO 01004KT 10SM CLR 03/M06 A3048 RMK AO2
KFWA 170354Z 11008KT 10SM BKN250 03/M03 A3029 RMK AO2 SLP263 T00281033
KFWB 170355Z AUTO 15004KT 10SM OVC035 09/00 A3010 RMK AO2
KFWC 170415Z AUTO 15005KT 10SM CLR 08/01 A3017 RMK AO2
KFWN 170353Z AUTO 00000KT 10SM 01/M07 A3057 RMK AO2 SLP354 T00111072 PWINO PNO $
KFWS 170415Z AUTO 14006KT 7SM CLR 13/07 A3002 RMK AO2 T01300070
KFWZ 170415Z AUTO 33011KT 10SM CLR M01/M10 A2996 RMK AO2
KFXE 170416Z 08011KT 9SM -RA BKN026 OVC033 23/22 A3008 RMK AO2 TSE16 P0005 T02280217
KFXY 170415Z AUTO 31017G23KT 7SM -RA OVC005 03/03 A2984 RMK AO2
KFYJ 170415Z AUTO 00000KT 10SM CLR 02/M02 A3054 RMK AO2 T00231022
KFYV 170353Z AUTO 00000KT 10SM CLR 04/01 A3011 RMK AO2 SLP197 T00440006
KFZG 170415Z AUTO 12004KT 10SM OVC001 10/07 A3033 RMK AO2 T00990068
KFZY 170354Z AUTO 00000KT 10SM CLR M04/M07 A3059 RMK AO2 SLP364 T10391072 $
KGAF 170415Z AUTO 01011G18KT 10SM CLR M03/M09 A3032 RMK AO2
KGAG 170353Z AUTO 07004KT 10SM CLR 13/M01 A2998 RMK AO2 SLP140 T01331011
KGAI 170415Z AUTO 00000KT 10SM CLR 02/M08 A3056 RMK AO1
KGAO 170415Z AUTO 08004KT 10SM OVC033 15/09 A3015 RMK AO2 T01500088
KGBD 170415Z AUTO 02013G18KT 10SM BKN100 OVC120 10/00 A3008 RMK AO1
KGBG 170355Z AUTO 14010G16KT 10SM CLR 09/M01 A3004 RMK AO2 T00851007
KGBK 170415Z AUTO 09015G22KT 10SM OVC040 09/02 A3007 RMK A01
KGCC 170353Z AUTO 21003KT 10SM CLR 00/M02 A3006 RMK AO2 SLP195 T00001017
KGCD 170416Z AUTO 11005KT 10SM CLR 09/M01 A2998 RMK AO2
KGCK 170354Z AUTO 01023G30KT 10SM OVC110 11/00 A3007 RMK AO2 PK WND 01030/0346 SLP171 T01060000
KGCM 170415Z AUTO 17008KT 10SM CLR 10/01 A3008 RMK AO2
KGCN 170354Z 05004KT 10SM CLR 08/M08 A3003 RMK AO2 SLP108 T00781078
KGDB 170411Z AUTO 34017G20KT 10SM OVC026 M02/M04 A3010 RMK AO2 T10171045
KGDJ 170415Z AUTO 12009KT 10SM CLR 16/08 A3000 RMK AO2 T01550080
KGDP 170351Z AUTO 27010KT 10SM CLR 19/M18 A2989 RMK AO2 SLP056 T01941178
KGDV 170415Z AUTO 10011KT 9SM OVC026 M02/M06 A3020 RMK AO1
KGED 170354Z AUTO 00000KT 10SM CLR 02/M01 A3055 RMK AO2 SLP344 T00171011
KGEG 170353Z 19006KT 10SM SCT045 BKN090 09/03 A2996 RMK AO2 SLP151 T00890033
KGEU 170247Z 18005KT 20SM FEW200 28/M05 A2969 RMK LAST
KGEV 170415Z AUTO 15003KT 10SM CLR 02/M08 A3037 RMK AO2 T00151078
KGEY 170353Z AUTO 33008KT 10SM CLR 06/M01 A3001 RMK AO2 SLP172 T00561011
KGEZ 170353Z AUTO 10006KT 10SM CLR 03/M03 A3025 RMK AO2 SLP247 T00331033
KGFA 170356Z AUTO 13008KT 10SM CLR 01/M01 A2995 RMK AO2 SLP198 T00111011 TSNO
KGFK 170353Z 35009KT 10SM CLR M02/M06 A3025 RMK AO2 SLP256 T10221061
KGFL 170353Z AUTO 35004KT 10SM CLR A3061 RMK AO2 SLPNO TSNO $
KGGE 170415Z AUTO 06008KT 10SM SCT034 10/05 A3039 RMK AO2
KGGG 170353Z AUTO 11004KT 7SM CLR 09/04 A3006 RMK AO2 SLP180 T00890044 $
KGGI 170415Z AUTO 23012G18KT 10SM BKN100 11/01 A2989 RMK AO2 T01050006
KGGP 170355Z AUTO 11011KT 10SM CLR 03/M02 A3023 RMK AO2
KGGW 170353Z AUTO 09012KT 10SM FEW055 SCT070 SCT080 M02/M07 A3019 RMK AO2 SLP253 T10221072 TSNO
KGHB 170415Z AUTO 11014G19KT 10SM OVC040 19/11 A3009 RMK A01
KGHW 170413Z AUTO 01016G21KT 10SM CLR M03/M06 A3011 RMK AO2
KGIC 170415Z AUTO 13007KT 10SM SCT065 SCT080 07/00 A3003 RMK AO1 T00670000
KGIF 170353Z AUTO 02006KT 10SM CLR 17/14 A3016 RMK AO2 SLP213 T01670139 TSNO
KGJT 170353Z 00000KT 10SM CLR 05/M04 A2994 RMK AO2 SLP120 T00501044
KGKJ 170353Z AUTO 10004KT 10SM CLR 02/M09 A3041 RMK AO2 SLP312 T00171094 TSNO
KGKY 170353Z AUTO 11008KT 10SM CLR 13/06 A3001 RMK AO2 SLP158 T01330061
KGLD 170353Z AUTO 06007KT 10SM SCT120 06/01 A3012 RMK AO2 SLP192 T00610011
KGLE 170415Z AUTO 12007KT 10SM CLR 12/06 A3004 RMK AO2 T01150055
KGLH 170353Z AUTO 00000KT 10SM CLR 08/06 A3015 RMK AO2 SLP216 T00780061
KGLR 170353Z AUTO 14015G20KT 10SM SCT070 OVC090 M01/M06 A3030 RMK AO2 SLP278 T10061056
KGLS 170352Z AUTO 12013KT 10SM CLR 17/13 A3005 RMK AO2 SLP177 T01720128
KGLW 170355Z AUTO 00000KT 10SM CLR 06/00 A3022 RMK AO2 T00581004 402661115
KGLY 170415Z AUTO 19007KT 10SM CLR 13/01 A3001 RMK AO2
KGMJ 170415Z AUTO 14004KT 10SM CLR 10/01 A3007 RMK AO2
KGMU 170353Z 07007KT 10SM CLR 08/M02 A3039 RMK AO2 SLP293 T00781017
KGNA 170356Z AUTO 05011G20KT M02/M05 A3027 RMK AO2 SLP264 T10221050 PWINO
KGNC 170415Z AUTO 17012KT 10SM CLR 16/00 A2982 RMK AO2 T01620000
KGNR 170356Z AUTO 34008KT M08/M13 A3052 RMK AO1 SLP363 T10781128
KGNT 170415Z AUTO 35007G14KT 10SM BKN110 09/M09 A3000 RMK AO2 T00861087
KGNV 170401Z AUTO 03004KT 10SM BKN018 OVC039 12/09 A3023 RMK AO2 T01170089
KGOK 170353Z AUTO 16008KT 10SM CLR 14/01 A3000 RMK AO2 SLP155 T01390011
KGON 170356Z AUTO 02007KT 10SM CLR 02/M07 A3058 RMK AO2 SLP355 T00221072
KGOO 170415Z AUTO 00000KT 10SM CLR 16/05 A2991 RMK AO1
KGOP 170355Z AUTO 15009KT 10SM CLR 15/08 A2999 RMK AO2
KGOV 170415Z AUTO 12008KT 10SM OVC090 01/M05 A3032 RMK AO2 T00051046
KGPH 170415Z AUTO 30008G16KT 10SM SCT100 11/02 A3003 RMK AO2
KGPI 170355Z 15011KT 10SM OVC055 06/01 A2996 RMK AO2 SLP162 T00610011
KGPM 170415Z AUTO 12008KT 10SM CLR 13/05 A3004 RMK AO1
KGPT 170353Z 00000KT 10SM CLR 11/08 A3016 RMK AO2 SLP213 T01110083
KGPZ 170415Z AUTO 02007KT 340V050 10SM OVC080 M04/M08 A3018 RMK AO1
KGRB 170353Z 08008KT 10SM FEW120 03/M03 A3018 RMK AO2 SLP227 T00281028
KGRD 170356Z AUTO 05004KT 10SM CLR 07/00 A3039 RMK AO2 SLP291 T00670000
KGRF 170358Z AUTO 15007KT 10SM DZ BKN030 BKN036 OVC049 11/09 A2998 RMK AO2 SLP157 P0000 T01050092 $
KGRI 170353Z AUTO 35018G25KT 10SM OVC021 02/M03 A3014 RMK AO2 PK WND 35026/0305 SLP213 T00171033
KGRK 170355Z 14014KT 7SM CLR 14/08 A2998 RMK SLP153
KGRR 170353Z 12014G21KT 10SM OVC140 04/M03 A3027 RMK AO2 SLP257 T00391033
KGRY 170420Z AUTO 12014KT 080V140 10SM OVC042 18/12 A3010 RMK A01
KGSB 170358Z AUTO 07005KT 10SM CLR 04/01 A3045 RMK AO2 SLP315 T00410007 $
KGSH 170353Z AUTO 14012KT 10SM CLR 05/M03 A3025 RMK AO2 SLP249 T00501028
KGSO 170354Z 07005KT 10SM CLR 05/M04 A3043 RMK AO2 SLP308 T00501044
KGSP 170353Z AUTO 01003KT 10SM CLR 07/M01 A3038 RMK AO2 SLP286 T00721011
KGTB 170358Z AUTO 17002KT 10SM CLR M04/M08 A3058 RMK AO2 SLP366 T10361080
KGTF 170353Z 12008KT 10SM CLR 02/00 A2997 RMK AO2 SLP179 T00170000
KGTR 170415Z AUTO 14006KT 10SM CLR 10/02 A3021 RMK AO1
KGTU 170415Z 16007KT 10SM CLR 15/08 A3000 RMK AO1
KGUC 170415Z AUTO 22003KT 10SM CLR 03/M07 A3006 RMK AO1
KGUL 170415Z AUTO 10SM FEW037 BKN044 OVC110 19/12 A3006 RMK A01
KGUP 170353Z AUTO 09006KT 10SM FEW120 08/M08 A3000 RMK AO2 SLP073 T00831078
KGUS 170358Z AUTO 12011KT 10SM CLR 04/M01 A3022 RMK AO2 SLP242 T00361013
KGUY 170353Z AUTO 04019G24KT 10SM CLR 12/M01 A3000 RMK AO2 SLP134 T01171006
KGVL 170353Z AUTO 10006KT 10SM CLR 08/M02 A3035 RMK AO2 SLP276 T00781022
KGVT 170415Z AUTO 12004KT 10SM CLR 10/03 A3004 RMK AO2
KGWB 170415Z AUTO 09008KT 10SM CLR 02/M02 A3030 RMK AO2
KGWO 170353Z AUTO 04004KT 10SM CLR 08/06 A3016 RMK AO2 SLP214 T00780056 TSNO
KGWR 170415Z AUTO 36008KT 10SM CLR M02/M05 A3022 RMK A01 P000
KGWW 170415Z AUTO 00000KT 10SM CLR 04/00 A3047 RMK AO2 T00401001
KGXA 170355Z AUTO 29007KT 10SM CLR 19/05 A2985 RMK AO2 SLP078 T01930054 TSNO $
KGXF 170355Z 23009KT 10SM CLR 27/M06 A2974 RMK SLP056
KGXY 170415Z AUTO 14004KT 10SM SCT065 08/M04 A3010 RMK AO1
KGYB 170415Z AUTO 14005KT 10SM CLR 14/10 A3005 RMK AO2 T01370095
KGYH 170415Z AUTO 07006KT 10SM CLR 06/00 A3039 RMK AO2
KGYI 170415Z AUTO 10006KT 10SM CLR 12/03 A3005 RMK AO2 T01200028
KGYL 170413Z AUTO 36014G23KT 10SM BKN011 OVC022 M01/M03 A2997 RMK AO2 T10081035
KGYR 170347Z 23005KT 10SM FEW200 27/ A2972 RMK LAST
KGYY 170415Z AUTO 15009G15KT 10SM CLR 08/M04 A3018 RMK AO2 T00751045
KGZH 170353Z AUTO 00000KT 8SM CLR 08/06 A3021 RMK AO2 SLP230 T00830061
KGZL 170415Z AUTO 14005KT 10SM CLR 08/M02 A3011 RMK AO2
KH21 170355Z AUTO 14012G16KT 10SM CLR 09/M01 A3006 RMK AO2
KHAE 170415Z AUTO 16007KT 10SM CLR 10/M07 A3003 RMK AO2
KHAF 170415Z AUTO 35009G17KT 4SM HZ FEW015 12/09 A2989 RMK AO2
KHAI 170415Z AUTO 12009KT 10SM CLR 03/M02 A3027 RMK AO2 T00311021
KHAO 170353Z AUTO 10004KT 10SM CLR 05/M04 A3030 RMK AO2 SLP263 T00501039
KHBG 170353Z AUTO 00000KT 10SM CLR 09/07 A3018 RMK AO2 SLP219 T00890072
KHBI 170415Z AUTO 00000KT 10SM CLR 04/00 A3047 RMK AO2 T00431002
KHBR 170353Z AUTO 12008KT 10SM CLR 11/02 A2995 RMK AO2 SLP138 T01110022
KHBV 170355Z AUTO 11012KT 10SM CLR 17/13 A2995 RMK AO2 T01720125
KHCD 170413Z AUTO 36011G25KT 7SM UP OVC014 M01/M03 A3001 RMK AO2 T10111028
KHCO 170413Z AUTO 02010KT 10SM OVC090 M03/M10 A3031 RMK AO2
KHDC 170355Z AUTO 00000KT 10SM CLR 10/06 A3018 RMK AO2
KHDE 170415Z AUTO 01014G17KT 10SM OVC015 01/M02 A3014 RMK AO2 T00101024
KHDN 170415Z AUTO 00000KT 10SM CLR 03/M10 A3003 RMK AO1
KHDO 170351Z AUTO 15014KT 10SM CLR 18/10 A2998 RMK AO2 SLP142 T01780100
KHEF 170415Z 00000KT 10SM CLR 02/M01 A3055 RMK AO1
KHEI 170353Z AUTO 08005KT 10SM BKN024 M03/M06 A3020 RMK AO2 SLP260 T10331061
KHEQ 170415Z AUTO 05004KT 10SM CLR 01/M01 A3014 RMK AO2
KHEY 170353Z AUTO 08006KT 10SM CLR 11/04 A3022 RMK AO2 SLP220 T01110044
KHEZ 170415Z AUTO 00000KT 10SM CLR 08/04 A3013 RMK AO1
KHFD 170353Z 03004KT 10SM CLR 01/M08 A3060 RMK AO2 SLP362 T00111078
KHFF 170356Z AUTO 04003KT 12SM CLR 05/01 A3044 RMK AO2 SLPNO T00500013
KHFJ 170415Z AUTO 16009KT 10SM CLR 09/00 A3006 RMK AO2
KHGR 170353Z AUTO 09004KT 10SM CLR 03/M08 A3051 RMK AO2 SLP349 T00281083 TSNO
KHHF 170415Z AUTO 08007KT 10SM CLR 16/M02 A2997 RMK AO2 T01591022
KHHG 170415Z AUTO 12010G15KT 10SM CLR 04/M03 A3027 RMK AO2 T00401035
KHHR 170353Z AUTO 25004KT 10SM CLR 16/11 A2984 RMK AO2 SLP106 T01560106
KHHV 170415Z AUTO 13012G19KT 090V180 10SM FEW034 FEW042 20/13 A3003 RMK A01
KHHW 170355Z AUTO 11007KT 10SM CLR 12/04 A3006 RMK AO2 T01220041
KHIB 170353Z AUTO 05007KT 10SM BKN070 OVC090 M03/M07 A3018 RMK AO2 SNB27E43 SLP241 P0000 T10331072
KHIE 170352Z AUTO 00000KT 10SM CLR M09/M11 A3061 RMK AO2 SLP385 I1000 T10891111
KHIF 170358Z 16006KT 10SM CLR 07/M11 A3002 RMK AO2A SLP148 T00721107
KHII 170355Z AUTO 10007KT 10SM CLR 29/M04 A2968 RMK AO2
KHIO 170353Z 00000KT 8SM -RA OVC034 11/09 A3002 RMK AO2 SLP164 P0001 T01110094
KHJH 170415Z AUTO 35011G15KT 10SM CLR 03/M02 A3013 RMK AO2 T00271020
KHJO 170353Z AUTO 31009KT 10SM CLR 24/06 A2979 RMK AO2 SLP087 T02390061
KHKA 170353Z AUTO 18004KT 10SM CLR 10/02 A3016 RMK AO2 SLP213 T01000022
KHKS 170353Z AUTO 13005KT 10SM CLR 11/02 A3015 RMK AO2 SLP204 T01060022 $
KHKY 170353Z 03003KT 10SM CLR 05/M02 A3041 RMK AO2 SLP292 T00501017
KHLC 170353Z AUTO 04010KT 10SM CLR 08/00 A3012 RMK AO2 SLP198 T00780000
KHLG 170353Z AUTO 08008KT 10SM CLR 02/M09 A3036 RMK AO2 SLP296 T00221089
KHLN 170353Z 22004KT 10SM FEW085 06/M03 A2998 RMK AO2 SLP176 T00561033
KHLR 170356Z AUTO 14009G17KT 10SM CLR 16/08 A2998 RMK AO2 SLP180 T01560083 $
KHLX 170415Z AUTO 12003KT 10SM CLR 01/M07 A3042 RMK AO2
KHMN 170416Z AUTO 26020G26KT 7SM CLR 21/M18 A2977 RMK AO2 WSHFT 04
KHNB 170415Z AUTO 15006KT 10SM CLR 06/M04 A3022 RMK AO1
KHND 170356Z AUTO 00000KT 10SM CLR 24/M05 A2978 RMK AO2 T02381050 SLP066
KHNR 170415Z AUTO 33020G26KT 10SM OVC014 01/M01 A3008 RMK AO2
KHNZ 170415Z AUTO 07005KT 10SM CLR 03/M03 A3048 RMK AO2 T00291026
KHOB 170415Z AUTO 15012G16KT 10SM CLR 16/M02 A2981 RMK AO2
KHOE 170415Z AUTO 05004KT 10SM CLR 10/07 A3029 RMK AO2
KHON 170411Z AUTO 03010KT 10SM SCT025 M01/M06 A3019 RMK AO2 T10111056
KHOP 170358Z AUTO 11004KT 10SM CLR 09/00 A3020 RMK AO2 SLP230
KHOT 170353Z AUTO 09005KT 10SM CLR 09/01 A3012 RMK AO2 SLP199 T00940011
KHOU 170353Z 12005KT 10SM FEW035 SCT250 15/11 A3004 RMK AO2 SLP178 T01500111
KHPN 170356Z 02005KT 10SM CLR 02/M09 A3055 RMK AO2 SLP354 T00171094
KHQI 170415Z AUTO 08015KT 10SM SCT035 OVC044 19/13 A3008 RMK A01
KHQM 170353Z AUTO 16010KT 4SM -RA BR OVC016 11/10 A2996 RMK AO2 SLP148 P0005 T01060100
KHQU 170415Z AUTO 00000KT 10SM CLR 04/04 A3041 RMK AO1 T00400037
KHQZ 170415Z AUTO 12007KT 10SM CLR 12/04 A3003 RMK AO1 T01170035
KHRI 170353Z AUTO 22007KT 10SM CLR 14/04 A2996 RMK AO2 SLP143 T01390044 TSNO
KHRJ 170415Z AUTO 07006KT 10SM CLR 07/M01 A3046 RMK AO2 T00651006
KHRL 170352Z 12006KT 10SM CLR 18/13 A2997 RMK AO2 SLP149 T01780133
KHRO 170353Z AUTO 11003KT 10SM CLR 07/M01 A3012 RMK AO2 SLP199 T00671011
KHRT 170358Z AUTO 03003KT 10SM CLR 12/05 A3017 RMK AO2 SLP218 T01240050 $
KHRX 170415Z AUTO 10SM CLR 16/M08 A2988 RMK AO2 T01611085
KHSA 170150Z 00000KT 10SM CLR 10/07 A3014
KHSB 170415Z AUTO 14004KT 10SM CLR 06/01 A3019 RMK AO2 T00640009
KHSE 170351Z AUTO 03013G23KT 10SM BKN046 07/04 A3042 RMK AO2 PK WND 03026/0315 SLP299 T00720039 TSNO $
KHSI 170353Z AUTO 01013KT 10SM OVC020 02/M03 A3013 RMK AO2 SLP210 T00171033
KHSP 170415Z AUTO 13009KT 10SM CLR M01/M09 A3040 RMK AO2
KHST 170358Z AUTO 08008KT 10SM FEW020 25/21 A3007 RMK AO2 SLP186 T02470207
KHSV 170353Z 12006KT 10SM CLR 09/03 A3022 RMK AO2 SLP233 T00890033
KHTL 170353Z AUTO 14009KT 10SM OVC110 01/M04 A3032 RMK AO2 SLP282 T00111044
KHTS 170351Z 07005KT 10SM CLR 06/M07 A3028 RMK AO2 SLP256 T00561067
KHUF 170353Z 13008KT 10SM CLR 07/M04 A3018 RMK AO2 SLP223 T00671039
KHUL 170353Z AUTO 00000KT 10SM CLR M06/M12 A3060 RMK AO2 SLP371 T10611122
KHUM 170415Z AUTO 08003KT 7SM 10/07 A3016 RMK AO2 T01040072
KHUT 170352Z 02017G25KT 10SM CLR 10/01 A3005 RMK AO2 PK WND 03027/0334 SLP166 T01000011
KHVN 170353Z AUTO 36005KT 10SM CLR 02/M06 A3058 RMK AO2 SLP355 T00171061
KHVR 170353Z AUTO 08012KT 10SM FEW050 SCT110 02/M04 A3002 RMK AO2 SLP188 T00221044
KHVS 170415Z AUTO 04005KT 10SM CLR 06/00 A3042 RMK AO2
KHWD 170354Z 26006KT 10SM CLR 14/10 A2984 RMK AO2 SLP114 T01440100 $
KHWO 170413Z AUTO 01011KT 10SM VCTS BKN019 BKN027 OVC060 23/22 A3009 RMK AO2 T02330217
KHWV 170356Z AUTO 01004KT 10SM CLR 01/M05 A3058 RMK AO2 SLP354 T00111050 TSNO
KHWY 170415Z AUTO 00000KT 10SM CLR 00/M01 A3053 RMK AO2 T00011010
KHXD 170355Z AUTO 02010G15KT 10SM CLR 13/06 A3033 RMK AO2 P0000
KHYA 170356Z 04007KT 10SM CLR 02/M04 A3056 RMK AO2 SLP349 T00221044
KHYI 170415Z 15009KT 10SM CLR 14/08 A3001 RMK AO1
KHYR 170353Z AUTO 05011KT 5SM -SN BR OVC013 M02/M03 A3005 RMK AO2 SLP193 P0000 T10171033
KHYS 170415Z AUTO 04013KT 10SM SCT110 08/00 A3012 RMK AO1
KHYW 170415Z AUTO 00000KT 10SM CLR 04/04 A3041 RMK AO2
KHYX 170415Z AUTO 12009KT 10SM CLR 01/M06 A3037 RMK AO2
KHZE 170415Z AUTO 08004KT 10SM OVC050 M01/M09 A3026 RMK AO2
KHZL 170415Z AUTO 00000KT 10SM CLR 00/M11 A3054 RMK AO2
KHZR 170355Z AUTO 14003KT 10SM CLR 11/05 A3015 RMK AO2 T01140053
KHZX 170408Z AUTO 03009G16KT 5SM SCT013 BKN043 OVC055 M03/M05 A3013 RMK AO2
KHZY 170353Z AUTO 08004KT 10SM CLR M01/M06 A3043 RMK AO2 SLP315 T10061061
KI16 170415Z AUTO 10SM CLR 07/M03 A3037 RMK AO2 T00741033
KI35 170415Z AUTO 09005KT 10SM CLR 09/M06 A3026 RMK AO1
KI69 170417Z AUTO 11003KT 10SM CLR 06/M05 A3028 RMK AO1
KI75 170415Z AUTO 26017G21KT 10SM OVC017 05/01 A2997 RMK AO2 T00510014
KIAB 170358Z AUTO 02016G21KT 10SM CLR 13/03 A3005 RMK AO2 SLP176 T01280032
KIAD 170352Z 08003KT 10SM CLR 03/M07 A3053 RMK AO2 SLP342 T00331067
KIAG 170253Z 08007KT 10SM SCT300 M01/M06 A3052 RMK AO2 SLP350 LAST T10061061 51009
KIAH 170413Z 11008KT 10SM BKN025 BKN250 14/11 A3005 RMK AO2
KIBM 170415Z AUTO 12007KT 10SM BKN060 OVC070 01/M02 A3009 RMK AO2 T00121020
KICL 170415Z AUTO 33015KT 10SM OVC017 04/00 A3007 RMK AO2
KICR 170353Z AUTO 02012KT 10SM OVC021 00/M06 A3021 RMK AO2 SLP250 T00001056
KICT 170353Z 02016G21KT 10SM FEW110 SCT150 SCT200 13/02 A3004 RMK AO2 SLP170 T01280022 $
KIDA 170353Z 17009KT 10SM CLR 08/M10 A2999 RMK AO2 SLP155 T00781100
KIDI 170415Z AUTO 10004KT 10SM CLR 02/M09 A3045 RMK AO2
KIDP 170415Z AUTO 19013KT 10SM CLR 12/00 A3001 RMK AO2
KIEN 170352Z AUTO 09007KT 9SM OVC014 M01/M03 A3015 RMK AO2 SLP235 T10061028
KIER 170415Z AUTO 00000KT 10SM CLR 08/08 A3011 RMK AO2 T00830076
KIFA 170415Z AUTO 26012KT 10SM OVC046 06/05 A2986 RMK AO2 T00630048
KIFP 170415Z AUTO 00000KT 10SM CLR 28/M08 A2969 RMK AO2
KIGM 170351Z AUTO 12005KT 10SM CLR 17/M12 A2985 RMK AO2 SLP047 T01671117
KIGQ 170415Z AUTO 16012G16KT 10SM CLR 06/M04 A3019 RMK AO2 T00601045
KIGX 170356Z AUTO 00000KT 10SM CLR 03/M01 A3046 RMK AO2 SLP316 T00331006
KIIB 170415Z AUTO 15018KT 10SM 07/00 A2985 RMK AO2
KIIY 170415Z AUTO 08003KT 10SM CLR 06/02 A3036 RMK AO2
KIJD 170352Z AUTO 00000KT 10SM CLR 00/M05 A3059 RMK AO2 SLP362 T00001050
KIJX 170355Z AUTO 13009KT 10SM CLR 07/M01 A3010 RMK AO2 T00701007
KIKK 170355Z AUTO 14010KT 10SM CLR 06/M03 A3018 RMK AO2 T00591026
KIKT 170415Z AUTO 10022KT 10SM OVC030 18/11 A3013 RMK A01
KIKV 170415Z AUTO 26019G24KT 10SM BKN016 OVC020 07/04 A2992 RMK AO2
KIKW 170413Z AUTO 12011G15KT 10SM CLR 02/M08 A3036 RMK AO2 T00171076
KILE 170415Z AUTO 15013KT 10SM CLR 14/07 A2998 RMK AO1
KILG 170351Z 03005KT 10SM CLR 03/M06 A3056 RMK AO2 SLP348 T00331061
KILM 170353Z AUTO 04008KT 10SM CLR 06/M01 A3043 RMK AO2 SLP303 T00561011
KILN 170354Z AUTO 08005KT 10SM CLR 03/M05 A3028 RMK AO2 SLP276 T00281050
KIML 170353Z AUTO 06005KT 10SM BKN120 02/M01 A3014 RMK AO2 SLP216 T00171011 $
KIMM 170415Z AUTO 07007KT 8SM OVC048 22/22 A3010 RMK A01 P000
KIMT 170410Z AUTO 09007KT 1SM -SN BR FEW006 OVC016 M01/M03 A3019 RMK AO2 P0000
KIND 170354Z 12009KT 10SM SCT250 05/M04 A3022 RMK AO2 SLP239 T00501044
KINF 170415Z AUTO 03008KT 10SM OVC033 14/11 A3020 RMK AO2
KINJ 170415Z AUTO 11009KT 10SM CLR 13/07 A3001 RMK AO2 T01310067
KINK 170353Z AUTO 13017G24KT 10SM CLR 18/01 A2977 RMK AO2 SLP051 T01780006 TSNO
KINL 170355Z AUTO 04005KT 10SM CLR M02/M13 A3024 RMK AO2 SLP260 T10221133
KINS 170358Z AUTO 26005KT 10SM CLR 23/M09 A2981 RMK AO2 SLP056 T02271088
KINT 170354Z AUTO 07003KT 10SM CLR 06/M04 A3045 RMK AO2 SLP314 T00561044
KINW 170356Z AUTO 27004KT 10SM CLR 13/M07 A2993 RMK AO2 SLP091 T01331072 TSNO
KIOB 170355Z AUTO 09004KT 10SM CLR 06/M04 A3027 RMK AO2
KIOW 170352Z AUTO 15015G23KT 10SM BKN100 09/M01 A2996 RMK AO2 SLP147 T00891011 $
KIPJ 170415Z AUTO 00000KT 10SM CLR 02/00 A3042 RMK AO2 T00170000
KIPL 170353Z AUTO 22006KT 10SM CLR 26/03 A2967 RMK AO2 SLP048 T02610033
KIPN 170415Z AUTO 10019KT 10SM 18/11 A3012 RMK A01
KIPT 170354Z 00000KT 10SM CLR 01/M09 A3055 RMK AO2 SLP351 T00111094
KIRK 170355Z AUTO 16009KT 10SM CLR 08/M01 A2998 RMK AO2 SLP158 T00781006
KIRS 170414Z AUTO 12011G15KT 10SM CLR 03/M03 A3027 RMK AO2
KISM 170145Z 03008KT 10SM FEW040 19/16 A3014 RMK LAST
KISN 170352Z AUTO A3027 RMK AO2 SLPNO PWINO FZRANO $
KISO 170415Z AUTO 05007KT 10SM CLR 05/00 A3047 RMK AO2 T00490000
KISP 170356Z 01006KT 10SM FEW250 03/M06 A3055 RMK AO2 SLP346 LAST AUGMENTED OBSERVATION UNTIL 1000Z T00281061
KISQ 170414Z AUTO 07009KT 10SM SCT007 OVC070 M01/M02 A3030 RMK AO2 T10111020
KISW 170354Z AUTO 13013G20KT 10SM -RA OVC040 04/M03 A3006 RMK AO2 RAB26E31B47 SLP188 P0000 T00441033
KITH 170356Z AUTO 09004KT 10SM CLR M03/M09 A3056 RMK AO2 T10331088 SLP364
KITR 170353Z AUTO 09007KT 10SM CLR 06/00 A3011 RMK AO2 SLP185 T00560000
KIWA 170355Z AUTO 16003KT 10SM CLR 23/M05 A2975 RMK AO2
KIWD 170415Z AUTO 09010KT 2 1/2SM BKN013 OVC021 M01/M04 A3007 RMK AO1
KIWI 170353Z AUTO VRB03KT 10SM CLR M02/M11 A3065 RMK AO2 SLP381 T10221106
KIXA 170415Z AUTO 06003KT 10SM CLR 04/00 A3050 RMK AO2
KIXD 170353Z 30009KT 10SM CLR 11/02 A3003 RMK AO2 SLP166 T01110022
KIYA 170415Z AUTO 11004KT 10SM CLR 15/13 A3014 RMK AO2 T01520131
KIZA 170415Z AUTO 27005KT 7SM CLR 11/10 A2984 RMK AO2
KIZG 170354Z AUTO 23003KT 10SM CLR M06/M10 A3063 RMK AO2 SLP379 T10611100
KJAC 170415Z AUTO 00000KT CLR M01/M05 A3003 RMK AO1
KJAN 170354Z 14004KT 10SM SCT250 09/03 A3015 RMK AO2 SLP209 LAST AUGMENTED OBSERVATION UNTIL 1100Z T00890033
KJAS 170415Z AUTO 12003KT 10SM CLR 11/08 A3011 RMK AO2 T01140079
KJAX 170356Z 05010KT 10SM BKN018 OVC024 15/12 A3025 RMK AO2 SLP243 T01500122
KJBR 170353Z AUTO 00000KT 10SM CLR 06/02 A3015 RMK AO2 SLP210 T00610022
KJCT 170351Z AUTO 13005KT 10SM CLR 16/04 A2992 RMK AO2 SLP107 T01610039
KJDD 170415Z AUTO 00000KT 10SM CLR 08/04 A3008 RMK AO2
KJDN 170348Z AUTO 10014KT 01/M06 A3013 RMK AO1 SLP235 T00061061
KJEF 170353Z AUTO 14009KT 10SM CLR 11/M02 A3005 RMK AO2 SLP168 T01061022
KJER 170353Z AUTO 24005KT 10SM CLR 07/M07 A3000 RMK AO2 SLP159 T00721067
KJES 170350Z AUTO 06005KT 10SM CLR 08/07 A3029 RMK AO2
KJFK 170351Z 04008KT 10SM FEW250 04/M09 A3058 RMK AO2 SLP354 T00441089 $
KJFX 170415Z AUTO 00000KT 6SM BR CLR 06/05 A3022 RMK A02 P-128
KJFZ 170415Z AUTO 14016G26KT 10SM CLR 07/M07 A3029 RMK AO2 T00661067
KJGG 170415Z AUTO 00000KT 10SM CLR 03/01 A3052 RMK AO1
KJHW 170415Z AUTO 09004KT 10SM CLR M01/M09 A3044 RMK AO1
KJKA 170415Z AUTO 00000KT 10SM CLR 09/09 A3018 RMK AO2 T00920086
KJKJ 170401Z AUTO 01006KT 10SM CLR M01/M04 A3023 RMK AO2
KJKL 170353Z AUTO 06004KT 10SM CLR 08/M07 A3024 RMK AO2 SLP245 T00781072
KJLN 170353Z AUTO 17010KT 10SM CLR 11/M01 A3004 RMK AO2 SLP172 T01111011
KJMR 170410Z AUTO 03010G18KT 350V060 2 1/2SM -SN SCT013 OVC035 M02/M05 A3007 RMK AO2 P0001
KJMS 170356Z AUTO 02008KT 10SM CLR M03/M09 A3024 RMK AO2 SLP263 T10281089
KJNX 170355Z AUTO 00000KT 10SM CLR 05/01 A3047 RMK AO2
KJOT 170415Z AUTO 15005KT 10SM CLR 06/M04 A3017 RMK AO2 T00551041
KJQF 170415Z AUTO 00000KT 10SM CLR 05/00 A3046 RMK AO2
KJSO 170415Z AUTO 15006KT 10SM CLR 11/05 A3007 RMK AO2 T01160052
KJST 170354Z AUTO 11006KT 10SM CLR 00/M11 A3040 RMK AO2 SLP320 T00001111
KJVL 170415Z AUTO 15013KT 10SM SCT120 07/M03 A3009 RMK AO2
KJVW 170355Z AUTO 8SM CLR 07/04 A3015 RMK AO2 TSNO
KJWG 170415Z AUTO 13007KT 10SM CLR 13/04 A2999 RMK AO2 T01270035
KJWY 170415Z AUTO 11004KT 10SM CLR 11/06 A3003 RMK AO2 T01060055
KJXI 170355Z AUTO 00000KT 9SM CLR 09/04 A3009 RMK AO2
KJXN 170356Z 11009KT 10SM CLR 00/M06 A3032 RMK AO2 SLP276 T00001056
KJYG 170414Z AUTO 33018G24KT 10SM OVC012 00/M02 A2998 RMK AO2
KJYL 170415Z AUTO 08003KT 10SM CLR 09/06 A3036 RMK AO2 T00860056
KJYM 170414Z AUTO 11012G16KT 10SM CLR 01/M02 A3029 RMK AO2 T00061020
KJYO 170415Z AUTO 00000KT 10SM CLR 01/M02 A3055 RMK AO2
KJYR 170415Z AUTO 35013G21KT 10SM OVC023 01/M03 A3013 RMK AO2
KJZI 170415Z AUTO 05010KT 10SM FEW038 12/06 A3035 RMK A02 LTG DATA MISG P000
KKLS 170415Z 15005KT 10SM OVC037 11/08 A3005 RMK AO1
KL18 170415Z AUTO 00000KT 7SM CLR 13/11 A2986 RMK AO2
KL35 170355Z AUTO 00000KT 10SM CLR 08/M04 A3005 RMK AO2
KL38 170415Z AUTO 11004KT 10SM CLR 12/09 A3016 RMK AO2 T01150085
KLAA 170353Z AUTO 05012KT 10SM OVC095 10/M02 A3006 RMK AO2 SLP157 T01001017
KLAF 170354Z AUTO 11009KT 10SM CLR 04/M04 A3020 RMK AO2 SLP228 T00441044
KLAL 170415Z AUTO 04007KT 10SM CLR 16/13 A3016 RMK AO2
KLAM 170415Z AUTO 27008G15KT 10SM SCT120 10/M05 A2999 RMK AO2 T00961051
KLAN 170353Z 12011KT 10SM CLR 02/M06 A3032 RMK AO2 SLP274 T00171061
KLAR 170408Z AUTO 13013KT 10SM FEW020 M01/M04 A3003 RMK AO2 T10111039
KLAS 170356Z 14003KT 10SM FEW250 26/M07 A2972 RMK AO2 SLP043 T02561072
KLAW 170353Z 11012KT 10SM CLR 13/04 A2997 RMK AO2 SLP146 T01330039
KLAX 170353Z 23005KT 8SM FEW010 15/12 A2985 RMK AO2 SLP106 T01500117
KLBB 170353Z 17020G30KT 10SM OVC300 18/M02 A2979 RMK AO2 PK WND 17030/0346 SLP054 T01831022
KLBE 170415Z AUTO 07009G15KT 10SM CLR 04/M10 A3042 RMK A02 P000
KLBF 170353Z AUTO 03013G20KT 10SM OVC016 01/M03 A3014 RMK AO2 SLP215 T00111028
KLBL 170415Z AUTO 04017G23KT 10SM CLR 11/M02 A3005 RMK AO1
KLBR 170415Z AUTO 00000KT 7SM CLR 11/02 A3008 RMK AO1 T01050017
KLBT 170354Z AUTO 07006KT 10SM CLR 07/M01 A3042 RMK AO2 SLP302 T00671006
KLBX 170353Z AUTO 13007KT 10SM CLR 16/13 A3004 RMK AO2 SLP170 T01610128
KLCH 170353Z AUTO 15004KT 10SM CLR 11/09 A3010 RMK AO2 SLP201 T01110094
KLCI 170415Z AUTO 00000KT 10SM CLR M03/M11 A3061 RMK AO1
KLCK 170415Z AUTO 07007KT 10SM CLR 04/M06 A3031 RMK AO2 T00401060
KLDJ 170415Z AUTO 05008KT 10SM CLR 06/M09 A3060 RMK AO2 T00571088
KLDM 170414Z AUTO 13013G22KT 10SM SCT095 SCT110 05/M05 A3021 RMK AO2 T00471052
KLEB 170353Z AUTO 00000KT 10SM CLR M03/M09 A3061 RMK AO2 SLP378 T10331094
KLEE 170353Z AUTO 36007KT 10SM OVC041 16/13 A3019 RMK AO2 SLP221 T01560133
KLEW 170415Z AUTO 36009KT 10SM CLR M03/M11 A3063 RMK AO1
KLEX 170354Z 09006KT 10SM CLR 08/M06 A3025 RMK AO2 SLP245 T00781056
KLFI 170358Z AUTO 07010KT 10SM CLR 05/01 A3052 RMK AO2 SLP342 T00520006 $
KLFK 170353Z AUTO 12005KT 10SM CLR 12/07 A3007 RMK AO2 SLP180 T01170072
KLFT 170353Z AUTO 00000KT 10SM CLR 11/10 A3014 RMK AO2 SLP205 T01110100 $
KLGA 170351Z 03008KT 10SM CLR 04/M09 A3057 RMK AO2 SLP351 T00441094
KLGB 170353Z 00000KT 9SM CLR 16/11 A2984 RMK AO2 SLP105 T01560106
KLGC 170355Z AUTO 00000KT 10SM CLR 06/03 A3029 RMK AO2 T00620030
KLGD 170415Z AUTO 20006KT 10SM CLR 07/M01 A2997 RMK AO1
KLGU 170351Z AUTO 09006KT 10SM CLR 06/M06 A3001 RMK AO2 SLP157 T00611056
KLHB 170415Z AUTO 13005KT 10SM CLR 14/10 A3003 RMK AO2 T01430095
KLHM 170415Z AUTO 08005KT 10SM CLR 15/11 A2979 RMK AO1
KLHQ 170353Z AUTO 08006KT 10SM CLR 03/M06 A3032 RMK AO2 SLP274 T00331056
KLHW 170358Z AUTO 03004KT 10SM CLR 09/07 A3029 RMK AO2 SLPNO T00890069
KLHX 170353Z AUTO 02010KT 10SM OVC085 09/M03 A3008 RMK AO2 SLP157 T00941028
KLHZ 170415Z AUTO 00000KT 10SM CLR 03/M01 A3049 RMK AO2
KLIC 170355Z AUTO 12004KT 10SM OVC100 03/M01 A3011 RMK AO2 SLP179 T00281011
KLIT 170353Z 15005KT 10SM FEW250 09/03 A3015 RMK AO2 SLP211 T00940028
KLJF 170413Z AUTO 36016G22KT 10SM OVC014 M02/M03 A3004 RMK AO2
KLKR 170415Z AUTO 00000KT 10SM CLR 03/03 A3042 RMK AO2
KLKU 170355Z AUTO 11003KT 10SM CLR M01/M05 A3051 RMK AO2
KLKV 170415Z AUTO 35007KT 10SM CLR 07/01 A3001 RMK AO1
KLLJ 170355Z AUTO 00000KT 10SM CLR 06/M08 A2998 RMK AO2 SLP148 T00561083
KLLQ 170353Z AUTO 00000KT 10SM CLR 07/04 A3015 RMK AO2 SLP208 T00670039
KLMO 170415Z AUTO 00000KT 10SM OVC060 07/00 A3011 RMK AO2 T00700003
KLMT 170353Z 27003KT 10SM CLR 10/02 A3000 RMK AO2 SLP150 T01000017
KLNC 170415Z AUTO 12005KT 10SM CLR 11/05 A3004 RMK AO2 T01110046
KLND 170353Z AUTO 29005KT 10SM BKN090 04/M06 A3002 RMK AO2 SLP162 T00441056
KLNK 170354Z 35019G26KT 10SM OVC027 04/M03 A3012 RMK AO2 PK WND 36026/0354 SLP203 T00391033
KLNL 170355Z AUTO 13008KT 1SM SN OVC006 M01/M02 A3014 RMK AO2 T10121020
KLNP 170415Z AUTO 16008G16KT 10SM CLR 06/M10 A3028 RMK AO2
KLNR 170356Z AUTO 14012G27KT 10SM OVC080 09/M02 A3000 RMK AO2 PK WND 13027/0346 SLP157 T00891017
KLNS 170353Z 08005KT 10SM CLR 01/M07 A3054 RMK AO2 SLP346 T00111072
KLOL 170353Z AUTO 04007KT 10SM CLR 14/M06 A2994 RMK AO2 SLP119 T01391056 TSNO
KLOM 170355Z AUTO 00000KT 10SM CLR 03/M04 A3055 RMK AO1
KLOR 170353Z AUTO 10SM CLR 10/04 A3021 RMK AO2 SLP230 T01000044 $
KLOT 170355Z AUTO 16010KT 10SM CLR 05/M03 A3016 RMK AO2 T00461028 TSNO
KLOU 170353Z AUTO 00000KT 10SM CLR 09/M04 A3025 RMK AO2 SLP244 T00941044
KLOZ 170353Z AUTO 00000KT 10SM CLR 06/M03 A3023 RMK AO2 SLP241 T00561028
KLPC 170415Z AUTO 26005KT 8SM OVC013 12/09 A2986 RMK AO1
KLPR 170353Z AUTO 10007KT 10SM CLR 03/M05 A3038 RMK AO2 SLP294 T00331050 TSNO
KLQK 170415Z AUTO 10SM CLR 07/M19 A3037 RMK AO2 T00681191
KLRD 170356Z 11009KT 10SM CLR 20/11 A2994 RMK AO2 T02000111 SLP131
KLRF 170358Z AUTO 06002KT 10SM CLR 06/04 A3015 RMK AO2 SLP213 T00570037
KLRJ 170355Z AUTO 34017G24KT 10SM OVC013 00/M02 A3009 RMK AO2
KLRO 170415Z AUTO 04005KT 10SM SCT039 A3036 RMK AO2
KLRU 170415Z AUTO 29010KT 10SM CLR 21/M16 A2984 RMK AO2 T02051160
KLSB 170415Z AUTO 29008KT 10SM CLR 17/M17 A2989 RMK AO2
KLSE 170353Z AUTO 14014G23KT 10SM OVC070 11/M02 A2990 RMK AO2 SLP126 T01061022 TSNO
KLSF 170358Z AUTO 08007KT 10SM CLR 06/03 A3027 RMK AO2 SLPNO T00560032
KLSV 170358Z AUTO 02008KT 10SM CLR 24/M06 A2974 RMK AO2 SLP053 T02401058
KLTS 170358Z AUTO 10016KT 10SM CLR 14/03 A2993 RMK AO2 SLP130 T01430033 $
KLUA 170355Z AUTO 00000KT 10SM CLR 01/M04 A3049 RMK AO2
KLUD 170415Z AUTO 11011G17KT 10SM CLR 13/06 A2999 RMK AO2 T01260060
KLUF 170358Z 24008KT 10SM FEW250 25/00 A2971 RMK AO2A SLP050 T02501002
KLUK 170353Z AUTO 04003KT 10SM CLR 03/M01 A3030 RMK AO2 SLP262 T00281011
KLUM 170415Z AUTO 07009KT 5SM DZ BKN029 OVC035 03/03 A2994 RMK AO2 T00290025
KLUX 170415Z AUTO 08005KT 10SM CLR 07/00 A3040 RMK AO2
KLVJ 170353Z AUTO 12006KT 10SM CLR 16/11 A3006 RMK AO2 SLP177 T01560111
KLVK 170353Z 30003KT 10SM CLR 19/08 A2982 RMK AO2 SLP096 T01890083
KLVM 170353Z AUTO 09014KT 10SM FEW075 OVC090 03/00 A3000 RMK AO2 SLP168 T00330000
KLVN 170357Z AUTO 35010KT RA SCT005 BKN009 OVC023 01/01 A2990 RMK AO2
KLVS 170353Z AUTO 06011KT 10SM OVC050 08/M04 A3006 RMK AO2 PK WND 06028/0323 RAB26E41 SLP110 P0000 T00781044
KLWA 170415Z AUTO 13012G21KT 10SM CLR 05/M03 A3022 RMK AO2 T00531035
KLWB 170355Z AUTO 14004KT 10SM CLR 04/M08 A3038 RMK AO2 T00391084
KLWC 170352Z AUTO 34015G21KT 10SM OVC095 10/02 A3005 RMK AO2 SLP176 T01000017
KLWD 170415Z AUTO 30014G23KT BKN018 OVC080 04/01 A3000 RMK AO2 PK WND 29027/0358 T00440006
KLWM 170354Z AUTO 06005KT 10SM CLR M02/M11 A3063 RMK AO2 SLP375 T10171106
KLWS 170356Z 16003KT 10SM CLR 11/01 A2998 RMK AO2 SLP154 T01060011
KLWT 170415Z AUTO 17003KT 1SM -SN BR VV010 00/00 A3002 RMK AO2 P0002 T00000000 TSNO
KLWV 170353Z AUTO 12011KT 10SM CLR 07/M02 A3019 RMK AO2 SLP224 T00721022
KLXL 170418Z AUTO 36007KT 343V053 10SM SCT021 OVC041 M02/M06 A3010 RMK AO2
KLXN 170415Z AUTO 01015KT 10SM OVC016 02/M02 A3015 RMK AO2 T00151017
KLXT 170353Z AUTO 26007KT 10SM CLR 13/M01 A3001 RMK AO2 SLP164 T01281006
KLXV 170353Z AUTO 06004KT 10SM BKN065 M03/M08 A3006 RMK AO2 SLP119 T10281083
KLXY 170355Z AUTO 13006KT 10SM CLR 12/06 A3002 RMK AO2 T01230058
KLYH 170354Z AUTO 05005KT 10SM CLR 06/M07 A3049 RMK AO2 SLP327 T00561072
KLYV 170415Z AUTO 36014G23KT 10SM OVC013 00/M03 A3009 RMK AO2
KLZU 170045Z 09004KT 10SM CLR 09/M02 A3027 RMK CLOSING WX LL
KLZZ 170415Z AUTO 15010G15KT 10SM CLR 15/09 A2996 RMK AO2 T01460091
KM19 170356Z AUTO 18005KT 10SM CLR 09/03 A3016 RMK AO2 T00880033 SLP214
KM25 170415Z AUTO 12005KT 10SM CLR 07/01 A3018 RMK AO2 PNO
KM30 170415Z AUTO 00000KT 10SM CLR 07/00 A3016 RMK AO2 T00731005
KM40 170435Z AUTO 00000KT 10SM CLR 07/M01 A3021 RMK AO2
KM63 170356Z AUTO 20009KT 12SM FEW180 20/M16 A2980 RMK AO2 SLPNO T01961163
KMAE 170353Z AUTO 32008KT 10SM CLR 22/06 A2979 RMK AO2 SLP084 T02170061
KMAF 170353Z 15017KT 10SM CLR 17/01 A2983 RMK AO2 SLP068 T01670011
KMAI 170353Z AUTO 07006KT 10SM CLR 12/07 A3022 RMK AO2 SLP231 T01220072 PWINO
KMAN 170355Z AUTO 00000KT 10SM CLR 08/M04 A2998 RMK AO1
KMAO 170415Z AUTO 05005KT 10SM CLR 06/01 A3042 RMK AO2
KMBG 170352Z AUTO 04006KT 10SM CLR M03/M08 A3020 RMK AO2 SLP251 T10331078
KMBL 170415Z AUTO 13010G18KT 10SM BKN110 05/M07 A3023 RMK AO1
KMBS 170353Z 12014KT 10SM CLR 02/M07 A3036 RMK AO2 SLP289 T00171067
KMCB 170353Z AUTO 16004KT 10SM CLR 08/05 A3016 RMK AO2 SLP211 T00830050
KMCC 170410Z AUTO 19005KT 10SM CLR 22/07 A2981 RMK AO2
KMCD 170417Z AUTO 11011G19KT 10SM OVC080 00/M02 A3033 RMK AO2 T10031025
KMCE 170353Z AUTO 32006KT 10SM CLR 21/08 A2978 RMK AO2 SLP084 T02110083
KMCF 170358Z AUTO 07011KT 10SM CLR 17/15 A3014 RMK AO2 SLP209 T01730153 $
KMCI 170353Z 33017KT 10SM OVC080 09/00 A3004 RMK AO2 SLP170 T00890000
KMCJ 170415Z AUTO 03008KT 10SM CLR 15/12 A3001 RMK AO1
KMCK 170353Z AUTO 02012KT 10SM CLR 03/M01 A3015 RMK AO2 SLP214 T00281011
KMCN 170353Z AUTO 09005KT 10SM CLR 07/02 A3032 RMK AO2 SLP265 T00670022 TSNO
KMCO 170353Z 02007KT 10SM CLR 18/14 A3017 RMK AO2 SLP213 T01830139
KMCW 170418Z AUTO 30018KT 6SM BR BKN005 OVC041 04/04 A2983 RMK AO2 T00440039 $
KMCX 170415Z AUTO 12006KT 10SM CLR 05/M03 A3019 RMK AO2 T00531035
KMDD 170355Z AUTO 15014G22KT 10SM CLR 18/00 A2983 RMK AO2 T01760001
KMDH 170352Z AUTO 15006KT 10SM CLR 08/M02 A3015 RMK AO2 SLP211 T00781017
KMDJ 170415Z AUTO 12017KT 10SM OVC033 17/10 A3016 RMK A01
KMDQ 170415Z AUTO 13005KT 10SM CLR 11/M03 A3024 RMK AO2
KMDT 170356Z 06003KT 10SM SCT250 04/M09 A3054 RMK AO2 SLP345 T00391089 $
KMDW 170351Z 15012G21KT 10SM SCT180 08/M04 A3017 RMK AO2 SLP222 T00781044 $
KMDZ 170355Z AUTO 12013G18KT 10SM SCT024 OVC060 02/M03 A3002 RMK AO2 T00201035
KMEB 170352Z AUTO 06006KT 10SM CLR 05/00 A3043 RMK AO2 SLP304 T00500000
KMEH 170356Z AUTO 00000KT 10SM CLR 03/01 A2998 RMK AO2 SLP164 T00330006
KMEI 170358Z 00000KT 10SM CLR 08/06 A3018 RMK AO2 SLP217 T00780061
KMEM 170354Z 00000KT 10SM FEW250 10/01 A3016 RMK AO2 SLP214 T01000011 $
KMER 170415Z AUTO 33005KT 10SM CLR 19/08 A2979 RMK AO1
KMEZ 170415Z AUTO 00000KT 10SM CLR 05/02 A3010 RMK AO2 PWINO
KMFD 170352Z AUTO 12010KT 10SM CLR 02/M06 A3033 RMK AO2 SLP284 T00221061
KMFE 170353Z AUTO 12009KT 10SM CLR 19/13 A2997 RMK AO2 SLP145 T01890128 TSNO
KMFI 170354Z AUTO 11014KT 10SM FEW047 OVC065 03/M02 A3002 RMK AO2 SNB08E18 SLP179 P0000 T00331022
KMFR 170353Z 04004KT 10SM SCT080 15/06 A2998 RMK AO2 SLP150 T01500061
KMGC 170355Z AUTO 13012G17KT 110V170 10SM CLR 06/M05 A3019 RMK AO2
KMGE 170358Z AUTO 10009KT 10SM CLR 09/M01 A3030 RMK AO2 SLP263 T00921009 TSNO $
KMGG 170417Z AUTO 01015G21KT 10SM OVC014 M01/M03 A3003 RMK AO2 T10121028
KMGJ 170354Z AUTO 00000KT 10SM CLR M01/M07 A3057 RMK AO2 SLP357 T10111067 TSNO
KMGM 170353Z AUTO 10004KT 10SM CLR 09/04 A3025 RMK AO2 SLP242 T00940039
KMGN 170415Z AUTO 08008KT 10SM BKN060 OVC070 01/M03 A3030 RMK AO2 T00131037
KMGR 170415Z AUTO 09007KT 047V107 10SM BKN037 12/08 A3027 RMK AO2
KMGW 170353Z AUTO 12007KT 080V150 10SM CLR 06/M11 A3038 RMK AO2 SLP295 T00561111 TSNO
KMGY 170353Z AUTO 10006KT 10SM CLR 05/M04 A3028 RMK AO2 SLP257 T00501044
KMHE 170353Z AUTO 01012KT 10SM OVC023 00/M04 A3018 RMK AO2 SLP233 T00001044
KMHK 170352Z AUTO 35008G19KT 10SM CLR 07/M01 A3010 RMK AO2 SLP193 T00671006
KMHR 170347Z 21005KT 10SM SKC 19/12 A2980
KMHS 170356Z AUTO VRB03KT 10SM CLR 14/02 A2998 RMK AO2 SLP157 T01440017
KMHT 170353Z 35004KT 10SM CLR 00/M11 A3060 RMK AO2 SLP380 T00001106
KMHV 170415Z AUTO 28028G33KT 10SM CLR 20/00 A2980 RMK AO1
KMIA 170353Z 06008KT 10SM SCT020 BKN035 OVC250 25/21 A3008 RMK AO2 SLP186 T02500206
KMIB 170358Z AUTO 08006KT 10SM SCT065 M04/M09 A3029 RMK AO2 SLP290 T10401094 $
KMIC 170353Z AUTO 01014G20KT 1/2SM SN FZFG OVC007 M02/M03 A2996 RMK AO2 SLP157 P0003 T10171028
KMIE 170353Z AUTO 12007KT 10SM CLR 02/M03 A3026 RMK AO2 SLP251 T00171028
KMIS 170415Z AUTO 15016G24KT 10SM OVC034 19/10 A3013 RMK A01
KMIV 170354Z AUTO 00000KT 10SM CLR M01/M03 A3055 RMK AO2 SLP344 T10111028
KMIW 170353Z AUTO 25020KT 10SM -RA FEW055 BKN070 OVC090 09/04 A2985 RMK AO2 WSHFT 0327 RAB47 SLP112 P0000 T00890039
KMJQ 170412Z AUTO 34021G28KT 10SM OVC007 M01/M03 A2999 RMK AO2
KMJX 170415Z AUTO 00000KT 10SM CLR M02/M05 A3057 RMK AO1
KMKC 170354Z 32013KT 10SM CLR 13/02 A3001 RMK AO2 SLP159 T01280022
KMKE 170352Z 15013KT 10SM OVC160 06/M03 A3017 RMK AO2 SLP223 T00611028
KMKG 170355Z AUTO 12018G25KT 10SM FEW120 06/M05 A3022 RMK AO2 SLP238 T00561050
KMKJ 170355Z AUTO 08005KT 10SM CLR 03/M06 A3040 RMK AO2 T00261062
KMKL 170353Z AUTO 19003KT 10SM CLR 07/00 A3018 RMK AO2 SLP222 T00720000
KMKN 170415Z AUTO 15010KT 10SM CLR 15/07 A2995 RMK AO2 T01480068
KMKO 170353Z AUTO 17005KT 10SM CLR 08/02 A3009 RMK AO2 SLP189 T00830022
KMKS 170455Z AUTO 00000KT 7SM CLR 07/06 A3037 RMK AO2
KMKT 170415Z AUTO 35018G26KT 3SM OVC006 00/M01 A2992 RMK AO1
KMKY 170415Z AUTO 07005KT 10SM OVC038 22/18 A3008 RMK AO1
KMLB 170353Z AUTO 05013KT 10SM SCT028 21/16 A3014 RMK AO2 SLP204 T02110161
KMLC 170353Z AUTO 11004KT 10SM CLR 09/01 A3008 RMK AO2 SLP185 T00940011
KMLE 170355Z AUTO 33015G23KT 10SM OVC020 03/M02 A3009 RMK AO2 T00271020
KMLF 170352Z AUTO 33005KT 10SM CLR 07/M07 A2999 RMK AO2 SLP133 T00721072
KMLI 170352Z AUTO 15016G22KT 10SM CLR 09/M03 A3001 RMK AO2 SLP165 T00891028
KMLJ 170415Z AUTO 00000KT 10SM CLR 10/M02 A3034 RMK AO2
KMLP 170353Z AUTO 24006KT 3/4SM -SN BR VV002 M01/M01 A2996 RMK AO2 SLP171 P0001 T10111011 TSNO $
KMLS 170353Z AUTO 05009KT 10SM OVC100 01/M04 A3013 RMK AO2 SLP226 T00111044
KMLT 170353Z AUTO 00000KT 10SM CLR M06/M11 A3063 RMK AO2 SLP384 T10561111
KMLU 170353Z AUTO 00000KT 10SM CLR 07/05 A3014 RMK AO2 SLP206 T00670050 $
KMMH 170415Z AUTO 30010KT 10SM CLR 10/00 A3004 RMK AO1
KMMI 170415Z AUTO 17004KT 10SM CLR 07/M02 A3030 RMK
KMMK 170353Z AUTO 00000KT 10SM CLR 01/M06 A3059 RMK AO2 SLP362 T00061061 TSNO
KMML 170415Z AUTO 36017KT 10SM OVC022 M02/M06 A3009 RMK AO1
KMMT 170358Z AUTO 06004KT 10SM CLR 07/00 A3040 RMK AO2 SLP298 T00690000
KMMU 170355Z AUTO 04007KT 10SM CLR 03/M07 A3058 RMK AO2
KMMV 170353Z AUTO 23004KT 10SM BKN043 OVC065 12/10 A3003 RMK AO2 SLP168 T01220100
KMNE 170415Z AUTO 00000KT 10SM CLR 09/04 A3012 RMK AO2 T00940040
KMNH 170415Z AUTO 17006KT 10SM UP BKN042 OVC050 00/M01 A3010 RMK AO2
KMNI 170415Z AUTO 00000KT 10SM CLR 05/ A3039 RMK AO2
KMNM 170415Z AUTO 10009KT 10SM CLR 01/M02 A3020 RMK AO1
KMNN 170353Z AUTO 11007KT 10SM CLR 02/M05 A3033 RMK AO2 SLP281 T00171050 TSNO
KMNZ 170415Z AUTO 15011KT 10SM CLR 14/08 A2997 RMK AO2 T01430076
KMOB 170356Z 00000KT 10SM FEW250 08/07 A3018 RMK AO2 SLP220 T00780072
KMOD 170353Z AUTO 32006KT 10SM CLR 22/07 A2978 RMK AO2 SLP085 T02170067
KMOP 170415Z AUTO 10012KT 10SM CLR 02/M06 A3032 RMK AO2 T00221057
KMOT 170354Z AUTO 06008KT 10SM OVC090 M03/M09 A3028 RMK AO2 SLP284 T10331094
KMOX 170411Z AUTO 02012KT 10SM CLR M02/M06 A3014 RMK AO2
KMPO 170353Z AUTO 03004KT 10SM CLR M01/M10 A3049 RMK AO2 SLP351 T10111100
KMPV 170351Z AUTO 00000KT 10SM CLR M07/M10 A3063 RMK AO2 SLP396 T10721100
KMPZ 170355Z AUTO 15017KT 10SM SCT095 10/M03 A2998 RMK AO2 T01001035
KMQB 170415Z AUTO 15014G17KT 10SM CLR 08/M01 A3007 RMK AO2 T00801010
KMQE 170354Z AUTO 36007KT M01/M11 A3057 RMK AO1 SLP368 T10061106
KMQI 170415Z AUTO 04016G21KT 10SM CLR 06/01 A3046 RMK AO2 T00600011
KMQJ 170415Z AUTO 12007KT 10SM CLR 04/M03 A3024 RMK AO1
KMQY 170356Z AUTO 00000KT 8SM CLR 05/03 A3023 RMK AO2 T00500027 SLP250
KMRB 170353Z AUTO 00000KT 10SM CLR 03/M08 A3052 RMK AO2 SLP339 T00331078 TSNO
KMRC 170415Z AUTO 00000KT 10SM CLR 06/04 A3020 RMK
KMRF 170415Z AUTO 13007KT 10SM CLR 12/M14 A2992 RMK AO1
KMRH 170358Z AUTO 01011KT 10SM CLR 06/M01 A3041 RMK AO2 SLP297 T00611011 TSNO
KMRJ 170355Z AUTO 14018G24KT 10SM OVC090 08/M02 A2998 RMK AO2
KMRN 170355Z AUTO 06004KT 10SM CLR 03/M03 A3046 RMK AO2 T00341030
KMRT 170414Z AUTO 12004KT 10SM CLR 03/M06 A3032 RMK AO2 T00321059
KMRY 170354Z 20005KT 9SM BKN015 13/08 A2987 RMK AO2 SLP127 T01330083
KMSL 170353Z AUTO 14004KT 10SM CLR 08/03 A3021 RMK AO2 SLP229 T00780028
KMSN 170353Z 15014KT 10SM BKN200 08/M02 A3007 RMK AO2 SLP186 T00781022
KMSO 170353Z AUTO 00000KT 10SM FEW060 OVC080 07/00 A3000 RMK AO2 SLP175 T00670000
KMSP 170408Z 35014KT 4SM -FZRASN BR OVC006 M01/M01 A2994 RMK AO2 RAE08FZRAB08 P0004 I1000 T10061006 $
KMSS 170353Z AUTO 18003KT 10SM CLR M04/M08 A3063 RMK AO2 SLP380 T10441078
KMSV 170415Z AUTO 00000KT 10SM CLR M02/M09 A3054 RMK AO1
KMSY 170353Z 00000KT 10SM CLR 12/07 A3017 RMK AO2 SLP217 T01170067
KMTC 170358Z AUTO 10014G21KT 10SM CLR 00/M08 A3039 RMK AO2 SLP301 T00031077
KMTH 170353Z AUTO 07011KT 10SM CLR 26/21 A3005 RMK AO2 SLP176 T02610211
KMTJ 170353Z AUTO 11007KT 10SM CLR 06/M03 A3001 RMK AO2 SLP129 T00561033
KMTN 170415Z AUTO 00000KT 10SM CLR 04/M02 A3056 RMK AO2
KMTO 170353Z AUTO 15011KT 10SM CLR 07/M03 A3014 RMK AO2 SLP208 T00721033
KMTP 170354Z AUTO 03008KT 04/M06 A3059 RMK AO1 SLP356 T00441061
KMTV 170415Z AUTO 00000KT 10SM CLR 00/M01 A3048 RMK AO2 T00001012 TSNO
KMTW 170356Z AUTO 15010KT 10SM OVC110 04/M02 A3020 RMK AO2 SLP256 T00391017
KMUI 170158Z AUTO 06003KT 10SM CLR 01/M03 A3052 RMK AO2 SLP343 T00141033 $
KMUO 170358Z AUTO 32002KT 10SM CLR 11/M06 A2999 RMK AO2 SLP155 T01111062
KMUT 170355Z AUTO 16014G20KT 10SM SCT095 10/M01 A2998 RMK AO2
KMVE 170414Z AUTO 04018KT 10SM OVC026 M02/M04 A3012 RMK AO2
KMVL 170354Z AUTO 00000KT 10SM CLR M07/M10 A3064 RMK AO2 SLP390 T10721100
KMVN 170415Z AUTO 15003KT 10SM CLR 07/M03 A3016 RMK AO1
KMVY 170353Z 03010KT 10SM CLR 03/M06 A3056 RMK AO2 SLP350 T00281056 $
KMWA 170415Z AUTO 14005KT 10SM CLR 09/M01 A3016 RMK AO2
KMWC 170415Z AUTO 13011G16KT 10SM CLR 05/M03 A3015 RMK AO2
KMWH 170352Z 25007KT 10SM OVC110 14/03 A2994 RMK AO2 SLP139 T01390028
KMWK 170355Z AUTO 08006KT 10SM CLR 07/M04 A3043 RMK AO2 T00681044
KMWL 170353Z AUTO 13011KT 10SM CLR 14/07 A2995 RMK AO2 SLP137 T01440067
KMWM 170412Z AUTO 34022G27KT 10SM OVC009 M02/M03 A3000 RMK AO2
KMWN 170355Z 33028KT 100SM SCT220 M11/M28 RMK
KMWO 170415Z AUTO 07003KT 10SM CLR 05/M05 A3031 RMK AO2 T00451051
KMWS 170400Z 28501G02KT 12/02 RMK SNOW DEPTH 3.00
KMWT 170353Z AUTO 00000KT 10SM CLR 08/02 A3008 RMK AO2 SLP190 T00830022
KMXF 170358Z AUTO 11009KT 10SM CLR 15/04 A3024 RMK AO2 SLP243 T01540042
KMXO 170415Z AUTO 14017G24KT 10SM SCT080 08/M01 A2994 RMK AO2
KMYF 170353Z 17004KT 8SM CLR 15/11 A2985 RMK AO2 SLP106 T01500111
KMYL 170351Z AUTO 04003KT 10SM CLR 02/M06 A2999 RMK AO2 SLP169 T00221056 TSNO
KMYP 170413Z AUTO 06014KT M1/4SM UP OVC001 M06/M07 A3019 RMK AO2
KMYR 170415Z AUTO 03009KT 10SM FEW035 09/04 A3039 RMK AO1
KMYV 170353Z AUTO 07003KT 10SM CLR 20/08 A2978 RMK AO2 SLP088 T02000083
KMZG 170415Z AUTO 12018KT 9SM 20/13 A3000 RMK A01
KMZH 170414Z AUTO 04013G23KT 1 3/4SM -SN OVC009 M02/M03 A3009 RMK AO2
KMZZ 170355Z AUTO 12008KT 10SM CLR 04/M04 A3026 RMK AO2 T00391040
KN03 170415Z AUTO 00000KT 10SM CLR M02/M07 A3057 RMK AO2
KN60 170352Z AUTO 06008KT M01/M08 A3026 RMK AO1 SLP274 T10111083
KNAK 170354Z AUTO 00000KT 10SM CLR 05/M01 A3054 RMK AO2 SLP343 T00501011
KNBC 170356Z AUTO 11010G18KT 10SM CLR 12/04 A3034 RMK AO2 SLP273 T01220044
KNBG 170355Z 00000KT 10SM FEW030 SCT250 09/07 A3016 RMK AO2 SLP211 T00890067 PNO $
KNBT 170356Z AUTO 02016G23KT 10SM CLR 08/02 A3041 RMK AO2 PK WND 01027/0306 SLP301 T00830022 PNO
KNCA 170356Z AUTO 03010KT CLR 06/M02 A3043 RMK AO2 SLP307 T00561022
KNDZ 170356Z 08005KT 10SM FEW250 13/07 A3019 RMK AO2 SLPNO T01280072
KNEL 170400Z AUTO 00000KT CLR M02/M03 A3056 RMK AO2 SLP347 T10171033 $
KNEW 170353Z AUTO 13007KT 10SM CLR 13/08 A3017 RMK AO2 SLP209 T01280083
KNFE 170356Z AUTO 03003KT 10SM CLR 05/00 A3050 RMK AO2 SLP331 T00500000 $
KNFG 170354Z 00000KT 7SM CLR 13/10 A2985 RMK AO2 SLP107 T01330100
KNFL 170356Z 08005KT 10SM FEW200 14/M07 A2994 RMK AO2 SLP110 T01391067
KNFW 170352Z 09007KT 10SM CLR 17/06 A3004 RMK AO2 SLP155 T01670056 $
KNGP 170356Z 13011KT 10SM FEW020 FEW130 OVC220 19/14 A2998 RMK AO2 SLP153 T01890144
KNGU 170359Z 07009KT 10SM CLR 07/M01 A3051 RMK AO2 SLP333 T00671011
KNHK 170352Z AUTO 05007KT 10SM CLR 04/M03 A3053 RMK AO2 SLP338 T00441033
KNID 170356Z 18007KT 10SM CLR 22/M01 A2975 RMK AO2 SLP059 T02171006 $
KNIP 170353Z 04010KT 10SM BKN018 17/12 A3025 RMK AO2 SLP240 T01670122
KNJK 170356Z 20007KT 10SM CLR 27/04 A2968 SLP064 T02670044
KNJM 170357Z AUTO 02013G17KT 10SM CLR 06/M02 A3042 RMK AO2 SLP305 T00561017
KNKT 170354Z 02017KT 10SM CLR 06/M01 A3044 RMK AO2 SLP304 T00561006
KNKX 170355Z 15004KT 9SM SCT015 14/10 A2985 RMK AO2 SLP103 T01390100
KNLC 170356Z 32009KT 10SM FEW150 SCT200 24/06 A2979 RMK AO2 SLP087 RH/30 T02440061 $
KNMM 170356Z 00000KT 10SM CLR 10/04 A3018 RMK AO2 SLP232 T01000044 $
KNOG 170356Z AUTO 13010KT 10SM FEW110 18/13 A2998 RMK AO2 SLP133 T01780128
KNPA 170356Z AUTO 34003KT 10SM CLR 09/09 A3018 RMK AO2 SLP220 T00890089
KNQA 170350Z 00000KT 10SM SCT250 08/02 A3018
KNQI 170356Z 12009KT 10SM FEW022 BKN230 18/14 A2998 RMK AO2 SLP147 T01780139
KNQX 170353Z AUTO 06012KT 6SM BR SCT034 BKN045 OVC055 23/21 A3006 RMK AO2 SLP177 T02330211 $
KNRB 170415Z 04022G27KT 10SM FEW016 OVC030 16/12 A3023 RMK AO2 PK WND 04027/0414 T01610122 $
KNRS 170356Z 19003KT 8SM FEW017 14/12 A2986 RMK AO2 SLP109 T01440117 $
KNSE 170356Z AUTO 08004KT 10SM CLR 10/07 A3018 RMK AO2 SLP209 T01000067 $
KNSI 170353Z AUTO 29014G20KT 6SM OVC006 A2983 RMK AO2 SLPNO $
KNTD 170354Z 21003KT 5SM HZ FEW009 14/12 A2983 RMK AO2 SLP102 T01440117 $
KNTU 170356Z 06012KT 10SM CLR 06/M02 A3050 RMK AO2 SLP330 T00611017
KNUC 170056Z 30008KT 8SM OVC012 17/12 A2983 RMK SLP102 LAST T01670122
KNUI 170353Z AUTO 02003KT 10SM CLR 02/M02 A3053 RMK AO2 SLP336 T00171017
KNUQ 170356Z AUTO 36009KT 10SM CLR 16/12 A2985 RMK AO2 SLP109 T01610117 TSNO
KNUW 170411Z 13010KT 8SM -RA FEW008 BKN016 OVC050 12/09 A2994 RMK AO2 P0001 T01170094 $
KNXP 170356Z AUTO 06004KT 10SM CLR 26/M02 A2982 RMK AO2 SLP063 T02611017 $
KNYC 170351Z AUTO 06007KT 10SM CLR 04/M11 A3059 RMK AO2 SLP350 T00441106
KNYG 170356Z AUTO 07006KT 10SM CLR 06/M03 A3055 RMK AO2 SLP347 T00611033
KNYL 170357Z 21005KT 10SM CLR 26/M02 A2971 RMK A02 SLP059 T02561017
KNZY 170352Z VRB05KT 7SM SCT017 18/12 A2984 RMK AO2 SLP105 T01780122 $
KO22 170355Z AUTO 00000KT 10SM CLR 13/08 A2986 RMK AO1
KO54 170415Z AUTO 35003KT 10SM BKN018 13/07 A2993 RMK AO1
KO69 170415Z AUTO 33004KT 10SM OVC022 11/09 A2986 RMK AO1
KO86 170410Z AUTO 00000KT 10SM CLR 15/05 A2993 RMK AO1
KOAJ 170415Z AUTO 36005KT 10SM CLR 03/M02 A3045 RMK AO1
KOAK 170353Z 30009KT 10SM FEW200 16/09 A2984 RMK AO2 SLP106 T01560094 $
KOBE 170415Z AUTO 03004KT 10SM SCT025 BKN030 18/17 A3012 RMK AO2
KOCF 170415Z AUTO 03005KT 10SM CLR 13/08 A3021 RMK AO1
KOCH 170415Z 12004KT 10SM CLR 10/06 A3008 RMK AO1
KOCQ 170415Z AUTO 09005KT 10SM BKN120 00/M01 A3019 RMK AO1 T00041012
KOCW 170415Z AUTO 03006KT 10SM CLR 03/00 A3048 RMK AO2 T00310001
KODO 170353Z AUTO 16016G24KT 10SM CLR 17/00 A2982 RMK AO2 SLP068 T01670000 TSNO
KODX 170353Z AUTO 35009G17KT 10SM OVC018 00/M04 A3015 RMK AO2 PK WND 36028/0254 SLP224 T00001039
KOEB 170415Z AUTO 12012G16KT 10SM CLR 01/M03 A3028 RMK AO2 T00111028
KOEO 170355Z AUTO 01007KT 1 1/2SM -SN OVC006 00/00 A3000 RMK AO2 T10021002
KOFF 170358Z AUTO 32010KT 10SM OVC019 03/M01 A3008 RMK AO2 PK WND 30027/22 SLP194 T00331005 $
KOFK 170356Z AUTO 34021KT 10SM OVC018 00/M04 A3011 RMK AO2 PK WND 34033/0302 SLP207 T00001044
KOFP 170354Z AUTO 00000KT 10SM CLR 01/M03 A3053 RMK AO2 SLP341 T00061028
KOGA 170415Z AUTO 05009KT 10SM OVC014 02/M02 A3015 RMK AO2 T00201016
KOGB 170353Z AUTO 00000KT 10SM CLR 07/02 A3038 RMK AO2 SLP289 T00720022
KOGD 170353Z AUTO 17005KT 10SM CLR 08/M08 A3001 RMK AO2 SLP145 T00781083
KOJA 170415Z AUTO 14010KT 10SM CLR 12/02 A2998 RMK AO2
KOJC 170353Z AUTO 23006KT 10SM CLR 13/00 A3001 RMK AO2 SLP160 T01280000
KOKB 170403Z AUTO 00000KT 7SM SCT017 13/10 A2984 RMK AO2 T01280100
KOKC 170352Z 15013KT 10SM SCT250 13/02 A3000 RMK AO2 SLP153 T01280017
KOKK 170415Z AUTO 12011KT 10SM CLR 03/M03 A3023 RMK AO1
KOKM 170355Z AUTO 18010KT 10SM CLR 10/02 A3005 RMK AO2 T00970017
KOKV 170355Z AUTO 00000KT 10SM CLR 01/M05 A3051 RMK AO2
KOLE 170355Z AUTO 10006KT 10SM CLR M02/M09 A3044 RMK AO2
KOLF 170353Z AUTO 10009KT 10SM OVC029 M01/M07 A3024 RMK AO2 SLP266 T10111072
KOLM 170401Z AUTO 19006KT 5SM -RA BR OVC034 10/09 A2998 RMK AO2 P0001 T01000089
KOLS 170354Z AUTO 13005KT 10SM CLR 17/M12 A2992 RMK AO2 SLP079 T01721122
KOLU 170415Z AUTO 34015G20KT 10SM OVC021 01/M06 A3014 RMK AO1
KOLV 170355Z AUTO 00000KT 10SM CLR 09/00 A3017 RMK A01 P000
KOLY 170355Z AUTO 13005KT 10SM CLR 07/M01 A3017 RMK AO2
KOLZ 170415Z AUTO 15020G26KT 10SM CLR A2986 RMK AO2
KOMA 170352Z 33018G24KT 10SM OVC019 03/M02 A3008 RMK AO2 PK WND 33030/0311 SLP189 T00281017
KOMH 170355Z AUTO 36003KT 10SM CLR 00/M01 A3053 RMK AO2
KOMK 170353Z AUTO 16006KT 10SM FEW090 OVC110 13/01 A2990 RMK AO2 SLP128 T01280011
KOMN 162250Z 02017G24KT 7SM SCT041 19/14 A3014 RMK LAST
KONA 170420Z AUTO 13010KT 10SM SCT047 OVC060 11/M01 A2986 RMK AO2
KONL 170415Z AUTO 35015G19KT 10SM OVC017 00/M05 A3017 RMK AO2 T10021046
KONM 170355Z AUTO 01010KT 10SM CLR 19/M10 A2987 RMK AO2 T01931101
KONO 170353Z AUTO 00000KT 10SM CLR 11/M04 A2999 RMK AO2 SLP158 T01111039
KONP 170415Z AUTO 18004KT 7SM OVC008 11/09 A3007 RMK AO2
KONT 170353Z 26007KT 10SM CLR 18/11 A2983 RMK AO2 SLP095 T01780106
KONX 170355Z AUTO 05011G17KT 10SM CLR 06/M01 A3050 RMK AO2 T00621015
KONZ 170414Z AUTO 09009KT 10SM CLR 01/M04 A3038 RMK AO2
KOOA 170355Z AUTO 17017KT 10SM SCT120 10/00 A2990 RMK AO2 T01040001
KOPF 170407Z AUTO 01005KT 10SM BKN022 BKN035 24/21 A3008 RMK AO2 LTG DSNT NE T02440206
KOPL 170415Z AUTO 13005KT 10SM CLR 11/08 A3014 RMK AO2 T01050076
KOPM 170415Z AUTO 10014KT 10SM SCT037 SCT046 20/16 A2998 RMK A01
KOPN 170355Z AUTO 11006KT 10SM CLR 10/M02 A3032 RMK AO2
KOQT 170353Z AUTO 00000KT 10SM CLR 06/02 A3027 RMK AO2 SLP256 T00610017
KOQU 162252Z 35015KT 15SM SKC 06/M08 A3045
KORB 170414Z AUTO 00000KT 10SM OVC095 M04/M09 A3020 RMK AO2
KORC 170355Z AUTO 35016G22KT 10SM OVC010 M01/M04 A3006 RMK AO2
KORD 170351Z 16012KT 10SM BKN160 07/M05 A3016 RMK AO2 PK WND 14027/0253 SLP217 T00721050 $
KORE 170352Z AUTO 32007KT 10SM CLR M03/M06 A3057 RMK AO2 SLP361 T10281056
KORF 170351Z 07009KT 10SM CLR 06/M01 A3050 RMK AO2 SLP327 T00611011
KORG 170415Z AUTO 11005KT 10SM CLR 14/11 A3010 RMK AO2 T01360106
KORH 170354Z AUTO 02005KT 10SM CLR M02/M09 A3055 RMK AO2 SLP360 T10171089
KORL 170353Z AUTO 01006KT 10SM CLR 18/14 A3016 RMK AO2 SLP219 T01780144
KORS 170415Z AUTO 20005KT 8SM -RA FEW010 SCT040 BKN055 10/09 A2992 RMK AO2
KOSA 170355Z AUTO 11003KT 10SM CLR 10/02 A3010 RMK AO1 T01040020
KOSC 170414Z AUTO 14009KT 10SM SCT100 02/M05 A3040 RMK AO2 T00201053
KOSH 170353Z 13010KT 10SM FEW110 05/M04 A3012 RMK AO2 SLP208 T00501039
KOSU 170353Z AUTO 08007KT 10SM CLR 03/M06 A3032 RMK AO2 SLP272 T00281061
KOTG 170415Z AUTO 35023G28KT 10SM OVC008 M02/M06 A3005 RMK AO1
KOTH 170415Z 00000KT 10SM SCT013 BKN075 OVC095 12/11 A3007 RMK AO1
KOTM 170353Z AUTO 17019KT 10SM SCT100 BKN120 11/M01 A2991 RMK AO2 SLP130 T01111011
KOUN 170355Z AUTO 14012KT 10SM CLR 12/03 A3002 RMK AO2
KOVE 170353Z AUTO 00000KT 10SM CLR 21/10 A2980 RMK AO2 SLP092 T02110100 $
KOVL 170413Z AUTO 36013KT 10SM OVC018 M01/M03 A3005 RMK AO2
KOVS 170353Z AUTO 17007G19KT 130V200 10SM SCT090 OVC110 10/M02 A2996 RMK AO2 SLP148 T01001022 $
KOWA 170414Z AUTO 35008KT 5SM RA BKN004 OVC032 03/03 A2984 RMK AO2 P0003
KOWB 170356Z AUTO 11004KT 10SM CLR 07/M01 A3021 RMK AO2 T00661011 SLP232
KOWD 170353Z AUTO 00000KT 10SM CLR 01/M09 A3061 RMK AO2 SLP365 T00111094
KOWP 170415Z AUTO 17008KT 10SM CLR 14/00 A3004 RMK AO2 T01410001
KOXB 170353Z AUTO 10SM CLR 06/M02 A3054 RMK AO2 SLP340 T00561017 TSNO
KOXC 170415Z 03003KT 10SM CLR M01/M09 A3059 RMK AO1
KOXR 170351Z AUTO 00000KT 6SM BR CLR 14/12 A2983 RMK AO2 SLP102 T01390117
KOXV 170355Z AUTO 28018KT 10SM BKN075 OVC085 09/02 A2991 RMK AO2
KOZA 170355Z AUTO 16012KT 10SM CLR 16/02 A2991 RMK AO2
KOZR 170358Z AUTO 05006KT 10SM CLR 09/05 A3022 RMK AO2 SLPNO T00900052
KOZW 170415Z AUTO 12008KT 10SM CLR 00/M07 A3033 RMK AO2 T00001066
KP08 170415Z AUTO 00000KT 10SM CLR 24/M11 A2977 RMK AO2
KP28 170356Z AUTO 06007G20KT 13/02 A3005 RMK AO1 PK WND 03028/0320 PRESRR SLP171 T01330022
KP53 170356Z AUTO 09005KT M01/M04 A3031 RMK AO2 SLP274 P0002 T10111039 PWINO FZRANO TSNO
KP58 170351Z AUTO 15008KT 02/M05 A3041 RMK AO2 SLP309 T00171050 PWINO FZRANO TSNO
KP59 170351Z AUTO 16006KT M02/M03 A3032 RMK AO2 SLP278 P0002 T10171033 PWINO FZRANO TSNO
KP60 170356Z AUTO 27006KT M02/M10 A3004 RMK AO1 SLP189 T10171100
KP69 170352Z AUTO 00000KT 09/06 A3002 RMK AO1 SLP174 T00890056
KP92 170353Z AUTO 12006KT 14/09 A3013 RMK AO1 SLP204 T01440094
KPAE 170353Z AUTO 16011KT 7SM -RA BKN007 BKN011 OVC025 10/09 A2997 RMK AO2 SLP150 P0003 T01000089
KPAH 170353Z 14006KT 10SM CLR 08/01 A3016 RMK AO2 SLP213 T00830006
KPAM 170358Z AUTO 09007KT 10SM CLR 14/10 A3019 RMK AO2 SLP226 T01420103 CHINO RWY14 $
KPAN 170415Z AUTO 00000KT 10SM CLR 16/M10 A2997 RMK AO2
KPAO 170347Z 33010KT 25SM FEW200 16/11 A2983 RMK LAST
KPBF 170353Z AUTO 12005KT 10SM CLR 08/04 A3015 RMK AO2 SLP210 T00830039
KPBG 170353Z AUTO 00000KT 10SM CLR M04/M08 A3065 RMK AO2 SLP382 T10441078 $
KPBH 170415Z AUTO 11009KT 7SM -SN SCT033 BKN065 OVC075 00/M02 A3003 RMK AO2 T10041020
KPBI 170353Z 08015G22KT 10SM FEW020 SCT070 OVC200 24/20 A3008 RMK AO2 SLP184 T02390200
KPCM 170355Z AUTO 03005KT 10SM CLR 17/15 A3017 RMK AO2
KPCW 170414Z AUTO 09009KT 10SM CLR 02/M01 A3035 RMK AO2 $
KPCZ 170418Z AUTO 11010G16KT 10SM OVC060 06/M03 A3011 RMK AO2
KPDC 170415Z AUTO 13012G22KT 10SM OVC085 10/M03 A2992 RMK AO2 T01021031
KPDK 170353Z AUTO 09005KT 10SM CLR 09/M02 A3031 RMK AO2 SLP270 T00891022
KPDT 170353Z AUTO 29008KT 10SM FEW075 11/03 A2996 RMK AO2 SLP141 T01060033 $
KPDX 170353Z 00000KT 10SM SCT041 OVC055 13/09 A3003 RMK AO2 SLP167 T01280089
KPEA 170415Z AUTO 28018G24KT 10SM SCT085 09/03 A2993 RMK AO2 T00880029
KPEO 170353Z AUTO 00000KT 10SM CLR M03/M07 A3055 RMK AO2 SLP358 T10281072
KPEQ 170415Z AUTO 08009KT 10SM CLR 17/00 A2975 RMK AO2 T01741002
KPEX 170411Z AUTO 01015G21KT 10SM BKN018 OVC028 M02/M05 A3007 RMK AO2 T10251050
KPEZ 170415Z AUTO 13009KT 7SM +RA CLR 17/10 A2999 RMK AO2 T01660100
KPGA 170353Z AUTO 08004KT 10SM CLR 16/M02 A2992 RMK AO2 SLP090 T01611017 TSNO
KPGD 170353Z AUTO 06007KT 10SM CLR 19/17 A3012 RMK AO2 SLP201 T01940167
KPGV 170355Z AUTO 07004KT 10SM CLR 03/00 A3048 RMK AO2
KPHD 170353Z AUTO 10003KT 10SM CLR 01/M07 A3038 RMK AO2 SLP295 T00111067
KPHF 170354Z 00000KT 10SM CLR 04/01 A3051 RMK AO2 SLP333 T00440011
KPHL 170354Z 04008KT 10SM CLR 06/M09 A3057 RMK AO2 SLP350 T00561089 $
KPHN 170417Z AUTO 11009G15KT 10SM CLR M00/M08 A3042 RMK AO2
KPHP 170355Z AUTO 11007KT 10SM OVC032 01/M04 A3021 RMK AO2 SLP245 T00111044
KPHX 170351Z 23005KT 10SM CLR 28/M06 A2970 RMK AO2 SLP040 T02781061
KPIA 170354Z 16012G20KT 10SM CLR 09/M02 A3010 RMK AO2 SLP196 T00891022
KPIB 170415Z AUTO 00000KT 10SM CLR 09/04 A3018 RMK AO1
KPIE 170353Z AUTO 05011G16KT 10SM CLR 18/14 A3015 RMK AO2 SLP208 T01780139
KPIH 170353Z 20011KT 10SM CLR 07/M11 A3001 RMK AO2 SLP156 T00721106
KPIL 170353Z AUTO 14005KT 10SM CLR 19/15 A2998 RMK AO2 SLP153 T01940150
KPIR 170353Z AUTO 01006KT 10SM CLR M03/M07 A3022 RMK AO2 SLP253 T10331067
KPIT 170351Z 10008KT 10SM OVC230 03/M08 A3038 RMK AO2 SLP306 T00331083
KPKB 170353Z AUTO 08004KT 10SM CLR 05/M08 A3036 RMK AO2 SLP285 T00501083
KPKD 170353Z AUTO 04006KT 10SM CLR M03/M07 A3018 RMK AO2 SLP241 T10331072 TSNO
KPKV 170415Z AUTO 13007KT 10SM CLR 17/13 A3000 RMK AO2 T01650125
KPLN 170354Z AUTO 14017G22KT 10SM OVC080 01/M04 A3032 RMK AO2 SLP275 T00061044
KPLU 170415Z AUTO 19003KT 10SM -RA 10/09 A2999 RMK AO2
KPMD 170353Z AUTO 24010KT 10SM CLR 20/06 A2985 RMK AO2 SLP085 T02000056 TSNO
KPMP 170407Z AUTO 07014KT 8SM VCTS -RA FEW014 BKN031 OVC085 24/ A3008 RMK AO2 TSE07 P0000 T0239 $
KPMV 170355Z AUTO 31015G23KT 10SM OVC020 03/M01 A3007 RMK AO2 T00341015
KPNA 170415Z AUTO 27004KT 10SM CLR M01/M06 A3006 RMK AO2
KPNC 170353Z AUTO 17009G16KT 10SM CLR 14/00 A2999 RMK AO2 SLP151 T01440000 TSNO $
KPNE 170354Z 01007KT 10SM CLR 04/M08 A3057 RMK AO2 SLP353 T00441083
KPNM 170413Z AUTO 36015G23KT 7SM -SN SCT014 OVC032 M02/M04 A3004 RMK AO2
KPNS 170353Z 05003KT 10SM CLR 13/09 A3018 RMK AO2 SLP220 T01280089
KPNT 170415Z AUTO 14008KT 10SM CLR 05/M01 A3016 RMK AO2
KPOB 170358Z AUTO 07006KT 10SM CLR 05/01 A3045 RMK AO2 SLP315 T00520006 $
KPOC 170247Z 24007KT 10SM SKC 17/10 A2984
KPOE 170355Z AUTO 00000KT 10SM CLR 09/07 A3010 RMK AO2 SLP198 T00890067
KPOF 170353Z AUTO 15004KT 10SM CLR 08/01 A3013 RMK AO2 SLP206 T00830011
KPOU 170353Z 04006KT 10SM CLR 01/M08 A3058 RMK AO2 SLP355 T00111083
KPOV 170415Z AUTO 10006KT 10SM CLR 01/M07 A3038 RMK AO2 T00111073
KPPA 170355Z AUTO 06010KT 2SM HZ CLR 11/M03 A2996 RMK AO2 T01131027
KPPF 170352Z AUTO 18009KT 10SM CLR 13/00 A3002 RMK AO2 SLP163 T01280000 TSNO
KPPO 170415Z AUTO 14008G14KT 10SM CLR 05/M04 A3021 RMK AO2 T00451043
KPPQ 170355Z AUTO 15011KT 10SM CLR 09/M02 A3008 RMK AO2 T00871025
KPQL 170353Z AUTO 00000KT 5SM BR CLR 08/08 A3018 RMK AO2 SLP221 T00830078 TSNO
KPQN 170413Z AUTO 02016G22KT OVC012 M02/M04 A3006 RMK AO2 PWINO
KPRB 170353Z AUTO 30015KT 10SM CLR 20/06 A2981 RMK AO2 SLP092 T02000056 TSNO
KPRC 170353Z 24011KT 10SM CLR 17/M10 A2993 RMK AO2 SLP072 T01721100
KPRG 170415Z AUTO 13009KT 10SM CLR 06/M02 A3017 RMK AO2 T00591020
KPRN 170356Z AUTO 10005KT 10SM CLR 10/03 A3021 RMK AO2 SLP230 T01000033
KPRO 170415Z AUTO 30022G30KT 10SM OVC012 05/02 A2996 RMK AO2 T00530016
KPRS 170415Z AUTO 01005KT 10SM CLR 22/M10 A2978 RMK AO2 T02241097
KPRX 170415Z 12008KT 10SM CLR 09/02 A3008 RMK AO1
KPSC 170353Z 21008KT 10SM FEW110 16/03 A2994 RMK AO2 SLP139 T01560033
KPSF 170354Z AUTO 00000KT 10SM CLR M02/M09 A3053 RMK AO2 SLP352 T10221089
KPSK 170355Z AUTO 13003KT 10SM CLR 02/M05 A3043 RMK AO2 T00201051
KPSM 170358Z 04005KT 10SM CLR M01/M11 A3062 RMK AO2A SLP373 T10061108
KPSN 170415Z AUTO 12005KT 10SM CLR 13/05 A3006 RMK AO2 T01400055
KPSO 170415Z AUTO 07004KT 10SM OVC070 06/M04 A3000 RMK AO2 T00621042
KPSP 170353Z 32016KT 10SM CLR 28/07 A2970 RMK AO2 SLP053 T02780067
KPSX 170353Z AUTO 13008KT 10SM CLR 17/13 A3001 RMK AO2 SLP160 T01720128
KPTB 170355Z 00000KT 10SM CLR 02/M03 A3051 RMK AO2 PWINO
KPTK 170353Z 12010KT 10SM FEW220 00/M08 A3036 RMK AO2 SLP292 LAST AUGMENTED OBS OF THE DAY UNTIL 10Z T00001078
KPTN 170415Z AUTO 12004KT 10SM CLR 12/08 A3017 RMK AO1
KPTS 170415Z AUTO 19009KT 10SM CLR 12/00 A3002 RMK AO2 T01180003
KPTT 170415Z AUTO 03014G19KT 10SM CLR 10/01 A3006 RMK AO2
KPTV 170415Z AUTO 00000KT 10SM CLR 19/09 A2980 RMK AO1
KPTW 170354Z AUTO 02004KT 10SM CLR 01/M06 A3057 RMK AO2 SLP351 T00111056
KPUB 170353Z AUTO 06008KT 6SM -RA BR SCT022 OVC028 06/03 A3012 RMK AO2 SLP180 P0002 T00560033
KPUC 170353Z AUTO 34010KT 10SM CLR 09/M09 A3000 RMK AO2 SLP141 T00891089
KPUJ 170350Z AUTO 13008KT 10SM CLR 09/00 A3028 RMK AO2
KPUW 170353Z AUTO 00000KT 10SM OVC065 08/02 A3000 RMK AO2 SLP166 T00830017
KPVB 170355Z AUTO 14016G22KT 10SM OVC090 08/M02 A2999 RMK AO1 T00811016
KPVC 170415Z 10SM CLR 03/M05 A3060 RMK AO1
KPVD 170351Z 03010KT 10SM FEW250 02/M09 A3060 RMK AO2 SLP363 T00171089
KPVF 170415Z AUTO 06007KT 10SM SCT035 BKN041 17/04 A2990 RMK AO1
KPVG 170415Z AUTO 00000KT 7SM CLR M01/M02 A3053 RMK AO1
KPVU 170415Z AUTO 32006KT 10SM CLR 09/M06 A3003 RMK AO1
KPVW 170355Z AUTO 07009KT 10SM CLR 15/M03 A2981 RMK AO2 T01531029
KPWA 170353Z AUTO 15015G23KT 10SM CLR 14/00 A3000 RMK AO2 SLP152 T01390000
KPWC 170411Z AUTO 03008KT 10SM OVC070 M03/M07 A3019 RMK AO2
KPWG 170415Z AUTO 15009KT 10SM CLR 13/07 A3001 RMK AO1
KPWK 170352Z AUTO 16013KT 10SM CLR 08/M04 A3017 RMK AO2 PK WND 14026/0303 SLP222 T00781044 TSNO
KPWM 170351Z AUTO 02006KT 10SM CLR M02/M11 A3063 RMK AO2 SLP374 T10221106
KPWT 170415Z AUTO 18011KT 8SM OVC005 10/10 A2999 RMK AO1 P0001
KPYM 170352Z AUTO 01006KT 10SM CLR 01/M08 A3059 RMK AO2 SLP361 T00061083
KPYX 170355Z AUTO 04015KT 10SM CLR 11/00 A2998 RMK AO2 T01121002
KPZQ 170414Z AUTO 15010KT 10SM OVC090 00/M04 A3037 RMK AO2 T00001043
KQA4 170355Z 35010G16KT 9999 FEW100 BKN200 19/04 A3000 RMK SLP122 WND DATA ESTMD ALSTG/SLP ESTMD Q1015
KQAR 170355Z AUTO 28007KT 9000 FEW220 16/04 A3007 RMK AO2 SLP161 T01620042
KQAY 170355Z AUTO 00000KT 9999 CLR 28/11 A2990 RMK AO2 SLP120 T02770109 $
KQAZ 170400Z AUTO 31001KT 9999 CLR 26/M05 A2969 RMK CDP03565 CLR
KQBF 170355Z AUTO VRB01KT 9999 CLR 31/19 A2978 RMK AO2 SLP061 T03050192
KQBL 170056Z AUTO 00000KT 12SM CLR 13/10 A3017 RMK AO2 SLP223 T01300097
KQCC 170355Z AUTO VRB01KT 9999 SCT050 22/10 A2996 RMK AO2 SLP117 T02200104 $
KQEA 170355Z AUTO 27011KT 9999 FEW000 31/21 A2980 RMK AO2 SLP089 T03110209
KQEI 170400Z AUTO 31004KT 4SM BR CLR 21/05 A3003 RMK A02
KQEL 170400Z AUTO 17004KT 7SM OVC020 20/05 A2984 RMK A02
KQEN 170400Z AUTO 11003KT M1/4SM FG VV001 08/06 A3042 RMK A02
KQEP 170400Z AUTO 00002KT 3SM BR CLR 20/06 A3006 RMK A02
KQEQ 170400Z AUTO 33001KT 5SM BR CLR 19/05 A2993 RMK A02
KQES 170400Z AUTO 00005KT 2SM BR BKN110 13/04 A2998 RMK A02
KQEV 170400Z AUTO 13001KT 7SM CLR 21/M02 A2990 RMK A02
KQEW 170400Z AUTO 05003KT 7SM FEW110 21/03 A2993 RMK A02
KQEX 170400Z AUTO 03001KT 7SM CLR 22/M02 A2985 RMK A02
KQEY 170400Z AUTO 30003KT 7SM BKN095 21/M04 A2968 RMK A02
KQFB 170400Z AUTO 22003KT 7SM BKN100 23/M03 A3003 RMK A02
KQFG 170355Z AUTO VRB02KT 9999 CLR 22/13 A2991 RMK AO2 SLP104 T02240128 PWINO $
KQFQ 170355Z AUTO VRB01KT 4SM HZ CLR 21/04 A2987 RMK AO2 SLP115 T02070042 $
KQFT 170400Z AUTO 33003KT 4SM BR CLR 20/06 A2995 RMK A02
KQFU 170400Z AUTO 18005KT 3SM BR CLR 20/02 A3001 RMK A02
KQFV 170400Z AUTO 14007KT 3SM BR CLR 20/04 A3010 RMK A02
KQFX 170400Z AUTO 25001KT 3SM BR CLR 21/04 A2991 RMK A02
KQGR 170400Z AUTO 01004KT 9999 CLR 29/M03 A2987 RMK CDP03564 CLR
KQGV 170355Z 07003KT 9999 CLR 27/06 A2991 RMK SLPNO QNH1012MB PA +475
KQGX 170358Z AUTO 17004KT 9999 CLR 26/15 A2982 RMK AO2 SLPNO T02640152 $
KQHY 170056Z AUTO 02002KT 12SM CLR 14/10 A3018 RMK AO2 SLP227 T01370104
KQIR 170358Z AUTO 33007KT 9999 CLR 27/16 A2983 RMK AO2 SLPNO T02740164 $
KQKG 170355Z AUTO 34002KT 9999 FEW090 BKN120 17/11 A3009 RMK AO2 LTG DSNT W SLP182 T01720108 PWINO $
KQKV 170400Z AUTO 04012KT //// CLR 28/02 A2989 RMK CDP03576 CLR
KQL5 170355Z 04001KT 6000 FU FEW080 24/12 A2991 RMK SLP104 T02420123
KQLQ 170355Z 02002KT 9999 FEW040 12/M05 A3015 RMK AO2A SLP174 T01171053
KQLT 170356Z AUTO 12003KT 9999 SCT100 17/04 A3002 RMK AO2 SLPNO T01690044
KQPD 170355Z AUTO VRB02KT 9999 FEW210 22/06 A2997 RMK AO2 SLP107 T02190055
KQQY 170355Z AUTO 27001KT 9999 BKN150 24/20 A2996 RMK AO2 SLP128 T02360202 PNO $
KQRU 170355Z AUTO 36007KT 9999 CLR 13/M04 A3011 RMK AO2 SLP157 T01321042
KQRY 170355Z AUTO VRB04KT 9999 CLR 14/M04 A3012 RMK AO2 SLP152 T01421036
KQSA 170358Z VRB04KT 9999 CLR 18/M03 A2997 RMK AO2A LTG DSNT E SLPNO T01821028
KQSB 170355Z AUTO 20002KT 9999 CLR 23/03 A2999 RMK AO2 SLP107 T02300031
KQSJ 170355Z AUTO 00000KT 9999 CLR 16/03 A3003 RMK AO2 SLP134 T01580032 $
KQSN 170355Z VRB04KT 9999 FEW190 14/M04 A3016 RMK AO2A SLP173 WND DATA ESTMD ALSTG/SLP ESTMD T01411036
KQSQ 170355Z 00000KT 9999 BKN120 22/11 A2990 RMK SLP087 T02170107 PA2913 DA4370
KQTH 170355Z AUTO 18006KT 9999 CLR 29/M03 A2996 RMK AO2 SLP116 T02901035 $
KQTZ 170255Z 03004KT 8000 FU HZ FWE150 BKN250 21/06 A2988 RMK SLP116 WND DATA ESTMD ALSTG/SLP ESTMD 57002 LAST
KQUD 170355Z AUTO 01001KT CLR 19/18 A3017 RMK AO2 LTG DSNT W SLP173 T01870181 PWINO $
KQVF 170355Z AUTO 19001KT 9999 SCT130 26/24 A2993 RMK AO2 SLP134 T02580241
KQWL 170355Z AUTO 08003KT 9999 FEW100 SCT130 23/05 A2992 RMK AO2 SLP091 T02270047
KQWM 170355Z 03004KT 9999 CLR 26/05 A2992 RMK SLP123 QNH1013
KQXT 170355Z VRB03KT 9999 SCT130 BKN150 BKN180 23/06 A2991 RMK SLP078 T02250063 PA2445 DA3896
KRAC 170353Z AUTO 15016G20KT 10SM CLR 05/M02 A3018 RMK AO2 SLP227 T00501017
KRAL 170353Z AUTO 28005KT 10SM CLR 18/11 A2984 RMK AO2 SLP092 T01780106
KRAP 170352Z 12003KT 10SM BKN029 OVC044 M01/M04 A3018 RMK AO2 SNB13E22 SLP247 P0000 T10061044
KRAS 170415Z AUTO 13008G14KT 10SM CLR 19/15 A2999 RMK AO2 T01880145
KRBD 170353Z AUTO 13007KT 10SM CLR 12/06 A3001 RMK AO2 SLP160 T01220056 TSNO
KRBG 170353Z AUTO 35005KT 10SM SCT100 16/06 A3003 RMK AO2 SLP168 T01560061
KRBL 170354Z AUTO 28004KT 10SM CLR 21/08 A2980 RMK AO2 SLP086 T02110083
KRBO 170355Z AUTO 12010KT 10SM CLR 19/13 A2998 RMK AO2 T01880133
KRBW 170355Z AUTO 07004KT 10SM CLR 06/06 A3038 RMK AO2
KRCA 170358Z 16005KT 8SM OVC026 00/M03 A3017 RMK AO2A SLP248 P0000 T10031032 $
KRCE 170355Z AUTO 15015G20KT 10SM 12/02 A3001 RMK AO2
KRCM 170355Z AUTO 18009G15KT 10SM CLR A3000 RMK AO2
KRCR 170355Z AUTO 12011G15KT 10SM CLR 06/M02 A3024 RMK AO2
KRCX 170415Z AUTO 11012G16KT 10SM SCT046 SCT050 BKN110 02/M01 A3002 RMK AO2 T00231008
KRCZ 170355Z AUTO 00000KT 10SM 06/00 A3042 RMK AO2 T00631005
KRDD 170353Z 31005KT 10SM CLR 22/07 A2979 RMK AO2 SLP085 T02220072
KRDG 170354Z AUTO 02004KT 10SM CLR 03/M09 A3055 RMK AO2 SLP353 T00331089
KRDK 170355Z AUTO 31017KT 10SM OVC016 04/M00 A3005 RMK AO2
KRDM 170356Z AUTO 33005KT 10SM OVC070 11/02 A2999 RMK AO2 SLP153 T01110022
KRDR 170358Z AUTO 36012KT 10SM CLR M03/M07 A3030 RMK AO2 SLP278 T10301072
KRDU 170351Z 09009KT 10SM CLR 06/M03 A3046 RMK AO2 SLP315 T00611028
KREO 170352Z AUTO 06007KT 09/M05 A2999 RMK AO1 SLP152 T00941050
KRFD 170354Z 14010KT 10SM OVC140 06/M01 A3012 RMK AO2 SLP204 T00611011
KRFI 170355Z AUTO 13003KT 10SM CLR 10/03 A3007 RMK AO2 T00990030
KRGK 170415Z AUTO 13007G18KT 10SM -RA OVC034 07/04 A2989 RMK AO2 P0003
KRHI 170405Z AUTO 12012KT 1SM -SN BR FEW007 OVC014 M01/M03 A3010 RMK AO2 P0000 T10111028
KRHP 170355Z AUTO 00000KT 10SM CLR 02/M02 A3031 RMK AO2 T00181018
KRHV 170351Z 29007KT 10SM SKC 19/09 A2985
KRIC 170354Z 04005KT 10SM CLR 04/M04 A3051 RMK AO2 SLP338 T00391044
KRIL 170353Z AUTO 00000KT 10SM CLR 06/M07 A2997 RMK AO2 SLP133 T00561067 $
KRIV 170358Z AUTO 30003KT 10SM CLR 16/09 A2985 RMK AO2 SLP102 T01640085
KRIW 170353Z AUTO 08009KT 10SM FEW100 02/M02 A3002 RMK AO2 SLP170 T00221022
KRKD 170415Z AUTO 01005KT 10SM CLR M02/M12 A3065 RMK AO1
KRKP 170353Z AUTO 12013KT 10SM CLR 19/14 A2999 RMK AO2 SLP156 T01890139 TSNO
KRKR 170415Z AUTO 00000KT 10SM CLR 07/04 A3010 RMK AO2 T00710036
KRKS 170354Z AUTO 33006KT 10SM CLR 02/M13 A3003 RMK AO2 SLP162 T00221128
KRME 170353Z AUTO 00000KT 10SM CLR M04/M08 A3061 RMK AO2 SLP371 T10441083
KRMG 170353Z AUTO 11003KT 10SM CLR 11/M01 A3030 RMK AO2 SLP256 T01061011
KRMN 170355Z AUTO 00000KT 10SM CLR 01/M02 A3058 RMK AO2 T00051020
KRMY 170414Z AUTO 10009G14KT 10SM CLR 00/M04 A3029 RMK AO2 T00021040
KRNC 170415Z AUTO 18005KT 10SM CLR 11/M02 A3024 RMK
KRND 170358Z AUTO 14009KT 10SM CLR 15/09 A2999 RMK AO2 SLP153 T01520088
KRNH 170355Z AUTO 05009KT 3SM RA OVC022 01/01 A2995 RMK AO2 P0010 T00100010
KRNM 170353Z 00000KT 8SM CLR 13/10 A2985 RMK AO2 SLP104 T01280100
KRNO 170355Z 03003KT 10SM FEW070 FEW250 17/M04 A2996 RMK AO2 SLP111 T01721039
KRNP 170415Z AUTO 10008KT 10SM CLR 01/M06 A3034 RMK AO2 T00051060
KRNT 170353Z AUTO 16004KT 10SM -RA OVC032 11/11 A2998 RMK AO2 SLP156 P0001 T01110106
KRNV 170415Z AUTO 00000KT 10SM CLR 09/07 A3016 RMK AO2 T00850067
KROA 170354Z 13003KT 10SM CLR 05/M08 A3048 RMK AO2 SLP325 T00501078
KROC 170354Z 11005KT 10SM SCT200 M01/M09 A3056 RMK AO2 SLP360 T10111089
KROG 170357Z AUTO 14009KT 10SM CLR 10/M01 A3010 RMK AO2 SLP191 T01001011
KROS 170415Z AUTO 01016G19KT 3SM UP OVC003 M02/M03 A3003 RMK AO2 T10231032
KROW 170351Z AUTO 31006KT 10SM CLR 20/M12 A2973 RMK AO2 SLP018 T02001117
KROX 170415Z AUTO 02005KT 10SM CLR M03/M10 A3029 RMK AO2
KRPD 170415Z AUTO 08012KT 5SM -RA SCT012 OVC032 02/00 A2999 RMK AO2 T00160000
KRPH 170355Z AUTO 12010G18KT 10SM CLR 16/06 A2992 RMK AO2 T01560056
KRPJ 170355Z AUTO 15013G19KT 10SM CLR 06/M01 A3010 RMK AO2 T00601006
KRQB 170415Z AUTO 13015G22KT 10SM BKN110 03/M05 A3027 RMK AO2 T00261048
KRQE 170353Z AUTO 01006KT 10SM FEW120 09/M06 A3000 RMK AO2 SLP083 T00941061 TSNO
KRQO 170415Z AUTO 14013KT 10SM CLR 11/01 A2999 RMK AO2
KRRL 170355Z AUTO 00000KT 10SM SCT028 OVC035 02/M03 A3007 RMK AO2 T00221031
KRRT 170414Z AUTO 02009KT 10SM CLR M03/M13 A3029 RMK AO2
KRSL 170353Z AUTO 02015G23KT 10SM CLR 08/01 A3007 RMK AO2 SLP184 T00830011 TSNO
KRSN 170415Z AUTO 00000KT 10SM CLR 08/06 A3016 RMK AO2 T00790057
KRSP 170354Z AUTO 12005KT 10SM CLR 01/M12 A3047 RMK AO2 SLP342 T00111117 $
KRST 170354Z AUTO 12013KT 10SM OVC050 07/01 A2981 RMK AO2 RAE47 SLP103 P0000 T00720006
KRSV 170415Z AUTO 14008KT 10SM CLR 08/M01 A3019 RMK AO2 T00751006
KRSW 170353Z 06009KT 10SM SCT048 21/17 A3010 RMK AO2 SLP189 T02110167
KRTN 170416Z AUTO 01009KT 10SM -RA OVC028 04/02 A3007 RMK AO2 P0000 T00390017
KRTS 170415Z AUTO 00000KT 10SM CLR 10/M06 A2999 RMK AO2
KRUE 170353Z AUTO 11003KT 10SM CLR 09/02 A3012 RMK AO2 SLP195 T00940022
KRUG 170415Z AUTO 05009KT 10SM CLR M05/M09 A3031 RMK AO2
KRUQ 170355Z AUTO 00000KT 10SM CLR 03/00 A3043 RMK AO2 T00281001
KRUT 170415Z 12006KT 10SM CLR M04/M07 A3061 RMK AO1
KRVS 170353Z AUTO 18007KT 10SM CLR 14/01 A3004 RMK AO2 SLP181 T01440006
KRWF 170353Z AUTO 36016G24KT 10SM OVC015 M02/M04 A3005 RMK AO2 PK WND 01026/0310 SLP187 T10171039
KRWI 170353Z AUTO A3049 RMK AO2 SLPNO PWINO $
KRWL 170353Z AUTO VRB03KT 10SM CLR M02/M12 A3001 RMK AO2 SLP170 T10171122
KRWV 170355Z AUTO 18012G16KT 10SM CLR 14/11 A3005 RMK AO2
KRXE 170353Z AUTO 17008KT 10SM CLR 07/M12 A2998 RMK AO2 SLP153 T00671117
KRYN 170245Z 27010KT 10SM CLR 24/M11 A2979
KRYT 170353Z AUTO 00000KT 10SM CLR M01/M06 A3050 RMK AO2 SLP344 T10061056 $
KRYV 170415Z AUTO 13011G15KT 10SM CLR 05/M02 A3009 RMK AO2 T00511021
KRYW 170415Z AUTO 15008G17KT 10SM CLR 15/09 A2999 RMK AO2 T01500090
KRYY 162347Z 11009G17KT 10SM SKC 14/M02 A3024
KRZL 170415Z AUTO 12009G16KT 10SM CLR 05/M04 A3018 RMK AO2
KRZN 170350Z AUTO 05010G17KT 1 3/4SM -SN OVC008 M02/M03 A3003 RMK AO2 T10201027
KRZR 170415Z AUTO 00000KT 10SM CLR 04/01 A3029 RMK
KS25 170415Z AUTO 11004KT 10SM OVC034 M03/M05 A3024 RMK AO2
KS32 170415Z AUTO 03014KT 10SM CLR M02/M07 A3026 RMK AO2
KSAA 170415Z AUTO 17004KT 10SM CLR M02/M10 A3001 RMK AO2
KSAC 170353Z AUTO 00000KT 10SM CLR 20/12 A2979 RMK AO2 SLP088 T02000122
KSAD 170351Z AUTO 32010KT 10SM CLR 19/M17 A2982 RMK AO2 SLP060 T01941172
KSAF 170353Z AUTO 29004KT 10SM OVC100 12/M07 A2996 RMK AO2 SLP081 T01221067
KSAN 170351Z 15006KT 10SM BKN018 17/11 A2986 RMK AO2 SLP112 T01670111
KSAR 170415Z AUTO 00000KT 10SM CLR 07/M01 A3017 RMK AO2
KSAT 170351Z 14014KT 10SM BKN250 17/09 A2998 RMK AO2 SLP140 T01670094 $
KSAV 170353Z 04006KT 10SM FEW037 10/05 A3032 RMK AO2 SLP268 LAST AUGMENTED OBSERVATION UNTIL 1000Z T01000050
KSAW 170416Z AUTO 11008KT 1SM SN OVC006 M02/M03 A3026 RMK AO2 P0001 T10231032
KSAZ 170414Z AUTO 03008KT 10SM SCT021 OVC065 M03/M07 A3014 RMK AO2
KSBA 170353Z 10005KT 7SM CLR 14/12 A2981 RMK AO2 SLP093 T01440117
KSBD 170350Z 23006KT 10SM SKC 18/08 A2983
KSBM 170353Z AUTO 15013G20KT 10SM CLR 04/M03 A3018 RMK AO2 SLP226 T00441033
KSBN 170354Z 14014KT 10SM CLR 06/M04 A3023 RMK AO2 SLP242 T00611044
KSBO 170415Z AUTO 08003KT 10SM CLR 07/05 A3035 RMK AO2
KSBP 170356Z AUTO 31007KT 7SM CLR 12/10 A2983 RMK AO2 SLP102 T01220100
KSBS 170415Z AUTO 09004KT 10SM CLR 02/M10 A3002 RMK AO1 T00161102
KSBY 170354Z AUTO 00000KT 10SM CLR 02/M02 A3054 RMK AO2 SLP345 T00221017
KSCF 170415Z AUTO 11017KT 10SM FEW033 16/09 A3012 RMK A01
KSCH 162350Z 29010G16KT 10SM CLR 02/M09 A3052
KSCK 170355Z AUTO 30007KT 10SM CLR 19/11 A2979 RMK AO2 SLP088 T01890106 TSNO
KSDA 170415Z AUTO 32009G15KT 10SM OVC019 04/00 A3008 RMK AO2
KSDB 170348Z AUTO 32016KT 10SM CLR 16/M02 A2996 RMK AO2 SLP100 T01561022
KSDF 170356Z 00000KT 10SM BKN230 09/M04 A3024 RMK AO2 SLP243 T00891039
KSDL 170353Z 10003KT 10SM CLR 25/M04 A2974 RMK AO2 SLP051 T02501044
KSDM 170353Z AUTO 00000KT 9SM CLR 14/11 A2985 RMK AO2 SLP105 T01440106
KSDY 170415Z AUTO 13008KT 10SM OVC025 M02/M07 A3026 RMK AO1
KSEA 170353Z 15007KT 10SM OVC026 11/09 A2998 RMK AO2 SLP161 T01060089
KSEE 170415Z AUTO 00000KT 6SM HZ CLR 14/11 A2987 RMK AO2
KSEG 170353Z AUTO 05006KT 10SM CLR 02/M08 A3055 RMK AO2 SLP350 T00221078 TSNO
KSEM 170415Z AUTO 12008KT 10SM CLR 11/03 A3021 RMK AO2
KSEP 170415Z AUTO 14007KT 10SM CLR 14/08 A2999 RMK AO2 T01400075
KSET 170354Z AUTO 15009KT 10SM CLR 08/M01 A3012 RMK AO2 SLP200 T00781006
KSEZ 170355Z AUTO 32004KT 10SM CLR 18/M09 A2991 RMK AO2
KSFB 170353Z AUTO 03006KT 10SM BKN047 OVC055 17/14 A3017 RMK AO2 SLP215 T01720144
KSFF 170353Z AUTO 05004KT 10SM OVC055 09/06 A2998 RMK AO2 SLP154 T00890056
KSFM 170415Z AUTO 02007KT 10SM CLR M03/M29 A3063 RMK AO1
KSFO 170356Z 27023G27KT 10SM CLR 14/09 A2985 RMK AO2 PK WND 27028/0315 SLP108 T01390089 $
KSFQ 170355Z AUTO 00000KT 10SM CLR 02/01 A3051 RMK AO2 T00170005
KSFY 170355Z AUTO 14014G19KT 10SM OVC100 09/M02 A3004 RMK AO2 T00861019
KSFZ 170415Z AUTO 03006KT 10SM CLR M01/M10 A3060 RMK AO1
KSGF 170352Z 16012KT 10SM CLR 10/M02 A3006 RMK AO2 SLP178 T01001017
KSGH 170356Z AUTO 10007KT 8SM CLR 02/M03 A3031 RMK AO2 T00221027 400881055 SLP270
KSGJ 170412Z AUTO 04014KT 10SM SCT015 17/14 A3023 RMK AO2
KSGR 170353Z AUTO 11006KT 10SM CLR 16/12 A3004 RMK AO2 SLP174 T01560117
KSGS 170412Z AUTO 36009G14KT 4SM -RA BKN006 OVC017 03/03 A2992 RMK AO2 P0003 T00330027
KSGT 170415Z AUTO 13006KT 10SM CLR 09/04 A3016 RMK AO1
KSGU 170415Z AUTO 04018G21KT 10SM CLR 21/M04 A2986 RMK AO1
KSHD 170415Z AUTO 00000KT 10SM CLR 00/M04 A3050 RMK AO2 T10021043
KSHL 170415Z AUTO 35016G25KT 10SM OVC011 M01/M03 A3005 RMK AO2
KSHM 170356Z AUTO 36005KT 12SM -SHRA OVC028 02/01 A3013 RMK AO2 CIG 028V039 SLP205 T00160005
KSHN 170353Z AUTO 00000KT 8SM -RA OVC025 10/09 A2995 RMK AO2 SLP144 P0003 T01000089 TSNO
KSHR 170403Z AUTO 25006KT 6SM RA BKN020 OVC040 03/00 A3007 RMK AO2 RAB0355 P0001 T00330000
KSHV 170356Z 11003KT 10SM CLR 09/04 A3009 RMK AO2 SLP188 T00940044
KSIF 170415Z AUTO 00000KT 10SM CLR M01/M01 A3046 RMK AO2 T10061013
KSIY 170353Z AUTO 02009KT 10SM CLR 13/03 A2999 RMK AO2 SLP162 T01330028 TSNO
KSJC 170353Z 28008KT 10SM CLR 16/09 A2984 RMK AO2 SLP103 T01610094
KSJN 170354Z AUTO VRB03KT 10SM CLR 12/M11 A2993 RMK AO2 SLP072 T01221106 TSNO
KSJS 170415Z AUTO 08004KT 10SM CLR 06/M05 A3026 RMK AO2 T00611049 PWINO
KSJT 170351Z AUTO 16005KT 10SM CLR 17/02 A2989 RMK AO2 SLP111 T01670017
KSJX 170416Z AUTO 07009KT 10SM SCT048 BKN060 OVC080 00/M01 A3030 RMK AO2 T00001012
KSKA 170358Z AUTO 18004KT 10SM OVC100 08/03 A2996 RMK AO2 SLP157 T00760034
KSKF 170358Z AUTO 15011KT 10SM CLR 17/09 A2997 RMK AO2 SLP146 T01650093 $
KSKX 170415Z AUTO 14010KT 10SM FEW038 OVC065 09/M05 A3003 RMK AO1
KSLB 170415Z AUTO 33021KT 10SM OVC007 M01/M01 A3001 RMK AO2
KSLC 170353Z 00000KT 10SM FEW220 09/M09 A3002 RMK AO2 SLP146 T00941089
KSLE 170356Z AUTO 25004KT 10SM OVC070 14/07 A3002 RMK AO2 SLP165 T01390072
KSLG 170415Z AUTO 15007KT 10SM CLR 09/M02 A3011 RMK AO1
KSLH 170417Z AUTO 12009KT 10SM BKN070 OVC080 00/M03 A3035 RMK AO2 T00031037
KSLI 170358Z 20003KT 7SM CLR 14/12 A2985 RMK AO2A SLP111 T01430123
KSLK 170351Z AUTO 00000KT 10SM CLR M10/M11 A3053 RMK AO2 SLP372 T11001111
KSLN 170353Z 01015KT 10SM CLR 08/00 A3010 RMK AO2 SLP190 T00830000
KSLO 170415Z AUTO 15004KT 10SM CLR 09/00 A3016 RMK AO2 T00850000
KSLR 170415Z AUTO 13005KT 10SM CLR 11/03 A3008 RMK AO2 T01090027
KSME 170355Z AUTO 00000KT 10SM CLR 07/M04 A3026 RMK AO2
KSMF 170353Z 13004KT 10SM CLR 23/07 A2978 RMK AO2 SLP084 T02280072
KSMN 170415Z AUTO 33004KT 10SM BKN090 05/M07 A2998 RMK AO1
KSMO 170351Z AUTO 22003KT 7SM FEW010 SCT018 17/12 A2984 RMK AO2 SLP105 T01670117
KSMQ 170353Z AUTO 00000KT 10SM CLR M01/M03 A3055 RMK AO2 SLP348 T10061033
KSMS 170415Z AUTO 00000KT 10SM CLR A3041 RMK AO2
KSMX 170351Z AUTO 35005KT 7SM CLR 13/09 A2984 RMK AO2 SLP106 T01330094 TSNO
KSNA 170353Z 19005KT 10SM CLR 17/12 A2984 RMK AO2 SLP104 T01670122
KSNC 170415Z AUTO 03005KT 10SM CLR 02/M08 A3059 RMK AO2
KSNK 170415Z AUTO 15014G18KT 10SM CLR 17/M02 A2986 RMK AO2 T01661017
KSNL 170415Z AUTO 15007KT 10SM CLR 13/05 A3004 RMK AO2
KSNS 170353Z 31008KT 9SM CLR 14/09 A2985 RMK AO2 SLP115 T01390089
KSNT 170351Z AUTO 19004KT M03/M07 A3002 RMK AO1 SLP166 T10281067
KSNY 170353Z AUTO 08008KT 10SM SCT110 M01/M03 A3013 RMK AO2 SLP211 T10061033
KSOA 170355Z AUTO 16009KT 10SM CLR 17/03 A2990 RMK AO2
KSOP 170415Z AUTO 00000KT 10SM CLR 03/M02 A3044 RMK AO1
KSOW 170415Z AUTO 19005KT 10SM CLR 09/M13 A3002 RMK AO2
KSPA 170415Z AUTO 00000KT 10SM CLR 07/01 A3040 RMK AO2
KSPB 170353Z AUTO 00000KT 4SM -RA BR OVC037 11/10 A3002 RMK AO2 SLP165 P0001 T01060100
KSPD 170356Z AUTO 05016KT 08/M02 A3005 RMK AO1 SLP146 T00781017
KSPF 170355Z AUTO 10010KT 10SM CLR M02/M04 A3011 RMK AO2
KSPG 170353Z AUTO 06017KT 10SM CLR 19/16 A3013 RMK AO2 PK WND 07026/0326 SLP203 T01940161 $
KSPI 170352Z AUTO 16013KT 10SM CLR 08/M02 A3014 RMK AO2 SLP207 T00781017
KSPL 170415Z AUTO -RA 19/17 A2998 RMK AO2
KSPR 170415Z AUTO 13014G20KT 10SM OVC035 19/10 A3011 RMK A01
KSPS 170352Z AUTO 11012KT 10SM CLR 13/04 A2995 RMK AO2 SLP136 T01330044 TSNO
KSPW 170353Z AUTO 33025G33KT 9SM OVC008 M01/M02 A3000 RMK AO2 PK WND 35037/0325 SLP169 T10061022
KSQI 170415Z 15010G17KT 10SM CLR 08/M02 A3006 RMK AO1
KSQL 170415Z AUTO 31012KT 10SM FEW003 16/08 A2985 RMK AO2
KSRB 170415Z AUTO 00000KT 10SM CLR 06/01 A3024 RMK
KSRC 170356Z AUTO 00000KT 10SM CLR 06/04 A3017 RMK AO2 TSNO T00550038 SLP220 $
KSRQ 170353Z AUTO 06010KT 10SM OVC039 20/14 A3011 RMK AO2 SLP197 T02000144
KSRR 170355Z AUTO 30003KT 10SM CLR 15/M18 A2995 RMK AO2
KSSC 170358Z AUTO 04005KT 10SM CLR 05/00 A3039 RMK AO2 SLP293 T00460003 $
KSSF 170353Z AUTO 14010KT 10SM CLR 17/10 A2997 RMK AO2 SLP143 T01720100 PNO
KSSI 170413Z AUTO 05015G24KT 10SM -RA SCT020 OVC033 14/11 A3027 RMK AO2 PK WND 05026/0355 P0000 T01440106
KSTC 170353Z 02011G21KT 9SM BKN016 OVC028 M02/M05 A3005 RMK AO2 SNE49 SLP197 P0000 T10171050
KSTE 170355Z AUTO 10013G20KT 10SM OVC048 02/M04 A3008 RMK AO2 T00201040
KSTF 170415Z AUTO 00000KT 10SM CLR 07/04 A3019 RMK AO2
KSTJ 170353Z AUTO 32015KT 10SM CLR 06/00 A3007 RMK AO2 SLP183 T00610000
KSTK 170410Z AUTO 12005KT 10SM BKN110 05/01 A3011 RMK AO2
KSTL 170351Z 16008KT 10SM SCT250 11/M03 A3014 RMK AO2 SLP207 T01061028
KSTP 170405Z AUTO 01010KT 5SM -RA BR SCT007 BKN011 OVC025 02/01 A2995 RMK AO2 P0002 T00170006
KSTS 170353Z AUTO 16006KT 10SM CLR 14/09 A2982 RMK AO2 SLP091 T01390094
KSUA 170415Z AUTO 08014G20KT 10SM OVC046 22/20 A3011 RMK AO2
KSUE 170415Z AUTO 12007KT 10SM BKN110 02/M02 A3021 RMK AO1
KSUN 170350Z 33004KT 10SM FEW160 06/M09 A2999
KSUS 170354Z 16006KT 10SM CLR 09/M04 A3012 RMK AO2 SLP203 T00941039
KSUT 170415Z AUTO 03008G15KT 10SM CLR 08/01 A3042 RMK AO2 T00810007
KSUU 170358Z AUTO 24012KT 10SM CLR 18/09 A2979 RMK AO2 SLP094 T01780088 PWINO PNO $
KSUW 170355Z AUTO 06014G24KT 1 3/4SM -SN OVC005 M02/M02 A3016 RMK AO2 P0001 T10181025
KSUX 170405Z 34018KT 10SM OVC014 01/M02 A3009 RMK AO2 T00111022
KSVC 170415Z AUTO 31009KT 10SM CLR 10/M19 A2994 RMK AO2
KSVH 170415Z AUTO 05003KT 10SM CLR 05/M02 A3042 RMK AO2 T00461022
KSVN 170358Z AUTO 06010G15KT 10SM CLR 12/06 A3029 RMK AO2 SLPNO T01240056
KSWF 170345Z 08005KT 10SM SKC 01/M08 A3058
KSWO 170353Z AUTO 16011KT 10SM CLR 13/01 A3000 RMK AO2 SLP153 T01330006
KSWW 170355Z AUTO 15014KT 10SM CLR 18/M01 A2989 RMK AO2 T01781010
KSXT 170356Z AUTO 36008KT 10SM OVC065 08/04 A3002 RMK AO2 SLP163 T00830039
KSYF 170355Z AUTO 03008KT 10SM CLR 05/00 A3012 RMK AO2 T00500000
KSYI 170415Z AUTO 13004KT 10SM CLR 06/02 A3024 RMK
KSYM 170410Z AUTO VRB04KT 10SM CLR 07/M07 A3029 RMK AO2
KSYN 170413Z AUTO 36010KT 2 1/2SM RA SCT012 OVC029 05/04 A2986 RMK AO2 P0002 T00460035
KSYR 170354Z 00000KT 10SM FEW230 M02/M08 A3059 RMK AO2 SLP361 T10221083
KSZL 170358Z AUTO 18009KT 10SM CLR 11/00 A2999 RMK AO2 SLP158 T01071002
KSZT 170355Z AUTO 20004KT 10SM SCT026 BKN031 BKN043 06/06 A2998 RMK AO2
KT20 170415Z AUTO 13005KT 10SM CLR 15/11 A2999 RMK AO2 T01520111
KT35 170355Z AUTO 15007KT 10SM CLR 15/09 A3001 RMK AO2 T01510093
KT65 170415Z AUTO 13004KT 10SM CLR 19/13 A2997 RMK AO2 T01880126
KT82 170355Z AUTO 16010KT 10SM CLR 15/07 A2996 RMK AO2 T01530070
KTAD 170402Z AUTO 36009KT 6SM -RA BR FEW007 BKN013 OVC021 03/02 A3010 RMK AO2 P0001 T00330017
KTAN 170352Z AUTO 00000KT 10SM CLR 00/M06 A3059 RMK AO2 SLP360 T00001056
KTAZ 170355Z AUTO 17005KT 10SM CLR 05/M01 A3015 RMK AO2
KTBN 170358Z AUTO 16009KT 10SM CLR 08/M01 A3009 RMK AO2 SLPNO T00801012
KTBR 170415Z AUTO 05003KT 10SM CLR 08/04 A3034 RMK AO2 T00820037
KTBX 170415Z AUTO 14006KT 10SM CLR 00/M05 A3010 RMK AO2
KTCC 170353Z AUTO 05022G32KT 9SM CLR 14/M03 A2991 RMK AO2 PK WND 04035/0340 SLP088 T01441033
KTCL 170353Z AUTO 01003KT 10SM CLR 09/05 A3021 RMK AO2 SLP229 T00940050
KTCM 170414Z AUTO 18005KT 10SM -RA BKN031 OVC055 10/10 A2999 RMK AO2
KTCS 170353Z AUTO 33008KT 10SM CLR 21/M16 A2985 RMK AO2 SLP036 T02111161
KTDF 170355Z AUTO 06003KT 10SM CLR 03/M02 A3048 RMK AO2
KTDR 170356Z AUTO 08009KT 12SM CLR 15/10 A3018 RMK AO2 SLP224 T01460095
KTDZ 170353Z AUTO 08007KT 10SM CLR 02/M02 A3036 RMK AO2 SLP288 T00171017 TSNO
KTEB 170351Z 03003KT 10SM CLR 05/M09 A3057 RMK AO2 SLP352 T00501094
KTEW 170413Z AUTO 12008KT 090V150 10SM CLR 01/M06 A3031 RMK AO2 T00051060
KTEX 170417Z AUTO 00000KT 10SM SCT036 SCT044 01/M02 A3007 RMK AO2
KTFP 170355Z AUTO 13009KT 10SM CLR 19/14 A2999 RMK AO2 T01920137
KTHA 170415Z AUTO 16005KT 10SM CLR 10/M03 A3024 RMK
KTHV 170353Z AUTO 00000KT 10SM CLR M02/M04 A3054 RMK AO2 SLP347 T10171039
KTIF 170415Z AUTO 01009KT 10SM OVC010 00/M03 A3016 RMK AO2 T00001028
KTIK 170358Z AUTO 16009KT 10SM CLR 13/02 A3001 RMK AO2 SLP166 T01260024 $
KTIP 170355Z AUTO 00000KT 10SM CLR 06/M02 A3018 RMK AO2 T00571016 TSNO
KTIW 170353Z AUTO 18008KT 10SM OVC032 11/08 A2998 RMK AO2 SLP153 T01060078
KTIX 170047Z 07019KT 7SM BKN045 21/15 A3014 RMK LAST
KTKC 170412Z AUTO 35017G22KT 10SM OVC014 M02/M03 A3007 RMK AO2 T10161032
KTKI 170353Z AUTO 14006KT 10SM CLR 12/05 A3003 RMK AO2 SLP173 T01220050
KTKV 170355Z AUTO 13007G14KT 060V160 3SM -SN BKN019 OVC025 00/M02 A3007 RMK AO2 T00001024
KTLH 170353Z AUTO 08007KT 10SM CLR 14/08 A3023 RMK AO2 SLP235 T01390078
KTMA 170355Z AUTO 10004KT 10SM CLR 10/05 A3029 RMK AO2 T01010050 TSNO
KTMB 170353Z 06004KT 10SM FEW021 23/21 A3008 RMK AO2 SLP185 T02330206
KTME 170415Z AUTO 10009KT 10SM CLR 14/12 A3005 RMK AO2
KTMK 170415Z AUTO 00000KT 3SM DZ OVC019 10/10 A3004 RMK AO2
KTNB 170355Z AUTO 00000KT 10SM CLR M01/M05 A3038 RMK AO2 T10061052
KTNU 170355Z AUTO 26015KT 10SM OVC070 09/03 A2989 RMK AO2
KTOA 170250Z 29010KT 10SM SKC 17/12 A2982
KTOB 170413Z AUTO 12007G15KT 10SM -RA BKN033 OVC042 08/03 A2981 RMK AO2
KTOC 170355Z AUTO 00000KT 10SM CLR 08/02 A3036 RMK AO2 T00750016
KTOI 170353Z AUTO 06004KT 10SM CLR 09/03 A3024 RMK AO2 SLP238 T00940033
KTOL 170352Z 09008KT 10SM CLR 01/M02 A3034 RMK AO2 SLP283 T00111022
KTOP 170353Z AUTO 32007KT 10SM SCT075 OVC100 09/01 A3008 RMK AO2 SLP187 T00890006
KTOR 170353Z AUTO 10010KT 10SM FEW110 03/M01 A3009 RMK AO2 SLP194 T00281006
KTPA 170353Z 04007KT 10SM FEW050 17/13 A3015 RMK AO2 SLP210 T01720133
KTPF 170415Z AUTO 04013KT 10SM CLR 18/15 A3015 RMK AO2
KTPH 170356Z AUTO 35011KT 10SM CLR 16/M08 A2995 RMK AO2 SLP094 T01561078
KTPL 170415Z AUTO 14010KT 10SM CLR 13/07 A3002 RMK AO1
KTQE 170354Z AUTO 33021G27KT 10SM OVC020 02/M03 A3009 RMK AO2 PK WND 34031/0302 SLP189 T00221028
KTQH 170415Z AUTO 00000KT 10SM CLR 07/01 A3009 RMK AO2
KTRI 170353Z 12007G15KT 10SM CLR 09/M08 A3031 RMK AO2 SLP256 T00891078
KTRK 170355Z AUTO 15004KT 10SM CLR 07/03 A3003 RMK AO2
KTRL 170353Z AUTO 11006KT 10SM CLR 12/03 A3004 RMK AO2 SLP169 T01170033
KTRM 170352Z AUTO 33005KT 10SM CLR 28/04 A2966 RMK AO2 SLP045 T02780044
KTSP 170415Z AUTO 27007KT 10SM CLR 14/01 A2995 RMK AO2
KTTA 170415Z AUTO 00000KT 10SM 02/02 A3045 RMK AO2 T00200016
KTTD 170353Z 00000KT 10SM OVC060 13/08 A3001 RMK AO2 SLP163 T01330078
KTTF 170412Z AUTO 09009G14KT 10SM CLR 02/M02 A3035 RMK AO2
KTTN 170353Z AUTO 36004KT 10SM CLR 02/M08 A3055 RMK AO2 SLP340 T00221078 $
KTTS 170358Z AUTO 07007KT 10SM CLR 19/13 A3015 RMK AO2 SLP213 T01880132
KTUL 170353Z 17010KT 10SM SCT250 13/01 A3003 RMK AO2 SLP166 T01330011
KTUP 170353Z AUTO 00000KT 10SM CLR 08/04 A3018 RMK AO2 SLP220 T00830039
KTUS 170353Z 25007KT 10SM CLR 24/M13 A2983 RMK AO2 SLP062 T02391128
KTVC 170353Z 14007KT 10SM SCT075 OVC095 04/M07 A3026 RMK AO2 SLP253 T00391067
KTVF 170415Z AUTO 02009KT 10SM CLR M01/M13 A3027 RMK AO1
KTVI 170350Z AUTO 09008KT 10SM OVC039 12/08 A3027 RMK AO2
KTVK 170415Z AUTO 18010KT 10SM FEW110 10/00 A2994 RMK AO2
KTVL 170353Z AUTO 00000KT 10SM CLR 10/03 A3003 RMK AO2 SLP131 T01000028
KTVR 170353Z AUTO 00000KT 10SM CLR 12/09 A3014 RMK AO2 SLP214 T01170089 TSNO
KTWF 170353Z 22006KT 10SM CLR 06/M09 A3001 RMK AO2 SLP144 T00611089
KTWM 170413Z AUTO 05016G22KT 2 1/2SM -SN OVC014 M03/M06 A3014 RMK AO2
KTXK 170353Z AUTO 12003KT 10SM CLR 10/02 A3010 RMK AO2 SLP193 T01000022
KTYQ 170415Z AUTO 12008KT 10SM CLR 05/M05 A3022 RMK AO2 T00491046
KTYR 170353Z 12006KT 10SM CLR 12/03 A3005 RMK AO2 SLP174 T01170033
KTYS 170353Z 18003KT 10SM FEW010 07/01 A3026 RMK AO2 SLP247 FU FEW010 T00720011
KTZR 170415Z AUTO 09007KT 10SM CLR 04/M05 A3032 RMK AO2 T00401050
KU16 170258Z AUTO 13009KT CLR 10/M09 A2997 RMK AO2 SLP775 T01001094 53005 $
KUAO 170353Z AUTO 00000KT 10SM OVC065 13/08 A3003 RMK AO2 SLP168 T01280083
KUBE 170355Z AUTO 07007KT 4SM UP OVC009 00/00 A2998 RMK AO2
KUCP 170356Z AUTO 00000KT 10SM CLR 02/M09 A3041 RMK AO2 TSNO T00161088 400611077 SLP326
KUCY 170415Z AUTO 12005KT 3SM CLR 07/02 A3016 RMK
KUDG 170415Z AUTO 04005KT 10SM CLR 06/00 A3043 RMK AO1
KUES 170355Z AUTO 13013G17KT 10SM CLR 04/M03 A3014 RMK AO2
KUGN 170352Z AUTO 14008KT 10SM CLR 04/M01 A3017 RMK AO2 SLP225 T00441011
KUIL 170408Z AUTO 18007KT 3SM RA BR OVC004 10/10 A2992 RMK AO2 P0002 T01000100
KUIN 170354Z AUTO 16012KT 10SM CLR 09/M03 A3003 RMK AO2 SLP169 T00891028 $
KUKF 170355Z AUTO 00000KT 10SM CLR 04/M04 A3048 RMK AO2
KUKI 170356Z AUTO 35003KT 10SM CLR 18/07 A2985 RMK AO2 SLP104 T01830067
KUKT 170415Z AUTO 00000KT 10SM CLR 01/M08 A3057 RMK AO1
KULM 170413Z AUTO 35015G24KT 10SM OVC013 M01/M02 A2998 RMK AO2
KUNI 170355Z AUTO 06004KT 10SM CLR 04/M06 A3032 RMK AO2 T00351058 400951056
KUNO 170353Z AUTO 00000KT 10SM CLR 07/M02 A3014 RMK AO2 SLP208 T00671017
KUNU 170355Z AUTO 13013G17KT 10SM CLR 05/M05 A3011 RMK AO2 T00521048
KUNV 170415Z AUTO 06004KT 10SM CLR 02/M12 A3050 RMK AO2 T00211121
KUOX 170355Z AUTO 00000KT 10SM CLR 09/00 A3019 RMK AO2
KUSE 170415Z AUTO 09009KT 10SM CLR 01/M02 A3033 RMK AO2
KUTA 170415Z AUTO 10003KT 10SM CLR 07/05 A3018 RMK AO2
KUTS 170353Z AUTO VRB05KT 10SM CLR 14/09 A3004 RMK AO2 SLP171 T01390089
KUUU 170353Z AUTO 03011KT 10SM CLR 02/M09 A3058 RMK AO2 SLP355 T00221089
KUVA 170415Z AUTO 12008KT 10SM CLR 17/10 A2995 RMK AO2 T01710100
KUXL 170355Z AUTO 11004KT 10SM CLR 14/10 A3011 RMK AO2 T01390102
KUZA 170354Z AUTO 00000KT 10SM CLR 04/01 A3042 RMK AO2 SLP305 T00390006
KVAD 170358Z AUTO 07008KT 10SM FEW039 11/06 A3027 RMK AO2 SLP253 T01070056 $
KVAF 170415Z AUTO 12017KT 10SM SCT034 OVC041 20/12 A3003 RMK A01
KVAY 170354Z AUTO 00000KT 10SM CLR 01/M03 A3056 RMK AO2 SLP348 T00111028
KVBG 170355Z AUTO 00000KT 7SM OVC008 11/09 A2986 RMK AO2 SLP102 T01110094 TSNO
KVBS 170415Z AUTO 18014G20KT 170V230 10SM SCT029 OVC038 17/11 A3007 RMK A01
KVBT 170415Z AUTO 17005KT 10SM CLR 07/M01 A3010 RMK AO1
KVCB 170353Z AUTO 23008KT 10SM CLR 20/11 A2980 RMK AO2 SLP092 T02000106 PWINO $
KVCT 170351Z AUTO 13007KT 10SM CLR 15/11 A3001 RMK AO2 SLP161 T01500111
KVCV 170415Z AUTO 24007KT 10SM CLR 21/02 A2986 RMK AO2
KVDF 170415Z AUTO 03004KT 10SM CLR 17/13 A3016 RMK AO2
KVDI 170415Z AUTO 07006KT 10SM CLR 09/06 A3032 RMK AO2
KVEL 170353Z AUTO 00000KT 10SM CLR 07/M06 A2998 RMK AO2 SLP131 T00671061
KVER 170415Z AUTO 16012G16KT 10SM CLR 11/M02 A3001 RMK AO2 T01131024
KVES 170355Z AUTO 11007KT 10SM 03/M02 A3028 RMK AO2
KVGT 170353Z 36003KT 10SM CLR 25/M07 A2975 RMK AO2 SLP074 T02501072
KVIH 170353Z AUTO 17014G19KT 10SM CLR 08/M02 A3008 RMK AO2 SLP187 T00831022
KVIS 170415Z AUTO 31005KT 10SM CLR 21/09 A2978 RMK AO1
KVJI 170415Z AUTO 12007KT 10SM CLR 07/M07 A3032 RMK AO2 T00661072
KVKY 170415Z AUTO 12020G26KT 10SM OVC034 18/10 A3014 RMK A01
KVLD 170353Z AUTO 09006KT 10SM CLR 12/06 A3027 RMK AO2 SLP259 T01220056
KVLL 170415Z AUTO 10008KT 10SM CLR 01/M06 A3040 RMK AO2 T00071065
KVNC 170415Z AUTO 07011KT 10SM 19/15 A3012 RMK AO2
KVNY 170351Z 12003KT 10SM CLR 17/10 A2983 RMK AO2 SLP095 T01670100
KVOA 170415Z AUTO 11022KT 10SM BKN031 18/11 A3014 RMK A01
KVOK 170358Z AUTO 12015G22KT 10SM BKN070 08/M01 A2998 RMK AO2 PK WND 12026/06 SLP162 T00781007
KVPC 170353Z AUTO VRB03KT 10SM CLR 09/M01 A3030 RMK AO2 SLP257 T00941011
KVPS 170355Z 06004KT 10SM FEW250 14/06 A3018 RMK AO2A SLP226 T01440058 $
KVPZ 170353Z AUTO 14011G18KT 10SM CLR 05/M04 A3019 RMK AO2 SLP227 T00501044 TSNO
KVQQ 170415Z AUTO 01005KT 10SM BKN019 12/10 A3024 RMK AO2
KVQT 170100Z AUTO 11019KT 10SM FEW032 BKN040 18/11 A3006 RMK A01
KVRB 170353Z AUTO 05013G20KT 10SM FEW027 OVC038 23/18 A3012 RMK AO2 SLP199 T02280183
KVSF 170354Z AUTO 00000KT 10SM CLR M03/M07 A3062 RMK AO2 SLP377 T10331072
KVSH 170415Z AUTO 15003KT 10SM BKN026 13/06 A3017 RMK AO1
KVTA 170354Z AUTO 08008KT 10SM CLR 04/M08 A3033 RMK AO2 SLP277 T00391078
KVTI 170415Z AUTO 16021G25KT 10SM CLR 10/M01 A2986 RMK AO2 T00971015
KVTN 170352Z AUTO 01010KT 10SM OVC017 M01/M06 A3019 RMK AO2 SLP249 T10061056
KVTP 170413Z AUTO M05/M06 A3007 RMK AO2 PWINO
KVUJ 170355Z AUTO 03004KT 10SM CLR 05/00 A3048 RMK AO2 T00450000
KVUO 170353Z AUTO 00000KT 10SM -RA BKN038 OVC050 12/09 A3002 RMK AO2 RAB50 SLP165 P0000 T01220094
KVVG 170355Z AUTO 36003KT 10SM 15/13 A3019 RMK AO2
KVVV 170413Z AUTO 02015KT 10SM CLR M03/M07 A3016 RMK AO2
KVWU 170409Z AUTO 02005KT 10SM SCT110 M02/M13 A3023 RMK AO2
KVYS 170350Z AUTO 15013KT 10SM CLR 07/M01 A3011 RMK AO2 T00721007
KW22 170355Z AUTO 18006KT 10SM CLR 04/M06 A3035 RMK AO2
KW29 170415Z AUTO 10005KT 10SM CLR 05/M04 A3055 RMK AO1
KW43 170415Z AUTO 00000KT 10SM CLR M01/M02 A3008 RMK AO2
KW99 170355Z AUTO 00000KT 10SM CLR 03/00 A3049 RMK AO2 T00281002
KWAL 170354Z AUTO 09007KT 10SM CLR 06/M01 A3054 RMK AO2 SLP337 T00561006 TSNO
KWDG 170355Z AUTO 17008KT 10SM CLR 10/01 A2997 RMK AO2
KWDR 170415Z AUTO 10005KT 10SM 08/M05 A3038 RMK AO1
KWHP 170247Z 14005KT 10SM SKC 18/10 A2983 RMK LAST
KWJF 170356Z 27012KT 10SM CLR 19/M06 A2983 RMK AO2 SLP088 T01941056 $
KWLD 170354Z AUTO 17008KT 10SM CLR 11/02 A3000 RMK AO2 SLP158 T01110017
KWMC 170356Z AUTO 04004KT 10SM CLR 09/M03 A2997 RMK AO2 SLP132 T00941028 TSNO
KWRB 170358Z AUTO 08004KT 10SM CLR 09/02 A3031 RMK AO2 SLP267 T00920020
KWRI 170358Z AUTO 04003KT 10SM CLR 02/M06 A3054 RMK AO2 SLP346 T00211058
KWRL 170353Z AUTO 13009KT 10SM FEW100 04/M01 A3001 RMK AO2 SLP173 T00391006
KWST 170353Z AUTO 02006KT 10SM CLR 02/M09 A3058 RMK AO2 SLP357 T00221089
KWVI 170353Z AUTO 10006KT 10SM CLR 13/09 A2986 RMK AO2 SLP110 T01280094
KWVL 170415Z AUTO 00000KT 10SM CLR M05/M10 A3060 RMK AO1
KWWD 170415Z AUTO 06004KT 10SM CLR 04/M02 A3056 RMK AO1
KWWR 170355Z AUTO 04005KT 10SM CLR 13/00 A3001 RMK AO2
KXBP 170415Z AUTO 14008KT 10SM CLR 14/06 A2999 RMK AO2 T01410060
KXFL 170415Z AUTO 03008KT 10SM SCT020 BKN036 OVC044 17/15 A3020 RMK AO2 T01730148
KXIH 170415Z AUTO 14020KT 10SM FEW031 17/12 A3003 RMK A01
KXLL 170355Z AUTO 00000KT 10SM CLR 02/M08 A3058 RMK AO2
KXMR 170358Z AUTO 05006KT 10SM CLR 20/14 A3014 RMK AO2 SLP210 T02020143
KXNA 170353Z 18006KT 10SM CLR 08/M01 A3009 RMK AO2 SLP188 T00831006
KXPY 170415Z AUTO 10011KT 10SM OVC033 16/09 A3016 RMK A01
KXSA 170355Z AUTO 00000KT 10SM CLR 00/M04 A3052 RMK AO2 T00011043
KXVG 170416Z AUTO 04006KT 10SM -SN SCT060 OVC085 M04/M07 A3018 RMK AO2
KY19 170415Z AUTO 08009KT 10SM OVC070 M01/M10 A3025 RMK AO2
KY23 170415Z AUTO 08007KT 5SM -DZ SCT027 BKN032 OVC042 01/00 A2997 RMK AO2 T00110002
KY50 170356Z AUTO 11009KT 10SM SCT055 SCT070 05/M03 A3009 RMK AO2 TSNO T00501027 SLP193
KY51 170354Z AUTO 14018G24KT 10SM BKN080 OVC100 08/M01 A2992 RMK AO1 T00781015
KY63 170413Z AUTO 03009KT 10SM CLR M03/M06 A3016 RMK AO2 T10301063
KY70 170418Z AUTO 11013G21KT 10SM SCT120 02/M05 A3029 RMK AO2
KYIP 170353Z AUTO 09011KT 10SM CLR 01/M06 A3038 RMK AO2 SLP291 T00111061 TSNO
KYKM 170353Z 35005KT 10SM FEW050 BKN090 OVC110 14/04 A2995 RMK AO2 RAB37E51 SLP141 P0000 T01440044
KYKN 170415Z AUTO 34012KT 10SM OVC018 M01/M04 A3016 RMK AO1
KYNG 170351Z 08007KT 10SM SCT260 01/M08 A3039 RMK AO2 SLP303 T00111078
KZPH 170415Z AUTO 03006KT 10SM CLR 15/14 A3017 RMK AO2
KZZV 170353Z AUTO 08006KT 10SM CLR 03/M08 A3034 RMK AO2 SLP282 T00331083 TSNO